<?xml version="1.0" encoding="UTF-8" standalone="no" ?>
<gpx xmlns="http://www.topografix.com/GPX/1/1" xmlns:xsi="http://www.w3.org/2001/XMLSchema-instance" xsi:schemaLocation="http://www.topografix.com/GPX/1/1 http://www.topografix.com/GPX/1/1/gpx.xsd" version="1.1" creator="VisuGPX - https://www.visugpx.com">
  <metadata>
    <name>Forêt de Gros Bois et Bois de Notre Dame</name>
    <desc><![CDATA[Randonnée en boucle de 22km à partir de la gare de Boissy-St-Leger]]></desc>
  </metadata>
  <trk>
    <name><![CDATA[Forêt de Gros Bois et Bois de Notre Dame _R]]></name>
    <trkseg>
      <trkpt lat="48.75278" lon="2.50554">
        <ele>61.18</ele>
        <time>2016-02-14T08:16:12Z</time>
      </trkpt>
      <trkpt lat="48.75265" lon="2.50558">
        <ele>60.22</ele>
        <time>2016-02-14T08:16:29Z</time>
      </trkpt>
      <trkpt lat="48.75264" lon="2.5057">
        <ele>60.7</ele>
        <time>2016-02-14T08:16:40Z</time>
      </trkpt>
      <trkpt lat="48.75276" lon="2.50579">
        <ele>60.7</ele>
        <time>2016-02-14T08:16:57Z</time>
      </trkpt>
      <trkpt lat="48.75286" lon="2.50581">
        <ele>60.7</ele>
        <time>2016-02-14T08:17:05Z</time>
      </trkpt>
      <trkpt lat="48.75288" lon="2.50594">
        <ele>60.7</ele>
        <time>2016-02-14T08:17:12Z</time>
      </trkpt>
      <trkpt lat="48.75296" lon="2.50615">
        <ele>60.7</ele>
        <time>2016-02-14T08:17:29Z</time>
      </trkpt>
      <trkpt lat="48.75307" lon="2.50626">
        <ele>60.22</ele>
        <time>2016-02-14T08:17:43Z</time>
      </trkpt>
      <trkpt lat="48.75329" lon="2.50638">
        <ele>59.26</ele>
        <time>2016-02-14T08:17:58Z</time>
      </trkpt>
      <trkpt lat="48.75331" lon="2.50642">
        <ele>59.26</ele>
        <time>2016-02-14T08:18:15Z</time>
      </trkpt>
      <trkpt lat="48.75333" lon="2.5064">
        <ele>59.26</ele>
        <time>2016-02-14T08:18:41Z</time>
      </trkpt>
      <trkpt lat="48.75333" lon="2.5064">
        <ele>58.3</ele>
        <time>2016-02-14T08:18:58Z</time>
      </trkpt>
      <trkpt lat="48.75349" lon="2.5064">
        <ele>58.3</ele>
        <time>2016-02-14T08:19:16Z</time>
      </trkpt>
      <trkpt lat="48.75357" lon="2.50642">
        <ele>57.82</ele>
        <time>2016-02-14T08:19:23Z</time>
      </trkpt>
      <trkpt lat="48.75375" lon="2.50638">
        <ele>56.37</ele>
        <time>2016-02-14T08:19:42Z</time>
      </trkpt>
      <trkpt lat="48.75376" lon="2.5064">
        <ele>56.37</ele>
        <time>2016-02-14T08:19:58Z</time>
      </trkpt>
      <trkpt lat="48.75378" lon="2.50643">
        <ele>56.37</ele>
        <time>2016-02-14T08:20:03Z</time>
      </trkpt>
      <trkpt lat="48.7538" lon="2.50655">
        <ele>56.86</ele>
        <time>2016-02-14T08:20:10Z</time>
      </trkpt>
      <trkpt lat="48.75377" lon="2.50675">
        <ele>57.82</ele>
        <time>2016-02-14T08:20:22Z</time>
      </trkpt>
      <trkpt lat="48.75377" lon="2.50695">
        <ele>58.3</ele>
        <time>2016-02-14T08:20:35Z</time>
      </trkpt>
      <trkpt lat="48.75372" lon="2.50703">
        <ele>58.78</ele>
        <time>2016-02-14T08:20:42Z</time>
      </trkpt>
      <trkpt lat="48.75362" lon="2.50716">
        <ele>59.26</ele>
        <time>2016-02-14T08:20:53Z</time>
      </trkpt>
      <trkpt lat="48.75353" lon="2.50727">
        <ele>60.22</ele>
        <time>2016-02-14T08:21:06Z</time>
      </trkpt>
      <trkpt lat="48.75342" lon="2.5074">
        <ele>60.7</ele>
        <time>2016-02-14T08:21:20Z</time>
      </trkpt>
      <trkpt lat="48.75329" lon="2.50755">
        <ele>61.66</ele>
        <time>2016-02-14T08:21:35Z</time>
      </trkpt>
      <trkpt lat="48.75319" lon="2.50769">
        <ele>62.62</ele>
        <time>2016-02-14T08:21:48Z</time>
      </trkpt>
      <trkpt lat="48.75313" lon="2.50773">
        <ele>63.1</ele>
        <time>2016-02-14T08:21:54Z</time>
      </trkpt>
      <trkpt lat="48.75301" lon="2.5079">
        <ele>65.03</ele>
        <time>2016-02-14T08:22:09Z</time>
      </trkpt>
      <trkpt lat="48.75293" lon="2.50798">
        <ele>65.51</ele>
        <time>2016-02-14T08:22:19Z</time>
      </trkpt>
      <trkpt lat="48.75279" lon="2.50818">
        <ele>66.47</ele>
        <time>2016-02-14T08:22:32Z</time>
      </trkpt>
      <trkpt lat="48.7527" lon="2.50832">
        <ele>68.39</ele>
        <time>2016-02-14T08:22:46Z</time>
      </trkpt>
      <trkpt lat="48.75255" lon="2.50852">
        <ele>69.83</ele>
        <time>2016-02-14T08:23:00Z</time>
      </trkpt>
      <trkpt lat="48.75238" lon="2.50868">
        <ele>71.27</ele>
        <time>2016-02-14T08:23:18Z</time>
      </trkpt>
      <trkpt lat="48.75227" lon="2.50885">
        <ele>72.72</ele>
        <time>2016-02-14T08:23:34Z</time>
      </trkpt>
      <trkpt lat="48.75213" lon="2.50906">
        <ele>74.64</ele>
        <time>2016-02-14T08:23:51Z</time>
      </trkpt>
      <trkpt lat="48.75204" lon="2.5092">
        <ele>75.6</ele>
        <time>2016-02-14T08:24:03Z</time>
      </trkpt>
      <trkpt lat="48.75191" lon="2.5093">
        <ele>77.04</ele>
        <time>2016-02-14T08:24:18Z</time>
      </trkpt>
      <trkpt lat="48.75179" lon="2.5094">
        <ele>78.48</ele>
        <time>2016-02-14T08:24:33Z</time>
      </trkpt>
      <trkpt lat="48.75172" lon="2.50955">
        <ele>79.93</ele>
        <time>2016-02-14T08:24:48Z</time>
      </trkpt>
      <trkpt lat="48.75167" lon="2.50962">
        <ele>79.93</ele>
        <time>2016-02-14T08:24:55Z</time>
      </trkpt>
      <trkpt lat="48.75155" lon="2.50976">
        <ele>81.37</ele>
        <time>2016-02-14T08:25:10Z</time>
      </trkpt>
      <trkpt lat="48.75148" lon="2.50985">
        <ele>82.33</ele>
        <time>2016-02-14T08:25:22Z</time>
      </trkpt>
      <trkpt lat="48.75142" lon="2.50996">
        <ele>82.81</ele>
        <time>2016-02-14T08:25:33Z</time>
      </trkpt>
      <trkpt lat="48.75132" lon="2.51012">
        <ele>84.25</ele>
        <time>2016-02-14T08:25:46Z</time>
      </trkpt>
      <trkpt lat="48.75129" lon="2.51029">
        <ele>85.21</ele>
        <time>2016-02-14T08:25:59Z</time>
      </trkpt>
      <trkpt lat="48.7513" lon="2.51049">
        <ele>86.18</ele>
        <time>2016-02-14T08:26:14Z</time>
      </trkpt>
      <trkpt lat="48.75133" lon="2.51062">
        <ele>86.66</ele>
        <time>2016-02-14T08:26:30Z</time>
      </trkpt>
      <trkpt lat="48.75136" lon="2.51069">
        <ele>86.66</ele>
        <time>2016-02-14T08:26:46Z</time>
      </trkpt>
      <trkpt lat="48.75145" lon="2.51085">
        <ele>87.14</ele>
        <time>2016-02-14T08:27:04Z</time>
      </trkpt>
      <trkpt lat="48.75156" lon="2.51105">
        <ele>87.14</ele>
        <time>2016-02-14T08:27:17Z</time>
      </trkpt>
      <trkpt lat="48.7517" lon="2.51125">
        <ele>87.62</ele>
        <time>2016-02-14T08:27:33Z</time>
      </trkpt>
      <trkpt lat="48.75182" lon="2.51136">
        <ele>88.1</ele>
        <time>2016-02-14T08:27:49Z</time>
      </trkpt>
      <trkpt lat="48.75185" lon="2.51141">
        <ele>88.1</ele>
        <time>2016-02-14T08:27:53Z</time>
      </trkpt>
      <trkpt lat="48.752" lon="2.5117">
        <ele>88.1</ele>
        <time>2016-02-14T08:28:08Z</time>
      </trkpt>
      <trkpt lat="48.75206" lon="2.51179">
        <ele>88.58</ele>
        <time>2016-02-14T08:28:17Z</time>
      </trkpt>
      <trkpt lat="48.75208" lon="2.51183">
        <ele>88.58</ele>
        <time>2016-02-14T08:28:20Z</time>
      </trkpt>
      <trkpt lat="48.75217" lon="2.51195">
        <ele>88.58</ele>
        <time>2016-02-14T08:28:32Z</time>
      </trkpt>
      <trkpt lat="48.75222" lon="2.51199">
        <ele>88.58</ele>
        <time>2016-02-14T08:28:37Z</time>
      </trkpt>
      <trkpt lat="48.75239" lon="2.51223">
        <ele>88.1</ele>
        <time>2016-02-14T08:28:57Z</time>
      </trkpt>
      <trkpt lat="48.75252" lon="2.51242">
        <ele>88.58</ele>
        <time>2016-02-14T08:29:14Z</time>
      </trkpt>
      <trkpt lat="48.75254" lon="2.51244">
        <ele>88.1</ele>
        <time>2016-02-14T08:29:18Z</time>
      </trkpt>
      <trkpt lat="48.75261" lon="2.51272">
        <ele>88.58</ele>
        <time>2016-02-14T08:29:34Z</time>
      </trkpt>
      <trkpt lat="48.75266" lon="2.51296">
        <ele>89.06</ele>
        <time>2016-02-14T08:29:48Z</time>
      </trkpt>
      <trkpt lat="48.75266" lon="2.51298">
        <ele>89.06</ele>
        <time>2016-02-14T08:29:49Z</time>
      </trkpt>
      <trkpt lat="48.75264" lon="2.51324">
        <ele>89.54</ele>
        <time>2016-02-14T08:30:04Z</time>
      </trkpt>
      <trkpt lat="48.75264" lon="2.51335">
        <ele>89.54</ele>
        <time>2016-02-14T08:30:19Z</time>
      </trkpt>
      <trkpt lat="48.75268" lon="2.51341">
        <ele>89.54</ele>
        <time>2016-02-14T08:30:32Z</time>
      </trkpt>
      <trkpt lat="48.75277" lon="2.51339">
        <ele>89.06</ele>
        <time>2016-02-14T08:30:46Z</time>
      </trkpt>
      <trkpt lat="48.75293" lon="2.51356">
        <ele>88.58</ele>
        <time>2016-02-14T08:31:06Z</time>
      </trkpt>
      <trkpt lat="48.75297" lon="2.51364">
        <ele>88.1</ele>
        <time>2016-02-14T08:31:28Z</time>
      </trkpt>
      <trkpt lat="48.75305" lon="2.51379">
        <ele>87.62</ele>
        <time>2016-02-14T08:31:45Z</time>
      </trkpt>
      <trkpt lat="48.75311" lon="2.51388">
        <ele>87.62</ele>
        <time>2016-02-14T08:32:05Z</time>
      </trkpt>
      <trkpt lat="48.75322" lon="2.51389">
        <ele>87.62</ele>
        <time>2016-02-14T08:32:23Z</time>
      </trkpt>
      <trkpt lat="48.75335" lon="2.51412">
        <ele>86.66</ele>
        <time>2016-02-14T08:32:44Z</time>
      </trkpt>
      <trkpt lat="48.75348" lon="2.51428">
        <ele>86.18</ele>
        <time>2016-02-14T08:33:02Z</time>
      </trkpt>
      <trkpt lat="48.75353" lon="2.51434">
        <ele>86.18</ele>
        <time>2016-02-14T08:33:18Z</time>
      </trkpt>
      <trkpt lat="48.75359" lon="2.5144">
        <ele>86.18</ele>
        <time>2016-02-14T08:33:41Z</time>
      </trkpt>
      <trkpt lat="48.75361" lon="2.5144">
        <ele>86.18</ele>
        <time>2016-02-14T08:35:48Z</time>
      </trkpt>
      <trkpt lat="48.75363" lon="2.51443">
        <ele>86.18</ele>
        <time>2016-02-14T08:36:25Z</time>
      </trkpt>
      <trkpt lat="48.75373" lon="2.51459">
        <ele>85.69</ele>
        <time>2016-02-14T08:37:59Z</time>
      </trkpt>
      <trkpt lat="48.75387" lon="2.51475">
        <ele>85.21</ele>
        <time>2016-02-14T08:38:17Z</time>
      </trkpt>
      <trkpt lat="48.75399" lon="2.51489">
        <ele>84.73</ele>
        <time>2016-02-14T08:38:35Z</time>
      </trkpt>
      <trkpt lat="48.75417" lon="2.51511">
        <ele>84.25</ele>
        <time>2016-02-14T08:38:54Z</time>
      </trkpt>
      <trkpt lat="48.75427" lon="2.51525">
        <ele>84.25</ele>
        <time>2016-02-14T08:39:09Z</time>
      </trkpt>
      <trkpt lat="48.75438" lon="2.51539">
        <ele>83.77</ele>
        <time>2016-02-14T08:39:24Z</time>
      </trkpt>
      <trkpt lat="48.75439" lon="2.5154">
        <ele>83.77</ele>
        <time>2016-02-14T08:39:25Z</time>
      </trkpt>
      <trkpt lat="48.75457" lon="2.51563">
        <ele>83.77</ele>
        <time>2016-02-14T08:39:43Z</time>
      </trkpt>
      <trkpt lat="48.75471" lon="2.51577">
        <ele>83.77</ele>
        <time>2016-02-14T08:39:59Z</time>
      </trkpt>
      <trkpt lat="48.75488" lon="2.51598">
        <ele>83.77</ele>
        <time>2016-02-14T08:40:16Z</time>
      </trkpt>
      <trkpt lat="48.75503" lon="2.51621">
        <ele>83.77</ele>
        <time>2016-02-14T08:40:33Z</time>
      </trkpt>
      <trkpt lat="48.75516" lon="2.51638">
        <ele>83.77</ele>
        <time>2016-02-14T08:40:51Z</time>
      </trkpt>
      <trkpt lat="48.75514" lon="2.51631">
        <ele>82.81</ele>
        <time>2016-02-14T08:41:09Z</time>
      </trkpt>
      <trkpt lat="48.75508" lon="2.51628">
        <ele>83.29</ele>
        <time>2016-02-14T08:41:26Z</time>
      </trkpt>
      <trkpt lat="48.75511" lon="2.51633">
        <ele>83.29</ele>
        <time>2016-02-14T08:41:45Z</time>
      </trkpt>
      <trkpt lat="48.75503" lon="2.51649">
        <ele>83.77</ele>
        <time>2016-02-14T08:42:00Z</time>
      </trkpt>
      <trkpt lat="48.75504" lon="2.51657">
        <ele>84.25</ele>
        <time>2016-02-14T08:42:15Z</time>
      </trkpt>
      <trkpt lat="48.75494" lon="2.51657">
        <ele>84.25</ele>
        <time>2016-02-14T08:42:35Z</time>
      </trkpt>
      <trkpt lat="48.75485" lon="2.51677">
        <ele>85.21</ele>
        <time>2016-02-14T08:43:47Z</time>
      </trkpt>
      <trkpt lat="48.75473" lon="2.51704">
        <ele>86.18</ele>
        <time>2016-02-14T08:44:05Z</time>
      </trkpt>
      <trkpt lat="48.75468" lon="2.51723">
        <ele>87.14</ele>
        <time>2016-02-14T08:44:19Z</time>
      </trkpt>
      <trkpt lat="48.75458" lon="2.51745">
        <ele>87.62</ele>
        <time>2016-02-14T08:44:34Z</time>
      </trkpt>
      <trkpt lat="48.75449" lon="2.51773">
        <ele>88.58</ele>
        <time>2016-02-14T08:44:52Z</time>
      </trkpt>
      <trkpt lat="48.75439" lon="2.51794">
        <ele>89.06</ele>
        <time>2016-02-14T08:45:07Z</time>
      </trkpt>
      <trkpt lat="48.75437" lon="2.518">
        <ele>89.54</ele>
        <time>2016-02-14T08:45:11Z</time>
      </trkpt>
      <trkpt lat="48.7543" lon="2.51818">
        <ele>89.54</ele>
        <time>2016-02-14T08:45:24Z</time>
      </trkpt>
      <trkpt lat="48.75426" lon="2.51838">
        <ele>90.02</ele>
        <time>2016-02-14T08:45:39Z</time>
      </trkpt>
      <trkpt lat="48.75421" lon="2.51846">
        <ele>90.02</ele>
        <time>2016-02-14T08:45:45Z</time>
      </trkpt>
      <trkpt lat="48.7541" lon="2.51867">
        <ele>90.98</ele>
        <time>2016-02-14T08:46:01Z</time>
      </trkpt>
      <trkpt lat="48.75401" lon="2.51889">
        <ele>91.46</ele>
        <time>2016-02-14T08:46:16Z</time>
      </trkpt>
      <trkpt lat="48.754" lon="2.51893">
        <ele>91.46</ele>
        <time>2016-02-14T08:46:18Z</time>
      </trkpt>
      <trkpt lat="48.75396" lon="2.51908">
        <ele>91.46</ele>
        <time>2016-02-14T08:46:26Z</time>
      </trkpt>
      <trkpt lat="48.75394" lon="2.51932">
        <ele>91.94</ele>
        <time>2016-02-14T08:46:41Z</time>
      </trkpt>
      <trkpt lat="48.75383" lon="2.51958">
        <ele>92.42</ele>
        <time>2016-02-14T08:46:57Z</time>
      </trkpt>
      <trkpt lat="48.75381" lon="2.51964">
        <ele>92.42</ele>
        <time>2016-02-14T08:47:01Z</time>
      </trkpt>
      <trkpt lat="48.75374" lon="2.51994">
        <ele>92.9</ele>
        <time>2016-02-14T08:47:21Z</time>
      </trkpt>
      <trkpt lat="48.7537" lon="2.52021">
        <ele>92.9</ele>
        <time>2016-02-14T08:47:37Z</time>
      </trkpt>
      <trkpt lat="48.75365" lon="2.52047">
        <ele>93.39</ele>
        <time>2016-02-14T08:47:53Z</time>
      </trkpt>
      <trkpt lat="48.75363" lon="2.52075">
        <ele>93.39</ele>
        <time>2016-02-14T08:48:10Z</time>
      </trkpt>
      <trkpt lat="48.75361" lon="2.52097">
        <ele>93.39</ele>
        <time>2016-02-14T08:48:26Z</time>
      </trkpt>
      <trkpt lat="48.75354" lon="2.5213">
        <ele>93.39</ele>
        <time>2016-02-14T08:48:43Z</time>
      </trkpt>
      <trkpt lat="48.75351" lon="2.52155">
        <ele>93.39</ele>
        <time>2016-02-14T08:49:00Z</time>
      </trkpt>
      <trkpt lat="48.75347" lon="2.52187">
        <ele>93.39</ele>
        <time>2016-02-14T08:49:17Z</time>
      </trkpt>
      <trkpt lat="48.75344" lon="2.52211">
        <ele>93.39</ele>
        <time>2016-02-14T08:49:33Z</time>
      </trkpt>
      <trkpt lat="48.75344" lon="2.52228">
        <ele>93.39</ele>
        <time>2016-02-14T08:49:49Z</time>
      </trkpt>
      <trkpt lat="48.75339" lon="2.52255">
        <ele>93.39</ele>
        <time>2016-02-14T08:50:09Z</time>
      </trkpt>
      <trkpt lat="48.75338" lon="2.52266">
        <ele>93.39</ele>
        <time>2016-02-14T08:50:26Z</time>
      </trkpt>
      <trkpt lat="48.7534" lon="2.52288">
        <ele>93.39</ele>
        <time>2016-02-14T08:50:43Z</time>
      </trkpt>
      <trkpt lat="48.75341" lon="2.52289">
        <ele>93.39</ele>
        <time>2016-02-14T08:50:44Z</time>
      </trkpt>
      <trkpt lat="48.75345" lon="2.52299">
        <ele>93.39</ele>
        <time>2016-02-14T08:50:56Z</time>
      </trkpt>
      <trkpt lat="48.75334" lon="2.523">
        <ele>93.39</ele>
        <time>2016-02-14T08:51:08Z</time>
      </trkpt>
      <trkpt lat="48.75319" lon="2.52293">
        <ele>93.39</ele>
        <time>2016-02-14T08:51:22Z</time>
      </trkpt>
      <trkpt lat="48.75317" lon="2.52284">
        <ele>93.39</ele>
        <time>2016-02-14T08:51:31Z</time>
      </trkpt>
      <trkpt lat="48.75316" lon="2.52283">
        <ele>93.39</ele>
        <time>2016-02-14T08:51:44Z</time>
      </trkpt>
      <trkpt lat="48.75318" lon="2.52287">
        <ele>93.39</ele>
        <time>2016-02-14T08:52:04Z</time>
      </trkpt>
      <trkpt lat="48.75308" lon="2.5229">
        <ele>93.39</ele>
        <time>2016-02-14T08:52:16Z</time>
      </trkpt>
      <trkpt lat="48.75305" lon="2.5229">
        <ele>93.39</ele>
        <time>2016-02-14T08:52:30Z</time>
      </trkpt>
      <trkpt lat="48.75307" lon="2.5229">
        <ele>93.39</ele>
        <time>2016-02-14T08:52:52Z</time>
      </trkpt>
      <trkpt lat="48.75294" lon="2.52282">
        <ele>92.9</ele>
        <time>2016-02-14T08:53:10Z</time>
      </trkpt>
      <trkpt lat="48.75283" lon="2.52276">
        <ele>92.42</ele>
        <time>2016-02-14T08:53:24Z</time>
      </trkpt>
      <trkpt lat="48.75275" lon="2.5227">
        <ele>93.39</ele>
        <time>2016-02-14T08:53:38Z</time>
      </trkpt>
      <trkpt lat="48.75262" lon="2.52267">
        <ele>93.39</ele>
        <time>2016-02-14T08:53:53Z</time>
      </trkpt>
      <trkpt lat="48.75259" lon="2.52267">
        <ele>93.39</ele>
        <time>2016-02-14T08:53:57Z</time>
      </trkpt>
      <trkpt lat="48.75254" lon="2.52264">
        <ele>93.39</ele>
        <time>2016-02-14T08:54:06Z</time>
      </trkpt>
      <trkpt lat="48.75242" lon="2.52263">
        <ele>92.9</ele>
        <time>2016-02-14T08:54:20Z</time>
      </trkpt>
      <trkpt lat="48.75227" lon="2.52263">
        <ele>92.9</ele>
        <time>2016-02-14T08:54:35Z</time>
      </trkpt>
      <trkpt lat="48.75215" lon="2.52259">
        <ele>92.9</ele>
        <time>2016-02-14T08:54:52Z</time>
      </trkpt>
      <trkpt lat="48.7521" lon="2.52244">
        <ele>92.9</ele>
        <time>2016-02-14T08:55:07Z</time>
      </trkpt>
      <trkpt lat="48.75198" lon="2.52233">
        <ele>92.42</ele>
        <time>2016-02-14T08:55:22Z</time>
      </trkpt>
      <trkpt lat="48.75185" lon="2.52226">
        <ele>92.42</ele>
        <time>2016-02-14T08:55:36Z</time>
      </trkpt>
      <trkpt lat="48.75171" lon="2.5222">
        <ele>92.42</ele>
        <time>2016-02-14T08:55:51Z</time>
      </trkpt>
      <trkpt lat="48.75154" lon="2.52222">
        <ele>92.42</ele>
        <time>2016-02-14T08:56:08Z</time>
      </trkpt>
      <trkpt lat="48.75141" lon="2.52221">
        <ele>91.94</ele>
        <time>2016-02-14T08:56:25Z</time>
      </trkpt>
      <trkpt lat="48.7513" lon="2.52209">
        <ele>92.42</ele>
        <time>2016-02-14T08:56:39Z</time>
      </trkpt>
      <trkpt lat="48.75119" lon="2.52196">
        <ele>92.42</ele>
        <time>2016-02-14T08:56:56Z</time>
      </trkpt>
      <trkpt lat="48.75105" lon="2.52189">
        <ele>92.42</ele>
        <time>2016-02-14T08:57:12Z</time>
      </trkpt>
      <trkpt lat="48.75099" lon="2.52182">
        <ele>92.42</ele>
        <time>2016-02-14T08:57:19Z</time>
      </trkpt>
      <trkpt lat="48.75089" lon="2.52171">
        <ele>92.42</ele>
        <time>2016-02-14T08:57:34Z</time>
      </trkpt>
      <trkpt lat="48.75086" lon="2.52155">
        <ele>92.42</ele>
        <time>2016-02-14T08:57:47Z</time>
      </trkpt>
      <trkpt lat="48.75074" lon="2.52134">
        <ele>91.94</ele>
        <time>2016-02-14T08:58:07Z</time>
      </trkpt>
      <trkpt lat="48.75062" lon="2.52119">
        <ele>91.94</ele>
        <time>2016-02-14T08:58:21Z</time>
      </trkpt>
      <trkpt lat="48.75045" lon="2.52098">
        <ele>91.94</ele>
        <time>2016-02-14T08:58:39Z</time>
      </trkpt>
      <trkpt lat="48.75036" lon="2.52086">
        <ele>91.94</ele>
        <time>2016-02-14T08:58:53Z</time>
      </trkpt>
      <trkpt lat="48.75027" lon="2.52088">
        <ele>91.94</ele>
        <time>2016-02-14T08:59:04Z</time>
      </trkpt>
      <trkpt lat="48.75025" lon="2.5209">
        <ele>91.94</ele>
        <time>2016-02-14T08:59:07Z</time>
      </trkpt>
      <trkpt lat="48.75022" lon="2.52092">
        <ele>91.46</ele>
        <time>2016-02-14T08:59:10Z</time>
      </trkpt>
      <trkpt lat="48.75019" lon="2.52094">
        <ele>91.94</ele>
        <time>2016-02-14T08:59:13Z</time>
      </trkpt>
      <trkpt lat="48.75009" lon="2.52105">
        <ele>91.46</ele>
        <time>2016-02-14T08:59:28Z</time>
      </trkpt>
      <trkpt lat="48.75005" lon="2.5211">
        <ele>91.46</ele>
        <time>2016-02-14T08:59:34Z</time>
      </trkpt>
      <trkpt lat="48.74999" lon="2.52125">
        <ele>91.46</ele>
        <time>2016-02-14T08:59:45Z</time>
      </trkpt>
      <trkpt lat="48.74994" lon="2.5213">
        <ele>91.46</ele>
        <time>2016-02-14T08:59:50Z</time>
      </trkpt>
      <trkpt lat="48.7498" lon="2.5214">
        <ele>91.94</ele>
        <time>2016-02-14T09:00:05Z</time>
      </trkpt>
      <trkpt lat="48.74976" lon="2.52148">
        <ele>91.46</ele>
        <time>2016-02-14T09:00:10Z</time>
      </trkpt>
      <trkpt lat="48.74972" lon="2.52153">
        <ele>91.94</ele>
        <time>2016-02-14T09:00:16Z</time>
      </trkpt>
      <trkpt lat="48.74961" lon="2.52169">
        <ele>91.46</ele>
        <time>2016-02-14T09:00:30Z</time>
      </trkpt>
      <trkpt lat="48.74954" lon="2.5218">
        <ele>91.46</ele>
        <time>2016-02-14T09:00:42Z</time>
      </trkpt>
      <trkpt lat="48.74944" lon="2.52193">
        <ele>91.46</ele>
        <time>2016-02-14T09:00:57Z</time>
      </trkpt>
      <trkpt lat="48.74935" lon="2.52204">
        <ele>91.46</ele>
        <time>2016-02-14T09:01:08Z</time>
      </trkpt>
      <trkpt lat="48.74924" lon="2.5222">
        <ele>90.98</ele>
        <time>2016-02-14T09:01:24Z</time>
      </trkpt>
      <trkpt lat="48.74911" lon="2.52232">
        <ele>90.98</ele>
        <time>2016-02-14T09:01:38Z</time>
      </trkpt>
      <trkpt lat="48.74896" lon="2.52245">
        <ele>90.5</ele>
        <time>2016-02-14T09:01:54Z</time>
      </trkpt>
      <trkpt lat="48.74884" lon="2.52255">
        <ele>90.5</ele>
        <time>2016-02-14T09:02:07Z</time>
      </trkpt>
      <trkpt lat="48.74872" lon="2.52272">
        <ele>90.5</ele>
        <time>2016-02-14T09:02:22Z</time>
      </trkpt>
      <trkpt lat="48.7486" lon="2.52292">
        <ele>90.02</ele>
        <time>2016-02-14T09:02:39Z</time>
      </trkpt>
      <trkpt lat="48.74848" lon="2.52306">
        <ele>90.02</ele>
        <time>2016-02-14T09:02:53Z</time>
      </trkpt>
      <trkpt lat="48.74838" lon="2.52318">
        <ele>89.54</ele>
        <time>2016-02-14T09:03:06Z</time>
      </trkpt>
      <trkpt lat="48.74829" lon="2.52332">
        <ele>89.54</ele>
        <time>2016-02-14T09:03:18Z</time>
      </trkpt>
      <trkpt lat="48.7482" lon="2.52342">
        <ele>89.54</ele>
        <time>2016-02-14T09:03:32Z</time>
      </trkpt>
      <trkpt lat="48.74814" lon="2.52356">
        <ele>89.54</ele>
        <time>2016-02-14T09:03:47Z</time>
      </trkpt>
      <trkpt lat="48.74815" lon="2.52361">
        <ele>90.02</ele>
        <time>2016-02-14T09:03:50Z</time>
      </trkpt>
      <trkpt lat="48.7482" lon="2.52387">
        <ele>89.54</ele>
        <time>2016-02-14T09:04:08Z</time>
      </trkpt>
      <trkpt lat="48.74825" lon="2.52413">
        <ele>90.02</ele>
        <time>2016-02-14T09:04:27Z</time>
      </trkpt>
      <trkpt lat="48.7483" lon="2.52443">
        <ele>89.54</ele>
        <time>2016-02-14T09:04:43Z</time>
      </trkpt>
      <trkpt lat="48.74833" lon="2.52467">
        <ele>89.54</ele>
        <time>2016-02-14T09:05:00Z</time>
      </trkpt>
      <trkpt lat="48.74836" lon="2.52496">
        <ele>90.02</ele>
        <time>2016-02-14T09:05:14Z</time>
      </trkpt>
      <trkpt lat="48.74841" lon="2.52526">
        <ele>90.02</ele>
        <time>2016-02-14T09:05:31Z</time>
      </trkpt>
      <trkpt lat="48.74842" lon="2.5254">
        <ele>90.5</ele>
        <time>2016-02-14T09:05:45Z</time>
      </trkpt>
      <trkpt lat="48.74842" lon="2.52552">
        <ele>90.02</ele>
        <time>2016-02-14T09:06:01Z</time>
      </trkpt>
      <trkpt lat="48.74844" lon="2.52564">
        <ele>90.02</ele>
        <time>2016-02-14T09:06:12Z</time>
      </trkpt>
      <trkpt lat="48.74848" lon="2.52582">
        <ele>90.5</ele>
        <time>2016-02-14T09:06:26Z</time>
      </trkpt>
      <trkpt lat="48.74849" lon="2.52598">
        <ele>90.5</ele>
        <time>2016-02-14T09:06:39Z</time>
      </trkpt>
      <trkpt lat="48.74852" lon="2.52621">
        <ele>90.5</ele>
        <time>2016-02-14T09:06:54Z</time>
      </trkpt>
      <trkpt lat="48.74853" lon="2.52634">
        <ele>90.5</ele>
        <time>2016-02-14T09:07:02Z</time>
      </trkpt>
      <trkpt lat="48.74854" lon="2.52641">
        <ele>90.98</ele>
        <time>2016-02-14T09:07:06Z</time>
      </trkpt>
      <trkpt lat="48.74856" lon="2.52669">
        <ele>90.5</ele>
        <time>2016-02-14T09:07:21Z</time>
      </trkpt>
      <trkpt lat="48.74858" lon="2.52692">
        <ele>90.5</ele>
        <time>2016-02-14T09:07:33Z</time>
      </trkpt>
      <trkpt lat="48.74858" lon="2.52705">
        <ele>90.5</ele>
        <time>2016-02-14T09:07:40Z</time>
      </trkpt>
      <trkpt lat="48.7486" lon="2.52722">
        <ele>90.5</ele>
        <time>2016-02-14T09:07:50Z</time>
      </trkpt>
      <trkpt lat="48.7486" lon="2.52726">
        <ele>90.98</ele>
        <time>2016-02-14T09:07:52Z</time>
      </trkpt>
      <trkpt lat="48.74864" lon="2.52745">
        <ele>90.5</ele>
        <time>2016-02-14T09:08:05Z</time>
      </trkpt>
      <trkpt lat="48.74866" lon="2.52769">
        <ele>90.98</ele>
        <time>2016-02-14T09:08:18Z</time>
      </trkpt>
      <trkpt lat="48.74866" lon="2.52777">
        <ele>90.98</ele>
        <time>2016-02-14T09:08:23Z</time>
      </trkpt>
      <trkpt lat="48.7487" lon="2.52799">
        <ele>90.98</ele>
        <time>2016-02-14T09:08:37Z</time>
      </trkpt>
      <trkpt lat="48.74871" lon="2.52802">
        <ele>90.98</ele>
        <time>2016-02-14T09:08:39Z</time>
      </trkpt>
      <trkpt lat="48.74875" lon="2.52828">
        <ele>91.46</ele>
        <time>2016-02-14T09:08:54Z</time>
      </trkpt>
      <trkpt lat="48.74878" lon="2.52852">
        <ele>90.98</ele>
        <time>2016-02-14T09:09:09Z</time>
      </trkpt>
      <trkpt lat="48.74881" lon="2.52879">
        <ele>91.46</ele>
        <time>2016-02-14T09:09:25Z</time>
      </trkpt>
      <trkpt lat="48.74884" lon="2.529">
        <ele>91.46</ele>
        <time>2016-02-14T09:09:38Z</time>
      </trkpt>
      <trkpt lat="48.74885" lon="2.52905">
        <ele>91.46</ele>
        <time>2016-02-14T09:09:41Z</time>
      </trkpt>
      <trkpt lat="48.74886" lon="2.52915">
        <ele>91.94</ele>
        <time>2016-02-14T09:09:47Z</time>
      </trkpt>
      <trkpt lat="48.74889" lon="2.52942">
        <ele>91.94</ele>
        <time>2016-02-14T09:10:06Z</time>
      </trkpt>
      <trkpt lat="48.74892" lon="2.52959">
        <ele>91.94</ele>
        <time>2016-02-14T09:10:19Z</time>
      </trkpt>
      <trkpt lat="48.74895" lon="2.52976">
        <ele>91.94</ele>
        <time>2016-02-14T09:10:29Z</time>
      </trkpt>
      <trkpt lat="48.74895" lon="2.52985">
        <ele>91.94</ele>
        <time>2016-02-14T09:10:33Z</time>
      </trkpt>
      <trkpt lat="48.74898" lon="2.53009">
        <ele>91.94</ele>
        <time>2016-02-14T09:10:49Z</time>
      </trkpt>
      <trkpt lat="48.749" lon="2.53022">
        <ele>91.94</ele>
        <time>2016-02-14T09:11:05Z</time>
      </trkpt>
      <trkpt lat="48.749" lon="2.53022">
        <ele>91.94</ele>
        <time>2016-02-14T09:11:28Z</time>
      </trkpt>
      <trkpt lat="48.74902" lon="2.53022">
        <ele>91.94</ele>
        <time>2016-02-14T09:11:48Z</time>
      </trkpt>
      <trkpt lat="48.74901" lon="2.53027">
        <ele>91.94</ele>
        <time>2016-02-14T09:12:10Z</time>
      </trkpt>
      <trkpt lat="48.74903" lon="2.53045">
        <ele>92.42</ele>
        <time>2016-02-14T09:12:24Z</time>
      </trkpt>
      <trkpt lat="48.74904" lon="2.53071">
        <ele>92.42</ele>
        <time>2016-02-14T09:12:38Z</time>
      </trkpt>
      <trkpt lat="48.74909" lon="2.53091">
        <ele>92.42</ele>
        <time>2016-02-14T09:12:53Z</time>
      </trkpt>
      <trkpt lat="48.74909" lon="2.53102">
        <ele>92.42</ele>
        <time>2016-02-14T09:13:00Z</time>
      </trkpt>
      <trkpt lat="48.74914" lon="2.53132">
        <ele>92.42</ele>
        <time>2016-02-14T09:13:16Z</time>
      </trkpt>
      <trkpt lat="48.74919" lon="2.5315">
        <ele>92.42</ele>
        <time>2016-02-14T09:13:29Z</time>
      </trkpt>
      <trkpt lat="48.74923" lon="2.53166">
        <ele>92.42</ele>
        <time>2016-02-14T09:13:41Z</time>
      </trkpt>
      <trkpt lat="48.74929" lon="2.53184">
        <ele>92.42</ele>
        <time>2016-02-14T09:13:55Z</time>
      </trkpt>
      <trkpt lat="48.74933" lon="2.53203">
        <ele>92.42</ele>
        <time>2016-02-14T09:14:09Z</time>
      </trkpt>
      <trkpt lat="48.74935" lon="2.53223">
        <ele>91.94</ele>
        <time>2016-02-14T09:14:20Z</time>
      </trkpt>
      <trkpt lat="48.74943" lon="2.53243">
        <ele>91.94</ele>
        <time>2016-02-14T09:14:35Z</time>
      </trkpt>
      <trkpt lat="48.74947" lon="2.53269">
        <ele>91.46</ele>
        <time>2016-02-14T09:14:51Z</time>
      </trkpt>
      <trkpt lat="48.74947" lon="2.53285">
        <ele>91.46</ele>
        <time>2016-02-14T09:14:59Z</time>
      </trkpt>
      <trkpt lat="48.74946" lon="2.53315">
        <ele>91.46</ele>
        <time>2016-02-14T09:15:13Z</time>
      </trkpt>
      <trkpt lat="48.74943" lon="2.53339">
        <ele>90.98</ele>
        <time>2016-02-14T09:15:26Z</time>
      </trkpt>
      <trkpt lat="48.74941" lon="2.53362">
        <ele>90.98</ele>
        <time>2016-02-14T09:15:40Z</time>
      </trkpt>
      <trkpt lat="48.74942" lon="2.53373">
        <ele>90.98</ele>
        <time>2016-02-14T09:15:45Z</time>
      </trkpt>
      <trkpt lat="48.74945" lon="2.53394">
        <ele>90.98</ele>
        <time>2016-02-14T09:16:00Z</time>
      </trkpt>
      <trkpt lat="48.7495" lon="2.53419">
        <ele>91.46</ele>
        <time>2016-02-14T09:16:13Z</time>
      </trkpt>
      <trkpt lat="48.7495" lon="2.5343">
        <ele>91.46</ele>
        <time>2016-02-14T09:16:18Z</time>
      </trkpt>
      <trkpt lat="48.74954" lon="2.53455">
        <ele>91.46</ele>
        <time>2016-02-14T09:16:33Z</time>
      </trkpt>
      <trkpt lat="48.74956" lon="2.53463">
        <ele>91.46</ele>
        <time>2016-02-14T09:16:39Z</time>
      </trkpt>
      <trkpt lat="48.7496" lon="2.53489">
        <ele>91.46</ele>
        <time>2016-02-14T09:16:54Z</time>
      </trkpt>
      <trkpt lat="48.7496" lon="2.5349">
        <ele>91.46</ele>
        <time>2016-02-14T09:16:55Z</time>
      </trkpt>
      <trkpt lat="48.74962" lon="2.53508">
        <ele>91.46</ele>
        <time>2016-02-14T09:17:04Z</time>
      </trkpt>
      <trkpt lat="48.74966" lon="2.53532">
        <ele>91.46</ele>
        <time>2016-02-14T09:17:18Z</time>
      </trkpt>
      <trkpt lat="48.74968" lon="2.53558">
        <ele>91.46</ele>
        <time>2016-02-14T09:17:33Z</time>
      </trkpt>
      <trkpt lat="48.74967" lon="2.53577">
        <ele>91.46</ele>
        <time>2016-02-14T09:17:45Z</time>
      </trkpt>
      <trkpt lat="48.74963" lon="2.53603">
        <ele>91.46</ele>
        <time>2016-02-14T09:18:03Z</time>
      </trkpt>
      <trkpt lat="48.74958" lon="2.53626">
        <ele>91.94</ele>
        <time>2016-02-14T09:18:19Z</time>
      </trkpt>
      <trkpt lat="48.74948" lon="2.5365">
        <ele>91.46</ele>
        <time>2016-02-14T09:18:35Z</time>
      </trkpt>
      <trkpt lat="48.74938" lon="2.53674">
        <ele>91.94</ele>
        <time>2016-02-14T09:18:51Z</time>
      </trkpt>
      <trkpt lat="48.74929" lon="2.53697">
        <ele>91.94</ele>
        <time>2016-02-14T09:19:08Z</time>
      </trkpt>
      <trkpt lat="48.74916" lon="2.53726">
        <ele>91.94</ele>
        <time>2016-02-14T09:19:27Z</time>
      </trkpt>
      <trkpt lat="48.7491" lon="2.53748">
        <ele>91.46</ele>
        <time>2016-02-14T09:19:42Z</time>
      </trkpt>
      <trkpt lat="48.74899" lon="2.53771">
        <ele>91.46</ele>
        <time>2016-02-14T09:19:59Z</time>
      </trkpt>
      <trkpt lat="48.74895" lon="2.53789">
        <ele>91.46</ele>
        <time>2016-02-14T09:20:12Z</time>
      </trkpt>
      <trkpt lat="48.74892" lon="2.53806">
        <ele>91.46</ele>
        <time>2016-02-14T09:20:25Z</time>
      </trkpt>
      <trkpt lat="48.74892" lon="2.53809">
        <ele>91.46</ele>
        <time>2016-02-14T09:20:27Z</time>
      </trkpt>
      <trkpt lat="48.74886" lon="2.5383">
        <ele>91.46</ele>
        <time>2016-02-14T09:20:40Z</time>
      </trkpt>
      <trkpt lat="48.74879" lon="2.53857">
        <ele>91.46</ele>
        <time>2016-02-14T09:20:55Z</time>
      </trkpt>
      <trkpt lat="48.74881" lon="2.53881">
        <ele>90.98</ele>
        <time>2016-02-14T09:21:09Z</time>
      </trkpt>
      <trkpt lat="48.74882" lon="2.53889">
        <ele>90.98</ele>
        <time>2016-02-14T09:21:14Z</time>
      </trkpt>
      <trkpt lat="48.74893" lon="2.53906">
        <ele>90.98</ele>
        <time>2016-02-14T09:21:29Z</time>
      </trkpt>
      <trkpt lat="48.74904" lon="2.53922">
        <ele>91.46</ele>
        <time>2016-02-14T09:21:43Z</time>
      </trkpt>
      <trkpt lat="48.74909" lon="2.53933">
        <ele>91.46</ele>
        <time>2016-02-14T09:21:55Z</time>
      </trkpt>
      <trkpt lat="48.74908" lon="2.53941">
        <ele>91.46</ele>
        <time>2016-02-14T09:22:06Z</time>
      </trkpt>
      <trkpt lat="48.74908" lon="2.53944">
        <ele>91.46</ele>
        <time>2016-02-14T09:22:08Z</time>
      </trkpt>
      <trkpt lat="48.7491" lon="2.53962">
        <ele>91.46</ele>
        <time>2016-02-14T09:22:21Z</time>
      </trkpt>
      <trkpt lat="48.7491" lon="2.53971">
        <ele>91.46</ele>
        <time>2016-02-14T09:22:27Z</time>
      </trkpt>
      <trkpt lat="48.74918" lon="2.53987">
        <ele>91.46</ele>
        <time>2016-02-14T09:22:41Z</time>
      </trkpt>
      <trkpt lat="48.74926" lon="2.53996">
        <ele>91.46</ele>
        <time>2016-02-14T09:22:56Z</time>
      </trkpt>
      <trkpt lat="48.74933" lon="2.54003">
        <ele>91.46</ele>
        <time>2016-02-14T09:23:11Z</time>
      </trkpt>
      <trkpt lat="48.74934" lon="2.54002">
        <ele>91.46</ele>
        <time>2016-02-14T09:23:25Z</time>
      </trkpt>
      <trkpt lat="48.74941" lon="2.54005">
        <ele>91.46</ele>
        <time>2016-02-14T09:23:41Z</time>
      </trkpt>
      <trkpt lat="48.74947" lon="2.54008">
        <ele>91.46</ele>
        <time>2016-02-14T09:23:55Z</time>
      </trkpt>
      <trkpt lat="48.74957" lon="2.54015">
        <ele>91.46</ele>
        <time>2016-02-14T09:24:09Z</time>
      </trkpt>
      <trkpt lat="48.7497" lon="2.54025">
        <ele>91.46</ele>
        <time>2016-02-14T09:24:27Z</time>
      </trkpt>
      <trkpt lat="48.74975" lon="2.54037">
        <ele>90.98</ele>
        <time>2016-02-14T09:24:37Z</time>
      </trkpt>
      <trkpt lat="48.74974" lon="2.54043">
        <ele>91.46</ele>
        <time>2016-02-14T09:24:41Z</time>
      </trkpt>
      <trkpt lat="48.74974" lon="2.54056">
        <ele>91.46</ele>
        <time>2016-02-14T09:24:49Z</time>
      </trkpt>
      <trkpt lat="48.74967" lon="2.54081">
        <ele>91.46</ele>
        <time>2016-02-14T09:25:05Z</time>
      </trkpt>
      <trkpt lat="48.74961" lon="2.54103">
        <ele>91.46</ele>
        <time>2016-02-14T09:25:19Z</time>
      </trkpt>
      <trkpt lat="48.74959" lon="2.54112">
        <ele>91.46</ele>
        <time>2016-02-14T09:25:25Z</time>
      </trkpt>
      <trkpt lat="48.74955" lon="2.54138">
        <ele>91.46</ele>
        <time>2016-02-14T09:25:41Z</time>
      </trkpt>
      <trkpt lat="48.7495" lon="2.54162">
        <ele>91.46</ele>
        <time>2016-02-14T09:25:56Z</time>
      </trkpt>
      <trkpt lat="48.74948" lon="2.54172">
        <ele>90.98</ele>
        <time>2016-02-14T09:26:03Z</time>
      </trkpt>
      <trkpt lat="48.74944" lon="2.54191">
        <ele>90.98</ele>
        <time>2016-02-14T09:26:16Z</time>
      </trkpt>
      <trkpt lat="48.74937" lon="2.54222">
        <ele>90.98</ele>
        <time>2016-02-14T09:26:33Z</time>
      </trkpt>
      <trkpt lat="48.7493" lon="2.54252">
        <ele>90.98</ele>
        <time>2016-02-14T09:26:51Z</time>
      </trkpt>
      <trkpt lat="48.74927" lon="2.54277">
        <ele>90.98</ele>
        <time>2016-02-14T09:27:06Z</time>
      </trkpt>
      <trkpt lat="48.74923" lon="2.543">
        <ele>90.98</ele>
        <time>2016-02-14T09:27:20Z</time>
      </trkpt>
      <trkpt lat="48.74915" lon="2.54331">
        <ele>90.5</ele>
        <time>2016-02-14T09:27:39Z</time>
      </trkpt>
      <trkpt lat="48.74909" lon="2.54353">
        <ele>90.98</ele>
        <time>2016-02-14T09:27:54Z</time>
      </trkpt>
      <trkpt lat="48.74905" lon="2.5438">
        <ele>90.5</ele>
        <time>2016-02-14T09:28:10Z</time>
      </trkpt>
      <trkpt lat="48.74905" lon="2.54401">
        <ele>90.5</ele>
        <time>2016-02-14T09:28:23Z</time>
      </trkpt>
      <trkpt lat="48.749" lon="2.54417">
        <ele>90.98</ele>
        <time>2016-02-14T09:28:41Z</time>
      </trkpt>
      <trkpt lat="48.74902" lon="2.54412">
        <ele>90.5</ele>
        <time>2016-02-14T09:29:08Z</time>
      </trkpt>
      <trkpt lat="48.74899" lon="2.54416">
        <ele>90.98</ele>
        <time>2016-02-14T09:29:32Z</time>
      </trkpt>
      <trkpt lat="48.74898" lon="2.54417">
        <ele>90.5</ele>
        <time>2016-02-14T09:29:55Z</time>
      </trkpt>
      <trkpt lat="48.74891" lon="2.54431">
        <ele>90.98</ele>
        <time>2016-02-14T09:30:14Z</time>
      </trkpt>
      <trkpt lat="48.74891" lon="2.54443">
        <ele>90.98</ele>
        <time>2016-02-14T09:30:30Z</time>
      </trkpt>
      <trkpt lat="48.74885" lon="2.54458">
        <ele>90.5</ele>
        <time>2016-02-14T09:30:48Z</time>
      </trkpt>
      <trkpt lat="48.74882" lon="2.54479">
        <ele>90.98</ele>
        <time>2016-02-14T09:31:04Z</time>
      </trkpt>
      <trkpt lat="48.74876" lon="2.54503">
        <ele>90.98</ele>
        <time>2016-02-14T09:31:20Z</time>
      </trkpt>
      <trkpt lat="48.74871" lon="2.54528">
        <ele>90.98</ele>
        <time>2016-02-14T09:31:36Z</time>
      </trkpt>
      <trkpt lat="48.74866" lon="2.54554">
        <ele>90.98</ele>
        <time>2016-02-14T09:31:53Z</time>
      </trkpt>
      <trkpt lat="48.74863" lon="2.54574">
        <ele>90.98</ele>
        <time>2016-02-14T09:32:07Z</time>
      </trkpt>
      <trkpt lat="48.74857" lon="2.54602">
        <ele>90.98</ele>
        <time>2016-02-14T09:32:22Z</time>
      </trkpt>
      <trkpt lat="48.74853" lon="2.54625">
        <ele>90.5</ele>
        <time>2016-02-14T09:32:35Z</time>
      </trkpt>
      <trkpt lat="48.74848" lon="2.54647">
        <ele>90.98</ele>
        <time>2016-02-14T09:32:48Z</time>
      </trkpt>
      <trkpt lat="48.74848" lon="2.54653">
        <ele>90.98</ele>
        <time>2016-02-14T09:32:52Z</time>
      </trkpt>
      <trkpt lat="48.74846" lon="2.5466">
        <ele>90.5</ele>
        <time>2016-02-14T09:32:56Z</time>
      </trkpt>
      <trkpt lat="48.74841" lon="2.54684">
        <ele>90.5</ele>
        <time>2016-02-14T09:33:11Z</time>
      </trkpt>
      <trkpt lat="48.74835" lon="2.54712">
        <ele>90.5</ele>
        <time>2016-02-14T09:33:28Z</time>
      </trkpt>
      <trkpt lat="48.7483" lon="2.54736">
        <ele>90.5</ele>
        <time>2016-02-14T09:33:43Z</time>
      </trkpt>
      <trkpt lat="48.74826" lon="2.5475">
        <ele>90.5</ele>
        <time>2016-02-14T09:33:51Z</time>
      </trkpt>
      <trkpt lat="48.74821" lon="2.54775">
        <ele>90.5</ele>
        <time>2016-02-14T09:34:05Z</time>
      </trkpt>
      <trkpt lat="48.74817" lon="2.54797">
        <ele>90.5</ele>
        <time>2016-02-14T09:34:18Z</time>
      </trkpt>
      <trkpt lat="48.74814" lon="2.5482">
        <ele>90.5</ele>
        <time>2016-02-14T09:34:31Z</time>
      </trkpt>
      <trkpt lat="48.74812" lon="2.54839">
        <ele>90.5</ele>
        <time>2016-02-14T09:34:44Z</time>
      </trkpt>
      <trkpt lat="48.74806" lon="2.54862">
        <ele>90.5</ele>
        <time>2016-02-14T09:34:57Z</time>
      </trkpt>
      <trkpt lat="48.74799" lon="2.54883">
        <ele>90.5</ele>
        <time>2016-02-14T09:35:11Z</time>
      </trkpt>
      <trkpt lat="48.74791" lon="2.54914">
        <ele>90.5</ele>
        <time>2016-02-14T09:35:31Z</time>
      </trkpt>
      <trkpt lat="48.74786" lon="2.54938">
        <ele>90.5</ele>
        <time>2016-02-14T09:35:44Z</time>
      </trkpt>
      <trkpt lat="48.74783" lon="2.54961">
        <ele>90.5</ele>
        <time>2016-02-14T09:35:59Z</time>
      </trkpt>
      <trkpt lat="48.74779" lon="2.54984">
        <ele>90.5</ele>
        <time>2016-02-14T09:36:13Z</time>
      </trkpt>
      <trkpt lat="48.74774" lon="2.55008">
        <ele>90.02</ele>
        <time>2016-02-14T09:36:28Z</time>
      </trkpt>
      <trkpt lat="48.74768" lon="2.55033">
        <ele>90.5</ele>
        <time>2016-02-14T09:36:45Z</time>
      </trkpt>
      <trkpt lat="48.74763" lon="2.55057">
        <ele>90.5</ele>
        <time>2016-02-14T09:36:57Z</time>
      </trkpt>
      <trkpt lat="48.74759" lon="2.55076">
        <ele>90.02</ele>
        <time>2016-02-14T09:37:10Z</time>
      </trkpt>
      <trkpt lat="48.74756" lon="2.55087">
        <ele>90.02</ele>
        <time>2016-02-14T09:37:18Z</time>
      </trkpt>
      <trkpt lat="48.74751" lon="2.55112">
        <ele>90.02</ele>
        <time>2016-02-14T09:37:34Z</time>
      </trkpt>
      <trkpt lat="48.74745" lon="2.55135">
        <ele>89.54</ele>
        <time>2016-02-14T09:37:49Z</time>
      </trkpt>
      <trkpt lat="48.74743" lon="2.55157">
        <ele>89.54</ele>
        <time>2016-02-14T09:38:02Z</time>
      </trkpt>
      <trkpt lat="48.74741" lon="2.55169">
        <ele>89.54</ele>
        <time>2016-02-14T09:38:10Z</time>
      </trkpt>
      <trkpt lat="48.74736" lon="2.55194">
        <ele>89.06</ele>
        <time>2016-02-14T09:38:24Z</time>
      </trkpt>
      <trkpt lat="48.74733" lon="2.55202">
        <ele>89.06</ele>
        <time>2016-02-14T09:38:29Z</time>
      </trkpt>
      <trkpt lat="48.7473" lon="2.55224">
        <ele>88.58</ele>
        <time>2016-02-14T09:38:42Z</time>
      </trkpt>
      <trkpt lat="48.74727" lon="2.55242">
        <ele>88.1</ele>
        <time>2016-02-14T09:38:56Z</time>
      </trkpt>
      <trkpt lat="48.74722" lon="2.5526">
        <ele>87.62</ele>
        <time>2016-02-14T09:39:11Z</time>
      </trkpt>
      <trkpt lat="48.74721" lon="2.55284">
        <ele>87.14</ele>
        <time>2016-02-14T09:39:26Z</time>
      </trkpt>
      <trkpt lat="48.74716" lon="2.55308">
        <ele>86.66</ele>
        <time>2016-02-14T09:39:41Z</time>
      </trkpt>
      <trkpt lat="48.74712" lon="2.5533">
        <ele>86.18</ele>
        <time>2016-02-14T09:39:54Z</time>
      </trkpt>
      <trkpt lat="48.74704" lon="2.55363">
        <ele>85.69</ele>
        <time>2016-02-14T09:40:09Z</time>
      </trkpt>
      <trkpt lat="48.74697" lon="2.55392">
        <ele>85.21</ele>
        <time>2016-02-14T09:40:26Z</time>
      </trkpt>
      <trkpt lat="48.74688" lon="2.55418">
        <ele>84.73</ele>
        <time>2016-02-14T09:40:38Z</time>
      </trkpt>
      <trkpt lat="48.74687" lon="2.55426">
        <ele>84.25</ele>
        <time>2016-02-14T09:40:43Z</time>
      </trkpt>
      <trkpt lat="48.74682" lon="2.55441">
        <ele>84.25</ele>
        <time>2016-02-14T09:40:50Z</time>
      </trkpt>
      <trkpt lat="48.74678" lon="2.55461">
        <ele>84.25</ele>
        <time>2016-02-14T09:41:02Z</time>
      </trkpt>
      <trkpt lat="48.74673" lon="2.55486">
        <ele>84.25</ele>
        <time>2016-02-14T09:41:17Z</time>
      </trkpt>
      <trkpt lat="48.74667" lon="2.5551">
        <ele>84.25</ele>
        <time>2016-02-14T09:41:33Z</time>
      </trkpt>
      <trkpt lat="48.74661" lon="2.55529">
        <ele>84.73</ele>
        <time>2016-02-14T09:41:46Z</time>
      </trkpt>
      <trkpt lat="48.74655" lon="2.55554">
        <ele>85.21</ele>
        <time>2016-02-14T09:42:02Z</time>
      </trkpt>
      <trkpt lat="48.74653" lon="2.55571">
        <ele>85.69</ele>
        <time>2016-02-14T09:42:12Z</time>
      </trkpt>
      <trkpt lat="48.74649" lon="2.5559">
        <ele>86.18</ele>
        <time>2016-02-14T09:42:25Z</time>
      </trkpt>
      <trkpt lat="48.74647" lon="2.55608">
        <ele>86.66</ele>
        <time>2016-02-14T09:42:37Z</time>
      </trkpt>
      <trkpt lat="48.74643" lon="2.55622">
        <ele>86.66</ele>
        <time>2016-02-14T09:42:48Z</time>
      </trkpt>
      <trkpt lat="48.74638" lon="2.55629">
        <ele>86.66</ele>
        <time>2016-02-14T09:42:59Z</time>
      </trkpt>
      <trkpt lat="48.74639" lon="2.55637">
        <ele>86.66</ele>
        <time>2016-02-14T09:43:11Z</time>
      </trkpt>
      <trkpt lat="48.74635" lon="2.55651">
        <ele>86.66</ele>
        <time>2016-02-14T09:43:23Z</time>
      </trkpt>
      <trkpt lat="48.74634" lon="2.55657">
        <ele>86.66</ele>
        <time>2016-02-14T09:43:27Z</time>
      </trkpt>
      <trkpt lat="48.7463" lon="2.55671">
        <ele>86.66</ele>
        <time>2016-02-14T09:43:42Z</time>
      </trkpt>
      <trkpt lat="48.74623" lon="2.55688">
        <ele>87.14</ele>
        <time>2016-02-14T09:43:57Z</time>
      </trkpt>
      <trkpt lat="48.74623" lon="2.55707">
        <ele>87.14</ele>
        <time>2016-02-14T09:44:11Z</time>
      </trkpt>
      <trkpt lat="48.74635" lon="2.5572">
        <ele>87.62</ele>
        <time>2016-02-14T09:44:28Z</time>
      </trkpt>
      <trkpt lat="48.74652" lon="2.55728">
        <ele>87.14</ele>
        <time>2016-02-14T09:44:43Z</time>
      </trkpt>
      <trkpt lat="48.74652" lon="2.55729">
        <ele>87.62</ele>
        <time>2016-02-14T09:44:44Z</time>
      </trkpt>
      <trkpt lat="48.74643" lon="2.55747">
        <ele>87.14</ele>
        <time>2016-02-14T09:44:58Z</time>
      </trkpt>
      <trkpt lat="48.74633" lon="2.55766">
        <ele>87.62</ele>
        <time>2016-02-14T09:45:14Z</time>
      </trkpt>
      <trkpt lat="48.74622" lon="2.55785">
        <ele>87.62</ele>
        <time>2016-02-14T09:45:31Z</time>
      </trkpt>
      <trkpt lat="48.74614" lon="2.55803">
        <ele>87.62</ele>
        <time>2016-02-14T09:45:47Z</time>
      </trkpt>
      <trkpt lat="48.74603" lon="2.55817">
        <ele>87.62</ele>
        <time>2016-02-14T09:46:03Z</time>
      </trkpt>
      <trkpt lat="48.74588" lon="2.55844">
        <ele>87.62</ele>
        <time>2016-02-14T09:46:23Z</time>
      </trkpt>
      <trkpt lat="48.7458" lon="2.55863">
        <ele>88.1</ele>
        <time>2016-02-14T09:46:39Z</time>
      </trkpt>
      <trkpt lat="48.74573" lon="2.55877">
        <ele>88.1</ele>
        <time>2016-02-14T09:46:52Z</time>
      </trkpt>
      <trkpt lat="48.74558" lon="2.55899">
        <ele>88.1</ele>
        <time>2016-02-14T09:47:08Z</time>
      </trkpt>
      <trkpt lat="48.74555" lon="2.55903">
        <ele>88.1</ele>
        <time>2016-02-14T09:47:11Z</time>
      </trkpt>
      <trkpt lat="48.74546" lon="2.55917">
        <ele>88.1</ele>
        <time>2016-02-14T09:47:24Z</time>
      </trkpt>
      <trkpt lat="48.7454" lon="2.5593">
        <ele>88.1</ele>
        <time>2016-02-14T09:47:33Z</time>
      </trkpt>
      <trkpt lat="48.74531" lon="2.55947">
        <ele>88.1</ele>
        <time>2016-02-14T09:47:46Z</time>
      </trkpt>
      <trkpt lat="48.74529" lon="2.55949">
        <ele>88.1</ele>
        <time>2016-02-14T09:47:48Z</time>
      </trkpt>
      <trkpt lat="48.74521" lon="2.55963">
        <ele>88.1</ele>
        <time>2016-02-14T09:47:58Z</time>
      </trkpt>
      <trkpt lat="48.74518" lon="2.55968">
        <ele>88.1</ele>
        <time>2016-02-14T09:48:02Z</time>
      </trkpt>
      <trkpt lat="48.74508" lon="2.55984">
        <ele>88.1</ele>
        <time>2016-02-14T09:48:15Z</time>
      </trkpt>
      <trkpt lat="48.74504" lon="2.55993">
        <ele>88.1</ele>
        <time>2016-02-14T09:48:22Z</time>
      </trkpt>
      <trkpt lat="48.74494" lon="2.56006">
        <ele>88.58</ele>
        <time>2016-02-14T09:48:32Z</time>
      </trkpt>
      <trkpt lat="48.74488" lon="2.56019">
        <ele>88.1</ele>
        <time>2016-02-14T09:48:42Z</time>
      </trkpt>
      <trkpt lat="48.74487" lon="2.56021">
        <ele>88.1</ele>
        <time>2016-02-14T09:48:44Z</time>
      </trkpt>
      <trkpt lat="48.74485" lon="2.56026">
        <ele>88.58</ele>
        <time>2016-02-14T09:48:47Z</time>
      </trkpt>
      <trkpt lat="48.74481" lon="2.56032">
        <ele>88.58</ele>
        <time>2016-02-14T09:48:59Z</time>
      </trkpt>
      <trkpt lat="48.74486" lon="2.56027">
        <ele>88.58</ele>
        <time>2016-02-14T09:49:19Z</time>
      </trkpt>
      <trkpt lat="48.74488" lon="2.56022">
        <ele>88.58</ele>
        <time>2016-02-14T09:49:23Z</time>
      </trkpt>
      <trkpt lat="48.74502" lon="2.55999">
        <ele>88.58</ele>
        <time>2016-02-14T09:49:43Z</time>
      </trkpt>
      <trkpt lat="48.74515" lon="2.55978">
        <ele>88.58</ele>
        <time>2016-02-14T09:50:00Z</time>
      </trkpt>
      <trkpt lat="48.7452" lon="2.55965">
        <ele>88.58</ele>
        <time>2016-02-14T09:50:10Z</time>
      </trkpt>
      <trkpt lat="48.74529" lon="2.55945">
        <ele>88.58</ele>
        <time>2016-02-14T09:50:26Z</time>
      </trkpt>
      <trkpt lat="48.7453" lon="2.55943">
        <ele>88.1</ele>
        <time>2016-02-14T09:50:28Z</time>
      </trkpt>
      <trkpt lat="48.74526" lon="2.55938">
        <ele>88.58</ele>
        <time>2016-02-14T09:50:37Z</time>
      </trkpt>
      <trkpt lat="48.74522" lon="2.55934">
        <ele>88.58</ele>
        <time>2016-02-14T09:50:41Z</time>
      </trkpt>
      <trkpt lat="48.74516" lon="2.55927">
        <ele>88.58</ele>
        <time>2016-02-14T09:50:47Z</time>
      </trkpt>
      <trkpt lat="48.74502" lon="2.55913">
        <ele>88.58</ele>
        <time>2016-02-14T09:51:02Z</time>
      </trkpt>
      <trkpt lat="48.74492" lon="2.55899">
        <ele>88.1</ele>
        <time>2016-02-14T09:51:16Z</time>
      </trkpt>
      <trkpt lat="48.74477" lon="2.55881">
        <ele>88.1</ele>
        <time>2016-02-14T09:51:33Z</time>
      </trkpt>
      <trkpt lat="48.74467" lon="2.55865">
        <ele>88.1</ele>
        <time>2016-02-14T09:51:49Z</time>
      </trkpt>
      <trkpt lat="48.74454" lon="2.55851">
        <ele>88.1</ele>
        <time>2016-02-14T09:52:04Z</time>
      </trkpt>
      <trkpt lat="48.74446" lon="2.55842">
        <ele>88.58</ele>
        <time>2016-02-14T09:52:12Z</time>
      </trkpt>
      <trkpt lat="48.74435" lon="2.55833">
        <ele>88.1</ele>
        <time>2016-02-14T09:52:24Z</time>
      </trkpt>
      <trkpt lat="48.74421" lon="2.55828">
        <ele>88.58</ele>
        <time>2016-02-14T09:52:39Z</time>
      </trkpt>
      <trkpt lat="48.74419" lon="2.55827">
        <ele>88.1</ele>
        <time>2016-02-14T09:52:41Z</time>
      </trkpt>
      <trkpt lat="48.744" lon="2.55825">
        <ele>88.58</ele>
        <time>2016-02-14T09:52:58Z</time>
      </trkpt>
      <trkpt lat="48.74384" lon="2.55829">
        <ele>88.58</ele>
        <time>2016-02-14T09:53:12Z</time>
      </trkpt>
      <trkpt lat="48.74368" lon="2.55835">
        <ele>88.58</ele>
        <time>2016-02-14T09:53:27Z</time>
      </trkpt>
      <trkpt lat="48.74362" lon="2.55838">
        <ele>88.58</ele>
        <time>2016-02-14T09:53:33Z</time>
      </trkpt>
      <trkpt lat="48.74348" lon="2.55845">
        <ele>88.58</ele>
        <time>2016-02-14T09:53:48Z</time>
      </trkpt>
      <trkpt lat="48.74332" lon="2.55861">
        <ele>88.58</ele>
        <time>2016-02-14T09:54:05Z</time>
      </trkpt>
      <trkpt lat="48.74324" lon="2.55868">
        <ele>88.58</ele>
        <time>2016-02-14T09:54:13Z</time>
      </trkpt>
      <trkpt lat="48.74311" lon="2.55878">
        <ele>89.06</ele>
        <time>2016-02-14T09:54:28Z</time>
      </trkpt>
      <trkpt lat="48.74301" lon="2.55888">
        <ele>90.02</ele>
        <time>2016-02-14T09:54:43Z</time>
      </trkpt>
      <trkpt lat="48.74288" lon="2.55895">
        <ele>90.98</ele>
        <time>2016-02-14T09:54:57Z</time>
      </trkpt>
      <trkpt lat="48.74274" lon="2.55906">
        <ele>91.94</ele>
        <time>2016-02-14T09:55:11Z</time>
      </trkpt>
      <trkpt lat="48.74259" lon="2.55911">
        <ele>92.42</ele>
        <time>2016-02-14T09:55:26Z</time>
      </trkpt>
      <trkpt lat="48.74248" lon="2.55912">
        <ele>92.9</ele>
        <time>2016-02-14T09:55:38Z</time>
      </trkpt>
      <trkpt lat="48.74235" lon="2.55914">
        <ele>93.39</ele>
        <time>2016-02-14T09:55:51Z</time>
      </trkpt>
      <trkpt lat="48.74218" lon="2.55914">
        <ele>92.9</ele>
        <time>2016-02-14T09:56:06Z</time>
      </trkpt>
      <trkpt lat="48.74216" lon="2.55913">
        <ele>92.9</ele>
        <time>2016-02-14T09:56:08Z</time>
      </trkpt>
      <trkpt lat="48.74201" lon="2.55915">
        <ele>92.42</ele>
        <time>2016-02-14T09:56:22Z</time>
      </trkpt>
      <trkpt lat="48.74197" lon="2.55915">
        <ele>91.94</ele>
        <time>2016-02-14T09:56:25Z</time>
      </trkpt>
      <trkpt lat="48.74182" lon="2.55913">
        <ele>91.46</ele>
        <time>2016-02-14T09:56:39Z</time>
      </trkpt>
      <trkpt lat="48.74164" lon="2.55909">
        <ele>90.5</ele>
        <time>2016-02-14T09:56:54Z</time>
      </trkpt>
      <trkpt lat="48.74146" lon="2.55907">
        <ele>90.5</ele>
        <time>2016-02-14T09:57:10Z</time>
      </trkpt>
      <trkpt lat="48.74131" lon="2.5591">
        <ele>90.02</ele>
        <time>2016-02-14T09:57:25Z</time>
      </trkpt>
      <trkpt lat="48.74114" lon="2.55913">
        <ele>89.06</ele>
        <time>2016-02-14T09:57:40Z</time>
      </trkpt>
      <trkpt lat="48.74101" lon="2.55911">
        <ele>89.06</ele>
        <time>2016-02-14T09:57:52Z</time>
      </trkpt>
      <trkpt lat="48.74091" lon="2.55901">
        <ele>89.06</ele>
        <time>2016-02-14T09:58:03Z</time>
      </trkpt>
      <trkpt lat="48.74074" lon="2.55882">
        <ele>89.06</ele>
        <time>2016-02-14T09:58:21Z</time>
      </trkpt>
      <trkpt lat="48.74072" lon="2.55882">
        <ele>89.06</ele>
        <time>2016-02-14T09:58:23Z</time>
      </trkpt>
      <trkpt lat="48.74056" lon="2.55876">
        <ele>88.58</ele>
        <time>2016-02-14T09:58:39Z</time>
      </trkpt>
      <trkpt lat="48.74047" lon="2.55877">
        <ele>89.06</ele>
        <time>2016-02-14T09:58:48Z</time>
      </trkpt>
      <trkpt lat="48.74031" lon="2.55874">
        <ele>89.06</ele>
        <time>2016-02-14T09:59:04Z</time>
      </trkpt>
      <trkpt lat="48.74022" lon="2.55876">
        <ele>89.06</ele>
        <time>2016-02-14T09:59:11Z</time>
      </trkpt>
      <trkpt lat="48.74008" lon="2.55878">
        <ele>89.06</ele>
        <time>2016-02-14T09:59:25Z</time>
      </trkpt>
      <trkpt lat="48.74002" lon="2.55878">
        <ele>89.06</ele>
        <time>2016-02-14T09:59:32Z</time>
      </trkpt>
      <trkpt lat="48.73989" lon="2.55879">
        <ele>89.06</ele>
        <time>2016-02-14T09:59:47Z</time>
      </trkpt>
      <trkpt lat="48.73973" lon="2.55881">
        <ele>89.06</ele>
        <time>2016-02-14T10:00:02Z</time>
      </trkpt>
      <trkpt lat="48.73966" lon="2.5588">
        <ele>89.06</ele>
        <time>2016-02-14T10:00:09Z</time>
      </trkpt>
      <trkpt lat="48.73961" lon="2.55882">
        <ele>89.06</ele>
        <time>2016-02-14T10:00:14Z</time>
      </trkpt>
      <trkpt lat="48.73947" lon="2.55874">
        <ele>89.06</ele>
        <time>2016-02-14T10:00:29Z</time>
      </trkpt>
      <trkpt lat="48.73929" lon="2.55862">
        <ele>89.06</ele>
        <time>2016-02-14T10:00:45Z</time>
      </trkpt>
      <trkpt lat="48.73924" lon="2.55851">
        <ele>89.06</ele>
        <time>2016-02-14T10:00:53Z</time>
      </trkpt>
      <trkpt lat="48.73914" lon="2.55826">
        <ele>89.06</ele>
        <time>2016-02-14T10:01:10Z</time>
      </trkpt>
      <trkpt lat="48.73905" lon="2.55801">
        <ele>89.06</ele>
        <time>2016-02-14T10:01:26Z</time>
      </trkpt>
      <trkpt lat="48.73898" lon="2.55788">
        <ele>89.06</ele>
        <time>2016-02-14T10:01:37Z</time>
      </trkpt>
      <trkpt lat="48.73891" lon="2.55765">
        <ele>89.06</ele>
        <time>2016-02-14T10:01:53Z</time>
      </trkpt>
      <trkpt lat="48.73884" lon="2.55738">
        <ele>89.54</ele>
        <time>2016-02-14T10:02:09Z</time>
      </trkpt>
      <trkpt lat="48.73882" lon="2.55717">
        <ele>89.06</ele>
        <time>2016-02-14T10:02:24Z</time>
      </trkpt>
      <trkpt lat="48.73876" lon="2.55696">
        <ele>89.06</ele>
        <time>2016-02-14T10:02:40Z</time>
      </trkpt>
      <trkpt lat="48.7387" lon="2.5568">
        <ele>89.06</ele>
        <time>2016-02-14T10:02:53Z</time>
      </trkpt>
      <trkpt lat="48.73864" lon="2.55663">
        <ele>89.06</ele>
        <time>2016-02-14T10:03:06Z</time>
      </trkpt>
      <trkpt lat="48.73855" lon="2.55643">
        <ele>89.06</ele>
        <time>2016-02-14T10:03:20Z</time>
      </trkpt>
      <trkpt lat="48.73855" lon="2.55628">
        <ele>89.54</ele>
        <time>2016-02-14T10:03:35Z</time>
      </trkpt>
      <trkpt lat="48.73858" lon="2.55602">
        <ele>89.06</ele>
        <time>2016-02-14T10:03:47Z</time>
      </trkpt>
      <trkpt lat="48.73855" lon="2.55568">
        <ele>88.58</ele>
        <time>2016-02-14T10:04:04Z</time>
      </trkpt>
      <trkpt lat="48.73851" lon="2.55545">
        <ele>88.58</ele>
        <time>2016-02-14T10:04:18Z</time>
      </trkpt>
      <trkpt lat="48.73844" lon="2.55518">
        <ele>89.06</ele>
        <time>2016-02-14T10:04:36Z</time>
      </trkpt>
      <trkpt lat="48.73839" lon="2.55503">
        <ele>89.06</ele>
        <time>2016-02-14T10:04:46Z</time>
      </trkpt>
      <trkpt lat="48.73829" lon="2.5548">
        <ele>89.06</ele>
        <time>2016-02-14T10:05:02Z</time>
      </trkpt>
      <trkpt lat="48.73819" lon="2.55467">
        <ele>89.06</ele>
        <time>2016-02-14T10:05:13Z</time>
      </trkpt>
      <trkpt lat="48.73815" lon="2.5546">
        <ele>89.06</ele>
        <time>2016-02-14T10:05:19Z</time>
      </trkpt>
      <trkpt lat="48.73813" lon="2.55455">
        <ele>89.06</ele>
        <time>2016-02-14T10:05:23Z</time>
      </trkpt>
      <trkpt lat="48.73802" lon="2.55441">
        <ele>88.58</ele>
        <time>2016-02-14T10:05:37Z</time>
      </trkpt>
      <trkpt lat="48.73788" lon="2.55421">
        <ele>88.58</ele>
        <time>2016-02-14T10:05:55Z</time>
      </trkpt>
      <trkpt lat="48.73776" lon="2.55403">
        <ele>88.1</ele>
        <time>2016-02-14T10:06:11Z</time>
      </trkpt>
      <trkpt lat="48.7377" lon="2.55383">
        <ele>88.58</ele>
        <time>2016-02-14T10:06:25Z</time>
      </trkpt>
      <trkpt lat="48.73765" lon="2.55353">
        <ele>88.1</ele>
        <time>2016-02-14T10:06:42Z</time>
      </trkpt>
      <trkpt lat="48.73761" lon="2.55336">
        <ele>88.1</ele>
        <time>2016-02-14T10:06:56Z</time>
      </trkpt>
      <trkpt lat="48.73759" lon="2.55331">
        <ele>87.62</ele>
        <time>2016-02-14T10:07:15Z</time>
      </trkpt>
      <trkpt lat="48.73755" lon="2.55327">
        <ele>87.62</ele>
        <time>2016-02-14T10:07:42Z</time>
      </trkpt>
      <trkpt lat="48.73751" lon="2.55326">
        <ele>87.62</ele>
        <time>2016-02-14T10:07:52Z</time>
      </trkpt>
      <trkpt lat="48.7374" lon="2.55319">
        <ele>87.62</ele>
        <time>2016-02-14T10:08:05Z</time>
      </trkpt>
      <trkpt lat="48.73735" lon="2.55311">
        <ele>87.62</ele>
        <time>2016-02-14T10:08:20Z</time>
      </trkpt>
      <trkpt lat="48.73731" lon="2.55304">
        <ele>87.62</ele>
        <time>2016-02-14T10:08:29Z</time>
      </trkpt>
      <trkpt lat="48.73732" lon="2.55291">
        <ele>87.62</ele>
        <time>2016-02-14T10:08:40Z</time>
      </trkpt>
      <trkpt lat="48.73736" lon="2.55279">
        <ele>87.62</ele>
        <time>2016-02-14T10:08:54Z</time>
      </trkpt>
      <trkpt lat="48.73739" lon="2.55273">
        <ele>87.62</ele>
        <time>2016-02-14T10:09:01Z</time>
      </trkpt>
      <trkpt lat="48.73734" lon="2.55262">
        <ele>87.62</ele>
        <time>2016-02-14T10:09:12Z</time>
      </trkpt>
      <trkpt lat="48.7372" lon="2.55247">
        <ele>87.62</ele>
        <time>2016-02-14T10:09:28Z</time>
      </trkpt>
      <trkpt lat="48.73709" lon="2.55242">
        <ele>87.14</ele>
        <time>2016-02-14T10:09:42Z</time>
      </trkpt>
      <trkpt lat="48.73704" lon="2.5524">
        <ele>87.14</ele>
        <time>2016-02-14T10:09:58Z</time>
      </trkpt>
      <trkpt lat="48.73692" lon="2.5525">
        <ele>87.62</ele>
        <time>2016-02-14T10:10:11Z</time>
      </trkpt>
      <trkpt lat="48.73679" lon="2.55257">
        <ele>87.62</ele>
        <time>2016-02-14T10:10:23Z</time>
      </trkpt>
      <trkpt lat="48.7367" lon="2.55258">
        <ele>88.1</ele>
        <time>2016-02-14T10:10:38Z</time>
      </trkpt>
      <trkpt lat="48.73664" lon="2.55249">
        <ele>88.1</ele>
        <time>2016-02-14T10:10:50Z</time>
      </trkpt>
      <trkpt lat="48.73648" lon="2.5523">
        <ele>88.1</ele>
        <time>2016-02-14T10:11:08Z</time>
      </trkpt>
      <trkpt lat="48.73645" lon="2.55226">
        <ele>88.1</ele>
        <time>2016-02-14T10:11:12Z</time>
      </trkpt>
      <trkpt lat="48.73635" lon="2.55209">
        <ele>87.62</ele>
        <time>2016-02-14T10:11:27Z</time>
      </trkpt>
      <trkpt lat="48.73623" lon="2.55193">
        <ele>87.62</ele>
        <time>2016-02-14T10:11:40Z</time>
      </trkpt>
      <trkpt lat="48.73613" lon="2.55182">
        <ele>87.62</ele>
        <time>2016-02-14T10:11:54Z</time>
      </trkpt>
      <trkpt lat="48.73598" lon="2.55161">
        <ele>87.62</ele>
        <time>2016-02-14T10:12:12Z</time>
      </trkpt>
      <trkpt lat="48.7358" lon="2.55137">
        <ele>88.1</ele>
        <time>2016-02-14T10:12:31Z</time>
      </trkpt>
      <trkpt lat="48.73569" lon="2.5512">
        <ele>87.62</ele>
        <time>2016-02-14T10:12:46Z</time>
      </trkpt>
      <trkpt lat="48.73569" lon="2.55117">
        <ele>87.62</ele>
        <time>2016-02-14T10:12:48Z</time>
      </trkpt>
      <trkpt lat="48.73558" lon="2.55097">
        <ele>87.62</ele>
        <time>2016-02-14T10:13:03Z</time>
      </trkpt>
      <trkpt lat="48.73542" lon="2.55074">
        <ele>87.14</ele>
        <time>2016-02-14T10:13:20Z</time>
      </trkpt>
      <trkpt lat="48.73535" lon="2.55061">
        <ele>87.62</ele>
        <time>2016-02-14T10:13:30Z</time>
      </trkpt>
      <trkpt lat="48.73526" lon="2.55046">
        <ele>87.62</ele>
        <time>2016-02-14T10:13:44Z</time>
      </trkpt>
      <trkpt lat="48.73522" lon="2.55025">
        <ele>87.62</ele>
        <time>2016-02-14T10:13:59Z</time>
      </trkpt>
      <trkpt lat="48.73518" lon="2.55009">
        <ele>87.62</ele>
        <time>2016-02-14T10:14:14Z</time>
      </trkpt>
      <trkpt lat="48.73512" lon="2.5499">
        <ele>87.62</ele>
        <time>2016-02-14T10:14:30Z</time>
      </trkpt>
      <trkpt lat="48.73512" lon="2.54985">
        <ele>87.62</ele>
        <time>2016-02-14T10:14:33Z</time>
      </trkpt>
      <trkpt lat="48.73503" lon="2.54962">
        <ele>87.62</ele>
        <time>2016-02-14T10:14:48Z</time>
      </trkpt>
      <trkpt lat="48.73497" lon="2.54938">
        <ele>87.62</ele>
        <time>2016-02-14T10:15:05Z</time>
      </trkpt>
      <trkpt lat="48.7349" lon="2.54916">
        <ele>87.62</ele>
        <time>2016-02-14T10:15:21Z</time>
      </trkpt>
      <trkpt lat="48.73481" lon="2.5489">
        <ele>87.62</ele>
        <time>2016-02-14T10:15:37Z</time>
      </trkpt>
      <trkpt lat="48.73479" lon="2.54886">
        <ele>87.14</ele>
        <time>2016-02-14T10:15:40Z</time>
      </trkpt>
      <trkpt lat="48.73471" lon="2.54863">
        <ele>87.14</ele>
        <time>2016-02-14T10:15:56Z</time>
      </trkpt>
      <trkpt lat="48.73464" lon="2.5484">
        <ele>87.14</ele>
        <time>2016-02-14T10:16:12Z</time>
      </trkpt>
      <trkpt lat="48.73463" lon="2.54831">
        <ele>87.14</ele>
        <time>2016-02-14T10:16:17Z</time>
      </trkpt>
      <trkpt lat="48.73452" lon="2.54808">
        <ele>87.14</ele>
        <time>2016-02-14T10:16:34Z</time>
      </trkpt>
      <trkpt lat="48.73448" lon="2.54795">
        <ele>87.14</ele>
        <time>2016-02-14T10:16:42Z</time>
      </trkpt>
      <trkpt lat="48.73442" lon="2.54772">
        <ele>86.66</ele>
        <time>2016-02-14T10:16:57Z</time>
      </trkpt>
      <trkpt lat="48.73431" lon="2.54749">
        <ele>86.66</ele>
        <time>2016-02-14T10:17:13Z</time>
      </trkpt>
      <trkpt lat="48.73423" lon="2.54732">
        <ele>86.18</ele>
        <time>2016-02-14T10:17:26Z</time>
      </trkpt>
      <trkpt lat="48.73414" lon="2.54712">
        <ele>86.18</ele>
        <time>2016-02-14T10:17:41Z</time>
      </trkpt>
      <trkpt lat="48.73407" lon="2.54703">
        <ele>85.69</ele>
        <time>2016-02-14T10:17:49Z</time>
      </trkpt>
      <trkpt lat="48.73393" lon="2.54685">
        <ele>85.69</ele>
        <time>2016-02-14T10:18:06Z</time>
      </trkpt>
      <trkpt lat="48.73374" lon="2.54675">
        <ele>85.69</ele>
        <time>2016-02-14T10:18:22Z</time>
      </trkpt>
      <trkpt lat="48.73362" lon="2.54664">
        <ele>85.21</ele>
        <time>2016-02-14T10:18:36Z</time>
      </trkpt>
      <trkpt lat="48.73354" lon="2.54658">
        <ele>85.21</ele>
        <time>2016-02-14T10:18:52Z</time>
      </trkpt>
      <trkpt lat="48.73341" lon="2.54648">
        <ele>84.73</ele>
        <time>2016-02-14T10:19:06Z</time>
      </trkpt>
      <trkpt lat="48.73325" lon="2.54635">
        <ele>84.25</ele>
        <time>2016-02-14T10:19:22Z</time>
      </trkpt>
      <trkpt lat="48.73311" lon="2.54623">
        <ele>83.77</ele>
        <time>2016-02-14T10:19:36Z</time>
      </trkpt>
      <trkpt lat="48.73297" lon="2.54614">
        <ele>83.29</ele>
        <time>2016-02-14T10:19:51Z</time>
      </trkpt>
      <trkpt lat="48.73281" lon="2.54607">
        <ele>81.85</ele>
        <time>2016-02-14T10:20:07Z</time>
      </trkpt>
      <trkpt lat="48.73264" lon="2.54597">
        <ele>81.37</ele>
        <time>2016-02-14T10:20:23Z</time>
      </trkpt>
      <trkpt lat="48.73246" lon="2.54588">
        <ele>80.41</ele>
        <time>2016-02-14T10:20:39Z</time>
      </trkpt>
      <trkpt lat="48.73232" lon="2.54581">
        <ele>79.45</ele>
        <time>2016-02-14T10:20:56Z</time>
      </trkpt>
      <trkpt lat="48.73225" lon="2.54576">
        <ele>78.48</ele>
        <time>2016-02-14T10:21:09Z</time>
      </trkpt>
      <trkpt lat="48.73213" lon="2.54574">
        <ele>78</ele>
        <time>2016-02-14T10:21:23Z</time>
      </trkpt>
      <trkpt lat="48.73204" lon="2.54558">
        <ele>75.6</ele>
        <time>2016-02-14T10:21:40Z</time>
      </trkpt>
      <trkpt lat="48.73194" lon="2.54555">
        <ele>75.12</ele>
        <time>2016-02-14T10:21:55Z</time>
      </trkpt>
      <trkpt lat="48.73186" lon="2.5455">
        <ele>74.64</ele>
        <time>2016-02-14T10:22:09Z</time>
      </trkpt>
      <trkpt lat="48.73196" lon="2.54535">
        <ele>74.64</ele>
        <time>2016-02-14T10:22:26Z</time>
      </trkpt>
      <trkpt lat="48.73192" lon="2.54522">
        <ele>74.64</ele>
        <time>2016-02-14T10:22:43Z</time>
      </trkpt>
      <trkpt lat="48.73185" lon="2.54503">
        <ele>73.68</ele>
        <time>2016-02-14T10:23:00Z</time>
      </trkpt>
      <trkpt lat="48.73182" lon="2.54493">
        <ele>73.68</ele>
        <time>2016-02-14T10:23:08Z</time>
      </trkpt>
      <trkpt lat="48.73169" lon="2.54476">
        <ele>71.76</ele>
        <time>2016-02-14T10:23:24Z</time>
      </trkpt>
      <trkpt lat="48.73161" lon="2.54469">
        <ele>70.79</ele>
        <time>2016-02-14T10:23:40Z</time>
      </trkpt>
      <trkpt lat="48.73158" lon="2.54468">
        <ele>70.79</ele>
        <time>2016-02-14T10:23:57Z</time>
      </trkpt>
      <trkpt lat="48.73158" lon="2.54471">
        <ele>70.31</ele>
        <time>2016-02-14T10:24:20Z</time>
      </trkpt>
      <trkpt lat="48.73158" lon="2.54467">
        <ele>70.31</ele>
        <time>2016-02-14T10:24:44Z</time>
      </trkpt>
      <trkpt lat="48.73158" lon="2.54469">
        <ele>70.31</ele>
        <time>2016-02-14T10:25:10Z</time>
      </trkpt>
      <trkpt lat="48.73157" lon="2.54467">
        <ele>70.31</ele>
        <time>2016-02-14T10:25:37Z</time>
      </trkpt>
      <trkpt lat="48.73156" lon="2.5445">
        <ele>69.83</ele>
        <time>2016-02-14T10:25:56Z</time>
      </trkpt>
      <trkpt lat="48.73147" lon="2.54435">
        <ele>69.35</ele>
        <time>2016-02-14T10:26:12Z</time>
      </trkpt>
      <trkpt lat="48.73134" lon="2.54415">
        <ele>67.91</ele>
        <time>2016-02-14T10:26:30Z</time>
      </trkpt>
      <trkpt lat="48.7313" lon="2.54407">
        <ele>67.91</ele>
        <time>2016-02-14T10:26:36Z</time>
      </trkpt>
      <trkpt lat="48.73121" lon="2.54385">
        <ele>66.95</ele>
        <time>2016-02-14T10:26:53Z</time>
      </trkpt>
      <trkpt lat="48.73118" lon="2.54379">
        <ele>66.95</ele>
        <time>2016-02-14T10:26:58Z</time>
      </trkpt>
      <trkpt lat="48.73104" lon="2.54371">
        <ele>66.47</ele>
        <time>2016-02-14T10:27:14Z</time>
      </trkpt>
      <trkpt lat="48.73086" lon="2.54368">
        <ele>65.51</ele>
        <time>2016-02-14T10:27:34Z</time>
      </trkpt>
      <trkpt lat="48.73084" lon="2.54366">
        <ele>65.99</ele>
        <time>2016-02-14T10:27:36Z</time>
      </trkpt>
      <trkpt lat="48.73068" lon="2.54358">
        <ele>64.55</ele>
        <time>2016-02-14T10:27:53Z</time>
      </trkpt>
      <trkpt lat="48.73057" lon="2.5436">
        <ele>64.07</ele>
        <time>2016-02-14T10:28:09Z</time>
      </trkpt>
      <trkpt lat="48.73047" lon="2.54359">
        <ele>64.07</ele>
        <time>2016-02-14T10:28:21Z</time>
      </trkpt>
      <trkpt lat="48.73048" lon="2.54381">
        <ele>64.55</ele>
        <time>2016-02-14T10:28:39Z</time>
      </trkpt>
      <trkpt lat="48.73055" lon="2.54408">
        <ele>64.55</ele>
        <time>2016-02-14T10:28:57Z</time>
      </trkpt>
      <trkpt lat="48.73061" lon="2.5443">
        <ele>65.03</ele>
        <time>2016-02-14T10:29:12Z</time>
      </trkpt>
      <trkpt lat="48.73065" lon="2.54453">
        <ele>65.99</ele>
        <time>2016-02-14T10:29:28Z</time>
      </trkpt>
      <trkpt lat="48.73071" lon="2.54474">
        <ele>66.47</ele>
        <time>2016-02-14T10:29:42Z</time>
      </trkpt>
      <trkpt lat="48.73075" lon="2.54485">
        <ele>66.47</ele>
        <time>2016-02-14T10:29:50Z</time>
      </trkpt>
      <trkpt lat="48.73081" lon="2.545">
        <ele>66.95</ele>
        <time>2016-02-14T10:30:00Z</time>
      </trkpt>
      <trkpt lat="48.73085" lon="2.54521">
        <ele>67.43</ele>
        <time>2016-02-14T10:30:13Z</time>
      </trkpt>
      <trkpt lat="48.73074" lon="2.54528">
        <ele>66.95</ele>
        <time>2016-02-14T10:30:27Z</time>
      </trkpt>
      <trkpt lat="48.73076" lon="2.54542">
        <ele>67.43</ele>
        <time>2016-02-14T10:30:40Z</time>
      </trkpt>
      <trkpt lat="48.73063" lon="2.54555">
        <ele>66.47</ele>
        <time>2016-02-14T10:30:58Z</time>
      </trkpt>
      <trkpt lat="48.73056" lon="2.5456">
        <ele>65.99</ele>
        <time>2016-02-14T10:31:15Z</time>
      </trkpt>
      <trkpt lat="48.73052" lon="2.5457">
        <ele>65.03</ele>
        <time>2016-02-14T10:31:22Z</time>
      </trkpt>
      <trkpt lat="48.73043" lon="2.54589">
        <ele>63.58</ele>
        <time>2016-02-14T10:31:38Z</time>
      </trkpt>
      <trkpt lat="48.73038" lon="2.54592">
        <ele>63.58</ele>
        <time>2016-02-14T10:31:56Z</time>
      </trkpt>
      <trkpt lat="48.73036" lon="2.54591">
        <ele>63.1</ele>
        <time>2016-02-14T10:32:15Z</time>
      </trkpt>
      <trkpt lat="48.7303" lon="2.54595">
        <ele>62.14</ele>
        <time>2016-02-14T10:32:31Z</time>
      </trkpt>
      <trkpt lat="48.73023" lon="2.54599">
        <ele>61.66</ele>
        <time>2016-02-14T10:32:39Z</time>
      </trkpt>
      <trkpt lat="48.73007" lon="2.54609">
        <ele>60.22</ele>
        <time>2016-02-14T10:32:55Z</time>
      </trkpt>
      <trkpt lat="48.72989" lon="2.54619">
        <ele>58.3</ele>
        <time>2016-02-14T10:33:12Z</time>
      </trkpt>
      <trkpt lat="48.72984" lon="2.54621">
        <ele>57.34</ele>
        <time>2016-02-14T10:33:19Z</time>
      </trkpt>
      <trkpt lat="48.72965" lon="2.54631">
        <ele>55.41</ele>
        <time>2016-02-14T10:33:37Z</time>
      </trkpt>
      <trkpt lat="48.72947" lon="2.54638">
        <ele>53.01</ele>
        <time>2016-02-14T10:33:54Z</time>
      </trkpt>
      <trkpt lat="48.72934" lon="2.54646">
        <ele>51.57</ele>
        <time>2016-02-14T10:34:11Z</time>
      </trkpt>
      <trkpt lat="48.72931" lon="2.54654">
        <ele>52.05</ele>
        <time>2016-02-14T10:34:28Z</time>
      </trkpt>
      <trkpt lat="48.72924" lon="2.54659">
        <ele>51.09</ele>
        <time>2016-02-14T10:34:44Z</time>
      </trkpt>
      <trkpt lat="48.7293" lon="2.54653">
        <ele>51.57</ele>
        <time>2016-02-14T10:35:04Z</time>
      </trkpt>
      <trkpt lat="48.72932" lon="2.54649">
        <ele>51.57</ele>
        <time>2016-02-14T10:35:26Z</time>
      </trkpt>
      <trkpt lat="48.72935" lon="2.5465">
        <ele>52.05</ele>
        <time>2016-02-14T10:35:44Z</time>
      </trkpt>
      <trkpt lat="48.72928" lon="2.54649">
        <ele>52.05</ele>
        <time>2016-02-14T10:36:16Z</time>
      </trkpt>
      <trkpt lat="48.72927" lon="2.54639">
        <ele>52.05</ele>
        <time>2016-02-14T10:36:39Z</time>
      </trkpt>
      <trkpt lat="48.72922" lon="2.54637">
        <ele>52.05</ele>
        <time>2016-02-14T10:36:54Z</time>
      </trkpt>
      <trkpt lat="48.7292" lon="2.54635">
        <ele>53.01</ele>
        <time>2016-02-14T10:37:06Z</time>
      </trkpt>
      <trkpt lat="48.72919" lon="2.54643">
        <ele>53.01</ele>
        <time>2016-02-14T10:37:27Z</time>
      </trkpt>
      <trkpt lat="48.72921" lon="2.54641">
        <ele>53.49</ele>
        <time>2016-02-14T10:37:41Z</time>
      </trkpt>
      <trkpt lat="48.72921" lon="2.54633">
        <ele>53.49</ele>
        <time>2016-02-14T10:38:01Z</time>
      </trkpt>
      <trkpt lat="48.72919" lon="2.54635">
        <ele>53.49</ele>
        <time>2016-02-14T10:38:23Z</time>
      </trkpt>
      <trkpt lat="48.72926" lon="2.54638">
        <ele>53.01</ele>
        <time>2016-02-14T10:38:37Z</time>
      </trkpt>
      <trkpt lat="48.72931" lon="2.54647">
        <ele>52.53</ele>
        <time>2016-02-14T10:38:45Z</time>
      </trkpt>
      <trkpt lat="48.72935" lon="2.54673">
        <ele>52.53</ele>
        <time>2016-02-14T10:39:02Z</time>
      </trkpt>
      <trkpt lat="48.72934" lon="2.54687">
        <ele>52.05</ele>
        <time>2016-02-14T10:39:16Z</time>
      </trkpt>
      <trkpt lat="48.72934" lon="2.54702">
        <ele>52.53</ele>
        <time>2016-02-14T10:39:31Z</time>
      </trkpt>
      <trkpt lat="48.72935" lon="2.54706">
        <ele>52.53</ele>
        <time>2016-02-14T10:39:35Z</time>
      </trkpt>
      <trkpt lat="48.72938" lon="2.5472">
        <ele>52.53</ele>
        <time>2016-02-14T10:39:45Z</time>
      </trkpt>
      <trkpt lat="48.7294" lon="2.54741">
        <ele>52.53</ele>
        <time>2016-02-14T10:39:59Z</time>
      </trkpt>
      <trkpt lat="48.72945" lon="2.54747">
        <ele>52.53</ele>
        <time>2016-02-14T10:40:14Z</time>
      </trkpt>
      <trkpt lat="48.72944" lon="2.54757">
        <ele>53.01</ele>
        <time>2016-02-14T10:40:28Z</time>
      </trkpt>
      <trkpt lat="48.72945" lon="2.54781">
        <ele>53.01</ele>
        <time>2016-02-14T10:40:41Z</time>
      </trkpt>
      <trkpt lat="48.72942" lon="2.54804">
        <ele>53.01</ele>
        <time>2016-02-14T10:40:57Z</time>
      </trkpt>
      <trkpt lat="48.72945" lon="2.5482">
        <ele>53.49</ele>
        <time>2016-02-14T10:41:08Z</time>
      </trkpt>
      <trkpt lat="48.72946" lon="2.54825">
        <ele>53.01</ele>
        <time>2016-02-14T10:41:11Z</time>
      </trkpt>
      <trkpt lat="48.72946" lon="2.54834">
        <ele>53.01</ele>
        <time>2016-02-14T10:41:17Z</time>
      </trkpt>
      <trkpt lat="48.72953" lon="2.54861">
        <ele>53.01</ele>
        <time>2016-02-14T10:41:34Z</time>
      </trkpt>
      <trkpt lat="48.72955" lon="2.54865">
        <ele>53.01</ele>
        <time>2016-02-14T10:41:37Z</time>
      </trkpt>
      <trkpt lat="48.72957" lon="2.54869">
        <ele>53.01</ele>
        <time>2016-02-14T10:41:40Z</time>
      </trkpt>
      <trkpt lat="48.72963" lon="2.54895">
        <ele>53.01</ele>
        <time>2016-02-14T10:41:56Z</time>
      </trkpt>
      <trkpt lat="48.72969" lon="2.54912">
        <ele>53.01</ele>
        <time>2016-02-14T10:42:10Z</time>
      </trkpt>
      <trkpt lat="48.72973" lon="2.54932">
        <ele>53.01</ele>
        <time>2016-02-14T10:42:26Z</time>
      </trkpt>
      <trkpt lat="48.72983" lon="2.54956">
        <ele>53.01</ele>
        <time>2016-02-14T10:42:43Z</time>
      </trkpt>
      <trkpt lat="48.72995" lon="2.54974">
        <ele>53.01</ele>
        <time>2016-02-14T10:42:58Z</time>
      </trkpt>
      <trkpt lat="48.73007" lon="2.54993">
        <ele>53.01</ele>
        <time>2016-02-14T10:43:15Z</time>
      </trkpt>
      <trkpt lat="48.73016" lon="2.55019">
        <ele>52.53</ele>
        <time>2016-02-14T10:43:34Z</time>
      </trkpt>
      <trkpt lat="48.73016" lon="2.55021">
        <ele>52.05</ele>
        <time>2016-02-14T10:43:35Z</time>
      </trkpt>
      <trkpt lat="48.73022" lon="2.55042">
        <ele>52.05</ele>
        <time>2016-02-14T10:43:51Z</time>
      </trkpt>
      <trkpt lat="48.73026" lon="2.55058">
        <ele>52.05</ele>
        <time>2016-02-14T10:44:05Z</time>
      </trkpt>
      <trkpt lat="48.73034" lon="2.5507">
        <ele>52.53</ele>
        <time>2016-02-14T10:44:20Z</time>
      </trkpt>
      <trkpt lat="48.73045" lon="2.55095">
        <ele>52.53</ele>
        <time>2016-02-14T10:44:38Z</time>
      </trkpt>
      <trkpt lat="48.73046" lon="2.55118">
        <ele>53.01</ele>
        <time>2016-02-14T10:44:53Z</time>
      </trkpt>
      <trkpt lat="48.73038" lon="2.55136">
        <ele>53.01</ele>
        <time>2016-02-14T10:45:10Z</time>
      </trkpt>
      <trkpt lat="48.73036" lon="2.55138">
        <ele>53.01</ele>
        <time>2016-02-14T10:45:12Z</time>
      </trkpt>
      <trkpt lat="48.7302" lon="2.55148">
        <ele>52.53</ele>
        <time>2016-02-14T10:45:27Z</time>
      </trkpt>
      <trkpt lat="48.73002" lon="2.5516">
        <ele>53.01</ele>
        <time>2016-02-14T10:45:43Z</time>
      </trkpt>
      <trkpt lat="48.72988" lon="2.55177">
        <ele>53.49</ele>
        <time>2016-02-14T10:46:01Z</time>
      </trkpt>
      <trkpt lat="48.72982" lon="2.55189">
        <ele>53.97</ele>
        <time>2016-02-14T10:46:16Z</time>
      </trkpt>
      <trkpt lat="48.72983" lon="2.55203">
        <ele>55.41</ele>
        <time>2016-02-14T10:46:25Z</time>
      </trkpt>
      <trkpt lat="48.72999" lon="2.55214">
        <ele>55.41</ele>
        <time>2016-02-14T10:46:42Z</time>
      </trkpt>
      <trkpt lat="48.73006" lon="2.55225">
        <ele>55.41</ele>
        <time>2016-02-14T10:46:58Z</time>
      </trkpt>
      <trkpt lat="48.73013" lon="2.55224">
        <ele>55.41</ele>
        <time>2016-02-14T10:47:12Z</time>
      </trkpt>
      <trkpt lat="48.73027" lon="2.5523">
        <ele>56.37</ele>
        <time>2016-02-14T10:47:28Z</time>
      </trkpt>
      <trkpt lat="48.73043" lon="2.55231">
        <ele>57.34</ele>
        <time>2016-02-14T10:47:46Z</time>
      </trkpt>
      <trkpt lat="48.73059" lon="2.55232">
        <ele>59.26</ele>
        <time>2016-02-14T10:48:03Z</time>
      </trkpt>
      <trkpt lat="48.73073" lon="2.55234">
        <ele>61.18</ele>
        <time>2016-02-14T10:48:24Z</time>
      </trkpt>
      <trkpt lat="48.73087" lon="2.55231">
        <ele>62.62</ele>
        <time>2016-02-14T10:48:40Z</time>
      </trkpt>
      <trkpt lat="48.73098" lon="2.55232">
        <ele>63.58</ele>
        <time>2016-02-14T10:48:54Z</time>
      </trkpt>
      <trkpt lat="48.73109" lon="2.55233">
        <ele>65.03</ele>
        <time>2016-02-14T10:49:10Z</time>
      </trkpt>
      <trkpt lat="48.73121" lon="2.55228">
        <ele>66.47</ele>
        <time>2016-02-14T10:49:28Z</time>
      </trkpt>
      <trkpt lat="48.73134" lon="2.55223">
        <ele>67.43</ele>
        <time>2016-02-14T10:49:44Z</time>
      </trkpt>
      <trkpt lat="48.73147" lon="2.55217">
        <ele>68.39</ele>
        <time>2016-02-14T10:49:59Z</time>
      </trkpt>
      <trkpt lat="48.73158" lon="2.55212">
        <ele>70.31</ele>
        <time>2016-02-14T10:50:15Z</time>
      </trkpt>
      <trkpt lat="48.73164" lon="2.55211">
        <ele>70.79</ele>
        <time>2016-02-14T10:50:28Z</time>
      </trkpt>
      <trkpt lat="48.73171" lon="2.55204">
        <ele>71.76</ele>
        <time>2016-02-14T10:50:41Z</time>
      </trkpt>
      <trkpt lat="48.73175" lon="2.55204">
        <ele>72.24</ele>
        <time>2016-02-14T10:50:54Z</time>
      </trkpt>
      <trkpt lat="48.73185" lon="2.55202">
        <ele>74.16</ele>
        <time>2016-02-14T10:51:09Z</time>
      </trkpt>
      <trkpt lat="48.73184" lon="2.5522">
        <ele>74.64</ele>
        <time>2016-02-14T10:51:24Z</time>
      </trkpt>
      <trkpt lat="48.73187" lon="2.55224">
        <ele>74.16</ele>
        <time>2016-02-14T10:51:36Z</time>
      </trkpt>
      <trkpt lat="48.73195" lon="2.5524">
        <ele>75.12</ele>
        <time>2016-02-14T10:51:55Z</time>
      </trkpt>
      <trkpt lat="48.73198" lon="2.55267">
        <ele>75.6</ele>
        <time>2016-02-14T10:52:13Z</time>
      </trkpt>
      <trkpt lat="48.73198" lon="2.55276">
        <ele>75.6</ele>
        <time>2016-02-14T10:52:19Z</time>
      </trkpt>
      <trkpt lat="48.73199" lon="2.55282">
        <ele>75.6</ele>
        <time>2016-02-14T10:52:33Z</time>
      </trkpt>
      <trkpt lat="48.73203" lon="2.55297">
        <ele>75.6</ele>
        <time>2016-02-14T10:52:48Z</time>
      </trkpt>
      <trkpt lat="48.73204" lon="2.55319">
        <ele>75.6</ele>
        <time>2016-02-14T10:53:06Z</time>
      </trkpt>
      <trkpt lat="48.73205" lon="2.55324">
        <ele>75.6</ele>
        <time>2016-02-14T10:53:08Z</time>
      </trkpt>
      <trkpt lat="48.73203" lon="2.55347">
        <ele>74.64</ele>
        <time>2016-02-14T10:53:23Z</time>
      </trkpt>
      <trkpt lat="48.73201" lon="2.55362">
        <ele>74.16</ele>
        <time>2016-02-14T10:53:34Z</time>
      </trkpt>
      <trkpt lat="48.73197" lon="2.55383">
        <ele>74.16</ele>
        <time>2016-02-14T10:53:48Z</time>
      </trkpt>
      <trkpt lat="48.73196" lon="2.55402">
        <ele>73.68</ele>
        <time>2016-02-14T10:53:57Z</time>
      </trkpt>
      <trkpt lat="48.73192" lon="2.55426">
        <ele>72.72</ele>
        <time>2016-02-14T10:54:11Z</time>
      </trkpt>
      <trkpt lat="48.73192" lon="2.55427">
        <ele>72.72</ele>
        <time>2016-02-14T10:54:12Z</time>
      </trkpt>
      <trkpt lat="48.7319" lon="2.55459">
        <ele>72.24</ele>
        <time>2016-02-14T10:54:30Z</time>
      </trkpt>
      <trkpt lat="48.73183" lon="2.55474">
        <ele>71.76</ele>
        <time>2016-02-14T10:54:45Z</time>
      </trkpt>
      <trkpt lat="48.73179" lon="2.55488">
        <ele>71.27</ele>
        <time>2016-02-14T10:54:54Z</time>
      </trkpt>
      <trkpt lat="48.73167" lon="2.55509">
        <ele>70.79</ele>
        <time>2016-02-14T10:55:09Z</time>
      </trkpt>
      <trkpt lat="48.73157" lon="2.55523">
        <ele>71.27</ele>
        <time>2016-02-14T10:55:23Z</time>
      </trkpt>
      <trkpt lat="48.73141" lon="2.5554">
        <ele>71.27</ele>
        <time>2016-02-14T10:55:39Z</time>
      </trkpt>
      <trkpt lat="48.73139" lon="2.55543">
        <ele>71.27</ele>
        <time>2016-02-14T10:55:41Z</time>
      </trkpt>
      <trkpt lat="48.73133" lon="2.55562">
        <ele>71.76</ele>
        <time>2016-02-14T10:55:54Z</time>
      </trkpt>
      <trkpt lat="48.73127" lon="2.55589">
        <ele>72.72</ele>
        <time>2016-02-14T10:56:11Z</time>
      </trkpt>
      <trkpt lat="48.73124" lon="2.55602">
        <ele>73.2</ele>
        <time>2016-02-14T10:56:20Z</time>
      </trkpt>
      <trkpt lat="48.73118" lon="2.55624">
        <ele>74.64</ele>
        <time>2016-02-14T10:56:35Z</time>
      </trkpt>
      <trkpt lat="48.73125" lon="2.55636">
        <ele>75.12</ele>
        <time>2016-02-14T10:56:45Z</time>
      </trkpt>
      <trkpt lat="48.73138" lon="2.55641">
        <ele>75.6</ele>
        <time>2016-02-14T10:56:58Z</time>
      </trkpt>
      <trkpt lat="48.73154" lon="2.55645">
        <ele>76.56</ele>
        <time>2016-02-14T10:57:12Z</time>
      </trkpt>
      <trkpt lat="48.73166" lon="2.55648">
        <ele>77.52</ele>
        <time>2016-02-14T10:57:26Z</time>
      </trkpt>
      <trkpt lat="48.73181" lon="2.55653">
        <ele>78</ele>
        <time>2016-02-14T10:57:41Z</time>
      </trkpt>
      <trkpt lat="48.73192" lon="2.55659">
        <ele>78.97</ele>
        <time>2016-02-14T10:57:54Z</time>
      </trkpt>
      <trkpt lat="48.73209" lon="2.5566">
        <ele>79.45</ele>
        <time>2016-02-14T10:58:11Z</time>
      </trkpt>
      <trkpt lat="48.73224" lon="2.55666">
        <ele>80.41</ele>
        <time>2016-02-14T10:58:26Z</time>
      </trkpt>
      <trkpt lat="48.73236" lon="2.5567">
        <ele>81.37</ele>
        <time>2016-02-14T10:58:40Z</time>
      </trkpt>
      <trkpt lat="48.73251" lon="2.55673">
        <ele>81.85</ele>
        <time>2016-02-14T10:58:55Z</time>
      </trkpt>
      <trkpt lat="48.73264" lon="2.55677">
        <ele>82.81</ele>
        <time>2016-02-14T10:59:08Z</time>
      </trkpt>
      <trkpt lat="48.73282" lon="2.55676">
        <ele>82.81</ele>
        <time>2016-02-14T10:59:25Z</time>
      </trkpt>
      <trkpt lat="48.73296" lon="2.55682">
        <ele>83.77</ele>
        <time>2016-02-14T10:59:40Z</time>
      </trkpt>
      <trkpt lat="48.73314" lon="2.55684">
        <ele>84.25</ele>
        <time>2016-02-14T10:59:55Z</time>
      </trkpt>
      <trkpt lat="48.73327" lon="2.55691">
        <ele>84.73</ele>
        <time>2016-02-14T11:00:10Z</time>
      </trkpt>
      <trkpt lat="48.7334" lon="2.55694">
        <ele>85.69</ele>
        <time>2016-02-14T11:00:25Z</time>
      </trkpt>
      <trkpt lat="48.73355" lon="2.55701">
        <ele>85.69</ele>
        <time>2016-02-14T11:00:41Z</time>
      </trkpt>
      <trkpt lat="48.7337" lon="2.55709">
        <ele>86.18</ele>
        <time>2016-02-14T11:00:56Z</time>
      </trkpt>
      <trkpt lat="48.73389" lon="2.55719">
        <ele>86.18</ele>
        <time>2016-02-14T11:01:15Z</time>
      </trkpt>
      <trkpt lat="48.73407" lon="2.55727">
        <ele>86.66</ele>
        <time>2016-02-14T11:01:32Z</time>
      </trkpt>
      <trkpt lat="48.73422" lon="2.55735">
        <ele>87.14</ele>
        <time>2016-02-14T11:01:47Z</time>
      </trkpt>
      <trkpt lat="48.73436" lon="2.5574">
        <ele>87.14</ele>
        <time>2016-02-14T11:02:03Z</time>
      </trkpt>
      <trkpt lat="48.73433" lon="2.55745">
        <ele>87.62</ele>
        <time>2016-02-14T11:02:27Z</time>
      </trkpt>
      <trkpt lat="48.73424" lon="2.55735">
        <ele>87.14</ele>
        <time>2016-02-14T11:02:38Z</time>
      </trkpt>
      <trkpt lat="48.7342" lon="2.55733">
        <ele>87.14</ele>
        <time>2016-02-14T11:02:42Z</time>
      </trkpt>
      <trkpt lat="48.73416" lon="2.55734">
        <ele>86.66</ele>
        <time>2016-02-14T11:02:56Z</time>
      </trkpt>
      <trkpt lat="48.7341" lon="2.55734">
        <ele>86.66</ele>
        <time>2016-02-14T11:03:14Z</time>
      </trkpt>
      <trkpt lat="48.73397" lon="2.55732">
        <ele>86.18</ele>
        <time>2016-02-14T11:03:27Z</time>
      </trkpt>
      <trkpt lat="48.7338" lon="2.55727">
        <ele>86.18</ele>
        <time>2016-02-14T11:03:44Z</time>
      </trkpt>
      <trkpt lat="48.73371" lon="2.5573">
        <ele>85.69</ele>
        <time>2016-02-14T11:03:56Z</time>
      </trkpt>
      <trkpt lat="48.73361" lon="2.55727">
        <ele>85.69</ele>
        <time>2016-02-14T11:04:06Z</time>
      </trkpt>
      <trkpt lat="48.73341" lon="2.55724">
        <ele>85.21</ele>
        <time>2016-02-14T11:04:22Z</time>
      </trkpt>
      <trkpt lat="48.7334" lon="2.55723">
        <ele>85.21</ele>
        <time>2016-02-14T11:04:23Z</time>
      </trkpt>
      <trkpt lat="48.73337" lon="2.55721">
        <ele>85.21</ele>
        <time>2016-02-14T11:04:26Z</time>
      </trkpt>
      <trkpt lat="48.73323" lon="2.55719">
        <ele>84.73</ele>
        <time>2016-02-14T11:04:44Z</time>
      </trkpt>
      <trkpt lat="48.73313" lon="2.55724">
        <ele>84.73</ele>
        <time>2016-02-14T11:04:57Z</time>
      </trkpt>
      <trkpt lat="48.73312" lon="2.55739">
        <ele>85.21</ele>
        <time>2016-02-14T11:05:08Z</time>
      </trkpt>
      <trkpt lat="48.7331" lon="2.55759">
        <ele>85.21</ele>
        <time>2016-02-14T11:05:21Z</time>
      </trkpt>
      <trkpt lat="48.73307" lon="2.5578">
        <ele>85.69</ele>
        <time>2016-02-14T11:05:36Z</time>
      </trkpt>
      <trkpt lat="48.73304" lon="2.55805">
        <ele>85.69</ele>
        <time>2016-02-14T11:05:50Z</time>
      </trkpt>
      <trkpt lat="48.73299" lon="2.55829">
        <ele>86.18</ele>
        <time>2016-02-14T11:06:07Z</time>
      </trkpt>
      <trkpt lat="48.73296" lon="2.55853">
        <ele>86.66</ele>
        <time>2016-02-14T11:06:23Z</time>
      </trkpt>
      <trkpt lat="48.73293" lon="2.55878">
        <ele>86.66</ele>
        <time>2016-02-14T11:06:41Z</time>
      </trkpt>
      <trkpt lat="48.7329" lon="2.55902">
        <ele>87.14</ele>
        <time>2016-02-14T11:06:56Z</time>
      </trkpt>
      <trkpt lat="48.73284" lon="2.5593">
        <ele>87.14</ele>
        <time>2016-02-14T11:07:13Z</time>
      </trkpt>
      <trkpt lat="48.73277" lon="2.55962">
        <ele>86.66</ele>
        <time>2016-02-14T11:07:33Z</time>
      </trkpt>
      <trkpt lat="48.73273" lon="2.55982">
        <ele>86.66</ele>
        <time>2016-02-14T11:07:42Z</time>
      </trkpt>
      <trkpt lat="48.73268" lon="2.56007">
        <ele>86.66</ele>
        <time>2016-02-14T11:07:58Z</time>
      </trkpt>
      <trkpt lat="48.7326" lon="2.56026">
        <ele>86.18</ele>
        <time>2016-02-14T11:08:13Z</time>
      </trkpt>
      <trkpt lat="48.7325" lon="2.56053">
        <ele>85.69</ele>
        <time>2016-02-14T11:08:30Z</time>
      </trkpt>
      <trkpt lat="48.73247" lon="2.5606">
        <ele>85.69</ele>
        <time>2016-02-14T11:08:35Z</time>
      </trkpt>
      <trkpt lat="48.73244" lon="2.56072">
        <ele>85.69</ele>
        <time>2016-02-14T11:08:41Z</time>
      </trkpt>
      <trkpt lat="48.73238" lon="2.56089">
        <ele>85.21</ele>
        <time>2016-02-14T11:08:54Z</time>
      </trkpt>
      <trkpt lat="48.73231" lon="2.56109">
        <ele>84.73</ele>
        <time>2016-02-14T11:09:10Z</time>
      </trkpt>
      <trkpt lat="48.73221" lon="2.56129">
        <ele>84.25</ele>
        <time>2016-02-14T11:09:27Z</time>
      </trkpt>
      <trkpt lat="48.73209" lon="2.56148">
        <ele>83.29</ele>
        <time>2016-02-14T11:09:44Z</time>
      </trkpt>
      <trkpt lat="48.73198" lon="2.56169">
        <ele>82.81</ele>
        <time>2016-02-14T11:09:59Z</time>
      </trkpt>
      <trkpt lat="48.73188" lon="2.56192">
        <ele>82.33</ele>
        <time>2016-02-14T11:10:16Z</time>
      </trkpt>
      <trkpt lat="48.73175" lon="2.56211">
        <ele>81.85</ele>
        <time>2016-02-14T11:10:30Z</time>
      </trkpt>
      <trkpt lat="48.73164" lon="2.56217">
        <ele>80.89</ele>
        <time>2016-02-14T11:10:45Z</time>
      </trkpt>
      <trkpt lat="48.73147" lon="2.5621">
        <ele>80.41</ele>
        <time>2016-02-14T11:11:01Z</time>
      </trkpt>
      <trkpt lat="48.73132" lon="2.562">
        <ele>79.93</ele>
        <time>2016-02-14T11:11:17Z</time>
      </trkpt>
      <trkpt lat="48.73131" lon="2.56199">
        <ele>79.93</ele>
        <time>2016-02-14T11:11:18Z</time>
      </trkpt>
      <trkpt lat="48.73117" lon="2.562">
        <ele>78.97</ele>
        <time>2016-02-14T11:11:34Z</time>
      </trkpt>
      <trkpt lat="48.73111" lon="2.56222">
        <ele>78</ele>
        <time>2016-02-14T11:11:50Z</time>
      </trkpt>
      <trkpt lat="48.73108" lon="2.56248">
        <ele>77.04</ele>
        <time>2016-02-14T11:12:08Z</time>
      </trkpt>
      <trkpt lat="48.73105" lon="2.56265">
        <ele>76.56</ele>
        <time>2016-02-14T11:12:24Z</time>
      </trkpt>
      <trkpt lat="48.73095" lon="2.56266">
        <ele>75.6</ele>
        <time>2016-02-14T11:12:40Z</time>
      </trkpt>
      <trkpt lat="48.73087" lon="2.56252">
        <ele>75.6</ele>
        <time>2016-02-14T11:12:56Z</time>
      </trkpt>
      <trkpt lat="48.73076" lon="2.56236">
        <ele>75.6</ele>
        <time>2016-02-14T11:13:11Z</time>
      </trkpt>
      <trkpt lat="48.73064" lon="2.56216">
        <ele>75.12</ele>
        <time>2016-02-14T11:13:27Z</time>
      </trkpt>
      <trkpt lat="48.73054" lon="2.56201">
        <ele>75.6</ele>
        <time>2016-02-14T11:13:41Z</time>
      </trkpt>
      <trkpt lat="48.73048" lon="2.56212">
        <ele>74.64</ele>
        <time>2016-02-14T11:13:57Z</time>
      </trkpt>
      <trkpt lat="48.73044" lon="2.5623">
        <ele>73.68</ele>
        <time>2016-02-14T11:14:14Z</time>
      </trkpt>
      <trkpt lat="48.73038" lon="2.56242">
        <ele>72.72</ele>
        <time>2016-02-14T11:14:31Z</time>
      </trkpt>
      <trkpt lat="48.73034" lon="2.56255">
        <ele>72.72</ele>
        <time>2016-02-14T11:14:50Z</time>
      </trkpt>
      <trkpt lat="48.73027" lon="2.56273">
        <ele>71.27</ele>
        <time>2016-02-14T11:15:09Z</time>
      </trkpt>
      <trkpt lat="48.73025" lon="2.56293">
        <ele>70.79</ele>
        <time>2016-02-14T11:15:25Z</time>
      </trkpt>
      <trkpt lat="48.7302" lon="2.56317">
        <ele>69.83</ele>
        <time>2016-02-14T11:15:41Z</time>
      </trkpt>
      <trkpt lat="48.73013" lon="2.56339">
        <ele>67.91</ele>
        <time>2016-02-14T11:15:57Z</time>
      </trkpt>
      <trkpt lat="48.73007" lon="2.56359">
        <ele>67.91</ele>
        <time>2016-02-14T11:16:08Z</time>
      </trkpt>
      <trkpt lat="48.73" lon="2.56383">
        <ele>66.95</ele>
        <time>2016-02-14T11:16:22Z</time>
      </trkpt>
      <trkpt lat="48.7299" lon="2.56408">
        <ele>66.47</ele>
        <time>2016-02-14T11:16:39Z</time>
      </trkpt>
      <trkpt lat="48.7299" lon="2.56439">
        <ele>66.47</ele>
        <time>2016-02-14T11:16:57Z</time>
      </trkpt>
      <trkpt lat="48.72976" lon="2.56446">
        <ele>65.99</ele>
        <time>2016-02-14T11:17:12Z</time>
      </trkpt>
      <trkpt lat="48.72966" lon="2.56449">
        <ele>66.47</ele>
        <time>2016-02-14T11:17:28Z</time>
      </trkpt>
      <trkpt lat="48.72967" lon="2.56461">
        <ele>66.95</ele>
        <time>2016-02-14T11:17:43Z</time>
      </trkpt>
      <trkpt lat="48.72968" lon="2.56468">
        <ele>67.43</ele>
        <time>2016-02-14T11:18:00Z</time>
      </trkpt>
      <trkpt lat="48.72965" lon="2.56469">
        <ele>67.91</ele>
        <time>2016-02-14T11:18:21Z</time>
      </trkpt>
      <trkpt lat="48.72958" lon="2.56486">
        <ele>68.87</ele>
        <time>2016-02-14T11:18:40Z</time>
      </trkpt>
      <trkpt lat="48.72955" lon="2.56497">
        <ele>69.83</ele>
        <time>2016-02-14T11:18:58Z</time>
      </trkpt>
      <trkpt lat="48.72951" lon="2.56506">
        <ele>70.79</ele>
        <time>2016-02-14T11:19:18Z</time>
      </trkpt>
      <trkpt lat="48.72946" lon="2.5652">
        <ele>72.72</ele>
        <time>2016-02-14T11:19:35Z</time>
      </trkpt>
      <trkpt lat="48.72946" lon="2.56534">
        <ele>74.64</ele>
        <time>2016-02-14T11:19:51Z</time>
      </trkpt>
      <trkpt lat="48.72945" lon="2.56544">
        <ele>75.12</ele>
        <time>2016-02-14T11:20:07Z</time>
      </trkpt>
      <trkpt lat="48.72936" lon="2.56565">
        <ele>75.12</ele>
        <time>2016-02-14T11:20:23Z</time>
      </trkpt>
      <trkpt lat="48.72932" lon="2.56575">
        <ele>76.08</ele>
        <time>2016-02-14T11:20:39Z</time>
      </trkpt>
      <trkpt lat="48.72932" lon="2.56579">
        <ele>76.08</ele>
        <time>2016-02-14T11:20:58Z</time>
      </trkpt>
      <trkpt lat="48.72929" lon="2.56592">
        <ele>76.08</ele>
        <time>2016-02-14T11:21:12Z</time>
      </trkpt>
      <trkpt lat="48.7293" lon="2.56595">
        <ele>76.56</ele>
        <time>2016-02-14T11:21:28Z</time>
      </trkpt>
      <trkpt lat="48.72927" lon="2.56604">
        <ele>76.08</ele>
        <time>2016-02-14T11:21:48Z</time>
      </trkpt>
      <trkpt lat="48.72923" lon="2.56619">
        <ele>76.08</ele>
        <time>2016-02-14T11:22:07Z</time>
      </trkpt>
      <trkpt lat="48.72922" lon="2.56626">
        <ele>76.08</ele>
        <time>2016-02-14T11:22:32Z</time>
      </trkpt>
      <trkpt lat="48.7292" lon="2.56638">
        <ele>75.6</ele>
        <time>2016-02-14T11:22:50Z</time>
      </trkpt>
      <trkpt lat="48.72915" lon="2.56656">
        <ele>75.12</ele>
        <time>2016-02-14T11:23:07Z</time>
      </trkpt>
      <trkpt lat="48.72908" lon="2.56673">
        <ele>74.64</ele>
        <time>2016-02-14T11:23:18Z</time>
      </trkpt>
      <trkpt lat="48.72901" lon="2.567">
        <ele>73.68</ele>
        <time>2016-02-14T11:23:38Z</time>
      </trkpt>
      <trkpt lat="48.72892" lon="2.56725">
        <ele>73.2</ele>
        <time>2016-02-14T11:23:54Z</time>
      </trkpt>
      <trkpt lat="48.72885" lon="2.56747">
        <ele>73.2</ele>
        <time>2016-02-14T11:24:10Z</time>
      </trkpt>
      <trkpt lat="48.72879" lon="2.56767">
        <ele>73.2</ele>
        <time>2016-02-14T11:24:25Z</time>
      </trkpt>
      <trkpt lat="48.72872" lon="2.56788">
        <ele>73.68</ele>
        <time>2016-02-14T11:24:39Z</time>
      </trkpt>
      <trkpt lat="48.72864" lon="2.56813">
        <ele>74.16</ele>
        <time>2016-02-14T11:24:57Z</time>
      </trkpt>
      <trkpt lat="48.72858" lon="2.56839">
        <ele>74.16</ele>
        <time>2016-02-14T11:25:13Z</time>
      </trkpt>
      <trkpt lat="48.72854" lon="2.56866">
        <ele>74.64</ele>
        <time>2016-02-14T11:25:29Z</time>
      </trkpt>
      <trkpt lat="48.72849" lon="2.56887">
        <ele>74.64</ele>
        <time>2016-02-14T11:25:43Z</time>
      </trkpt>
      <trkpt lat="48.72846" lon="2.56903">
        <ele>74.64</ele>
        <time>2016-02-14T11:25:55Z</time>
      </trkpt>
      <trkpt lat="48.72841" lon="2.56926">
        <ele>75.12</ele>
        <time>2016-02-14T11:26:11Z</time>
      </trkpt>
      <trkpt lat="48.72836" lon="2.56948">
        <ele>75.6</ele>
        <time>2016-02-14T11:26:27Z</time>
      </trkpt>
      <trkpt lat="48.72829" lon="2.56971">
        <ele>76.08</ele>
        <time>2016-02-14T11:26:44Z</time>
      </trkpt>
      <trkpt lat="48.72819" lon="2.56994">
        <ele>77.04</ele>
        <time>2016-02-14T11:27:03Z</time>
      </trkpt>
      <trkpt lat="48.72809" lon="2.57011">
        <ele>76.56</ele>
        <time>2016-02-14T11:27:18Z</time>
      </trkpt>
      <trkpt lat="48.72798" lon="2.57032">
        <ele>76.08</ele>
        <time>2016-02-14T11:27:36Z</time>
      </trkpt>
      <trkpt lat="48.72791" lon="2.57047">
        <ele>76.08</ele>
        <time>2016-02-14T11:27:51Z</time>
      </trkpt>
      <trkpt lat="48.72785" lon="2.57055">
        <ele>76.08</ele>
        <time>2016-02-14T11:28:04Z</time>
      </trkpt>
      <trkpt lat="48.72776" lon="2.57075">
        <ele>76.08</ele>
        <time>2016-02-14T11:28:20Z</time>
      </trkpt>
      <trkpt lat="48.72774" lon="2.57081">
        <ele>76.56</ele>
        <time>2016-02-14T11:28:33Z</time>
      </trkpt>
      <trkpt lat="48.72767" lon="2.57093">
        <ele>77.04</ele>
        <time>2016-02-14T11:28:48Z</time>
      </trkpt>
      <trkpt lat="48.72763" lon="2.5709">
        <ele>76.56</ele>
        <time>2016-02-14T11:28:59Z</time>
      </trkpt>
      <trkpt lat="48.7276" lon="2.57089">
        <ele>76.08</ele>
        <time>2016-02-14T11:29:02Z</time>
      </trkpt>
      <trkpt lat="48.7275" lon="2.57093">
        <ele>76.08</ele>
        <time>2016-02-14T11:29:13Z</time>
      </trkpt>
      <trkpt lat="48.72732" lon="2.57097">
        <ele>75.6</ele>
        <time>2016-02-14T11:29:30Z</time>
      </trkpt>
      <trkpt lat="48.72721" lon="2.571">
        <ele>75.6</ele>
        <time>2016-02-14T11:29:44Z</time>
      </trkpt>
      <trkpt lat="48.72734" lon="2.57092">
        <ele>75.6</ele>
        <time>2016-02-14T11:29:58Z</time>
      </trkpt>
      <trkpt lat="48.72724" lon="2.57079">
        <ele>74.16</ele>
        <time>2016-02-14T11:30:14Z</time>
      </trkpt>
      <trkpt lat="48.72716" lon="2.5708">
        <ele>74.16</ele>
        <time>2016-02-14T11:30:22Z</time>
      </trkpt>
      <trkpt lat="48.72712" lon="2.57083">
        <ele>74.16</ele>
        <time>2016-02-14T11:30:26Z</time>
      </trkpt>
      <trkpt lat="48.72699" lon="2.57088">
        <ele>74.16</ele>
        <time>2016-02-14T11:30:39Z</time>
      </trkpt>
      <trkpt lat="48.72682" lon="2.57089">
        <ele>74.64</ele>
        <time>2016-02-14T11:30:55Z</time>
      </trkpt>
      <trkpt lat="48.72675" lon="2.57086">
        <ele>73.68</ele>
        <time>2016-02-14T11:31:09Z</time>
      </trkpt>
      <trkpt lat="48.72676" lon="2.57091">
        <ele>73.68</ele>
        <time>2016-02-14T11:31:27Z</time>
      </trkpt>
      <trkpt lat="48.72675" lon="2.5708">
        <ele>73.68</ele>
        <time>2016-02-14T11:31:41Z</time>
      </trkpt>
      <trkpt lat="48.72673" lon="2.57077">
        <ele>73.68</ele>
        <time>2016-02-14T11:31:43Z</time>
      </trkpt>
      <trkpt lat="48.72671" lon="2.57072">
        <ele>73.2</ele>
        <time>2016-02-14T11:31:46Z</time>
      </trkpt>
      <trkpt lat="48.72674" lon="2.57042">
        <ele>71.27</ele>
        <time>2016-02-14T11:32:04Z</time>
      </trkpt>
      <trkpt lat="48.72674" lon="2.57024">
        <ele>70.31</ele>
        <time>2016-02-14T11:32:15Z</time>
      </trkpt>
      <trkpt lat="48.72674" lon="2.57005">
        <ele>71.27</ele>
        <time>2016-02-14T12:04:01Z</time>
      </trkpt>
      <trkpt lat="48.72675" lon="2.5702">
        <ele>72.24</ele>
        <time>2016-02-14T12:05:40Z</time>
      </trkpt>
      <trkpt lat="48.72674" lon="2.5702">
        <ele>72.24</ele>
        <time>2016-02-14T12:05:57Z</time>
      </trkpt>
      <trkpt lat="48.72674" lon="2.57026">
        <ele>72.72</ele>
        <time>2016-02-14T12:06:12Z</time>
      </trkpt>
      <trkpt lat="48.72675" lon="2.57032">
        <ele>72.72</ele>
        <time>2016-02-14T12:06:27Z</time>
      </trkpt>
      <trkpt lat="48.72675" lon="2.5706">
        <ele>73.68</ele>
        <time>2016-02-14T12:06:57Z</time>
      </trkpt>
      <trkpt lat="48.72675" lon="2.57076">
        <ele>74.64</ele>
        <time>2016-02-14T12:07:08Z</time>
      </trkpt>
      <trkpt lat="48.72677" lon="2.57097">
        <ele>76.08</ele>
        <time>2016-02-14T12:07:23Z</time>
      </trkpt>
      <trkpt lat="48.72681" lon="2.57115">
        <ele>77.04</ele>
        <time>2016-02-14T12:07:39Z</time>
      </trkpt>
      <trkpt lat="48.72684" lon="2.57148">
        <ele>77.52</ele>
        <time>2016-02-14T12:07:58Z</time>
      </trkpt>
      <trkpt lat="48.72688" lon="2.5717">
        <ele>78.48</ele>
        <time>2016-02-14T12:08:15Z</time>
      </trkpt>
      <trkpt lat="48.72688" lon="2.57171">
        <ele>78.48</ele>
        <time>2016-02-14T12:08:32Z</time>
      </trkpt>
      <trkpt lat="48.72686" lon="2.57155">
        <ele>77.52</ele>
        <time>2016-02-14T12:08:48Z</time>
      </trkpt>
      <trkpt lat="48.72682" lon="2.57129">
        <ele>76.56</ele>
        <time>2016-02-14T12:09:06Z</time>
      </trkpt>
      <trkpt lat="48.72677" lon="2.5712">
        <ele>76.56</ele>
        <time>2016-02-14T12:09:16Z</time>
      </trkpt>
      <trkpt lat="48.72661" lon="2.57117">
        <ele>76.56</ele>
        <time>2016-02-14T12:09:29Z</time>
      </trkpt>
      <trkpt lat="48.72651" lon="2.57122">
        <ele>76.08</ele>
        <time>2016-02-14T12:09:41Z</time>
      </trkpt>
      <trkpt lat="48.72643" lon="2.57133">
        <ele>76.08</ele>
        <time>2016-02-14T12:09:50Z</time>
      </trkpt>
      <trkpt lat="48.72633" lon="2.57143">
        <ele>76.08</ele>
        <time>2016-02-14T12:10:04Z</time>
      </trkpt>
      <trkpt lat="48.72622" lon="2.57149">
        <ele>76.08</ele>
        <time>2016-02-14T12:10:18Z</time>
      </trkpt>
      <trkpt lat="48.72603" lon="2.57179">
        <ele>75.6</ele>
        <time>2016-02-14T12:10:41Z</time>
      </trkpt>
      <trkpt lat="48.72585" lon="2.57198">
        <ele>74.64</ele>
        <time>2016-02-14T12:10:59Z</time>
      </trkpt>
      <trkpt lat="48.72577" lon="2.57211">
        <ele>74.16</ele>
        <time>2016-02-14T12:11:15Z</time>
      </trkpt>
      <trkpt lat="48.72574" lon="2.57212">
        <ele>74.16</ele>
        <time>2016-02-14T12:11:37Z</time>
      </trkpt>
      <trkpt lat="48.72574" lon="2.57229">
        <ele>73.2</ele>
        <time>2016-02-14T12:11:51Z</time>
      </trkpt>
      <trkpt lat="48.72575" lon="2.57232">
        <ele>73.2</ele>
        <time>2016-02-14T12:11:54Z</time>
      </trkpt>
      <trkpt lat="48.72581" lon="2.57254">
        <ele>74.16</ele>
        <time>2016-02-14T12:12:09Z</time>
      </trkpt>
      <trkpt lat="48.72592" lon="2.5727">
        <ele>75.6</ele>
        <time>2016-02-14T12:12:22Z</time>
      </trkpt>
      <trkpt lat="48.72596" lon="2.57282">
        <ele>76.08</ele>
        <time>2016-02-14T12:12:36Z</time>
      </trkpt>
      <trkpt lat="48.72598" lon="2.57286">
        <ele>76.08</ele>
        <time>2016-02-14T12:12:52Z</time>
      </trkpt>
      <trkpt lat="48.72599" lon="2.57282">
        <ele>76.56</ele>
        <time>2016-02-14T12:13:09Z</time>
      </trkpt>
      <trkpt lat="48.72615" lon="2.57292">
        <ele>77.04</ele>
        <time>2016-02-14T12:13:24Z</time>
      </trkpt>
      <trkpt lat="48.72628" lon="2.57307">
        <ele>78</ele>
        <time>2016-02-14T12:13:39Z</time>
      </trkpt>
      <trkpt lat="48.7263" lon="2.57332">
        <ele>77.52</ele>
        <time>2016-02-14T12:13:53Z</time>
      </trkpt>
      <trkpt lat="48.7263" lon="2.57337">
        <ele>77.04</ele>
        <time>2016-02-14T12:13:56Z</time>
      </trkpt>
      <trkpt lat="48.72626" lon="2.57363">
        <ele>76.08</ele>
        <time>2016-02-14T12:14:11Z</time>
      </trkpt>
      <trkpt lat="48.72624" lon="2.57392">
        <ele>75.6</ele>
        <time>2016-02-14T12:14:26Z</time>
      </trkpt>
      <trkpt lat="48.72631" lon="2.57401">
        <ele>76.08</ele>
        <time>2016-02-14T12:14:34Z</time>
      </trkpt>
      <trkpt lat="48.72652" lon="2.57418">
        <ele>77.52</ele>
        <time>2016-02-14T12:14:55Z</time>
      </trkpt>
      <trkpt lat="48.72669" lon="2.57429">
        <ele>78.48</ele>
        <time>2016-02-14T12:15:14Z</time>
      </trkpt>
      <trkpt lat="48.72687" lon="2.57437">
        <ele>79.45</ele>
        <time>2016-02-14T12:15:30Z</time>
      </trkpt>
      <trkpt lat="48.72707" lon="2.57438">
        <ele>80.89</ele>
        <time>2016-02-14T12:15:48Z</time>
      </trkpt>
      <trkpt lat="48.72727" lon="2.57442">
        <ele>81.85</ele>
        <time>2016-02-14T12:16:06Z</time>
      </trkpt>
      <trkpt lat="48.72749" lon="2.57446">
        <ele>82.81</ele>
        <time>2016-02-14T12:16:28Z</time>
      </trkpt>
      <trkpt lat="48.72767" lon="2.57449">
        <ele>83.77</ele>
        <time>2016-02-14T12:16:47Z</time>
      </trkpt>
      <trkpt lat="48.72788" lon="2.57455">
        <ele>84.25</ele>
        <time>2016-02-14T12:17:05Z</time>
      </trkpt>
      <trkpt lat="48.72811" lon="2.57459">
        <ele>84.73</ele>
        <time>2016-02-14T12:17:27Z</time>
      </trkpt>
      <trkpt lat="48.72831" lon="2.57461">
        <ele>85.21</ele>
        <time>2016-02-14T12:17:44Z</time>
      </trkpt>
      <trkpt lat="48.72844" lon="2.57458">
        <ele>85.69</ele>
        <time>2016-02-14T12:17:59Z</time>
      </trkpt>
      <trkpt lat="48.72857" lon="2.57471">
        <ele>85.69</ele>
        <time>2016-02-14T12:18:16Z</time>
      </trkpt>
      <trkpt lat="48.72858" lon="2.57471">
        <ele>86.18</ele>
        <time>2016-02-14T12:18:17Z</time>
      </trkpt>
      <trkpt lat="48.7288" lon="2.57482">
        <ele>86.18</ele>
        <time>2016-02-14T12:18:32Z</time>
      </trkpt>
      <trkpt lat="48.72895" lon="2.57495">
        <ele>86.18</ele>
        <time>2016-02-14T12:18:45Z</time>
      </trkpt>
      <trkpt lat="48.72909" lon="2.57495">
        <ele>86.18</ele>
        <time>2016-02-14T12:19:03Z</time>
      </trkpt>
      <trkpt lat="48.72923" lon="2.57499">
        <ele>86.18</ele>
        <time>2016-02-14T12:19:20Z</time>
      </trkpt>
      <trkpt lat="48.72945" lon="2.57505">
        <ele>86.18</ele>
        <time>2016-02-14T12:19:37Z</time>
      </trkpt>
      <trkpt lat="48.72963" lon="2.57512">
        <ele>86.66</ele>
        <time>2016-02-14T12:19:52Z</time>
      </trkpt>
      <trkpt lat="48.72964" lon="2.57512">
        <ele>86.66</ele>
        <time>2016-02-14T12:19:53Z</time>
      </trkpt>
      <trkpt lat="48.72971" lon="2.57516">
        <ele>86.66</ele>
        <time>2016-02-14T12:20:00Z</time>
      </trkpt>
      <trkpt lat="48.72991" lon="2.57519">
        <ele>86.66</ele>
        <time>2016-02-14T12:20:16Z</time>
      </trkpt>
      <trkpt lat="48.73004" lon="2.57516">
        <ele>87.14</ele>
        <time>2016-02-14T12:20:30Z</time>
      </trkpt>
      <trkpt lat="48.73005" lon="2.57519">
        <ele>87.62</ele>
        <time>2016-02-14T12:20:53Z</time>
      </trkpt>
      <trkpt lat="48.73008" lon="2.57522">
        <ele>87.14</ele>
        <time>2016-02-14T12:21:05Z</time>
      </trkpt>
      <trkpt lat="48.73011" lon="2.57518">
        <ele>87.14</ele>
        <time>2016-02-14T12:21:08Z</time>
      </trkpt>
      <trkpt lat="48.7302" lon="2.57512">
        <ele>87.14</ele>
        <time>2016-02-14T12:21:16Z</time>
      </trkpt>
      <trkpt lat="48.73034" lon="2.57519">
        <ele>88.1</ele>
        <time>2016-02-14T12:21:31Z</time>
      </trkpt>
      <trkpt lat="48.73054" lon="2.57521">
        <ele>88.1</ele>
        <time>2016-02-14T12:21:50Z</time>
      </trkpt>
      <trkpt lat="48.73067" lon="2.57522">
        <ele>88.58</ele>
        <time>2016-02-14T12:22:03Z</time>
      </trkpt>
      <trkpt lat="48.73085" lon="2.57527">
        <ele>88.58</ele>
        <time>2016-02-14T12:22:20Z</time>
      </trkpt>
      <trkpt lat="48.73106" lon="2.57529">
        <ele>89.06</ele>
        <time>2016-02-14T12:22:40Z</time>
      </trkpt>
      <trkpt lat="48.73126" lon="2.57532">
        <ele>89.06</ele>
        <time>2016-02-14T12:22:56Z</time>
      </trkpt>
      <trkpt lat="48.7314" lon="2.57537">
        <ele>89.54</ele>
        <time>2016-02-14T12:23:09Z</time>
      </trkpt>
      <trkpt lat="48.73158" lon="2.57538">
        <ele>89.54</ele>
        <time>2016-02-14T12:23:25Z</time>
      </trkpt>
      <trkpt lat="48.73175" lon="2.57536">
        <ele>90.02</ele>
        <time>2016-02-14T12:23:41Z</time>
      </trkpt>
      <trkpt lat="48.73188" lon="2.57535">
        <ele>90.5</ele>
        <time>2016-02-14T12:23:53Z</time>
      </trkpt>
      <trkpt lat="48.73192" lon="2.57535">
        <ele>90.5</ele>
        <time>2016-02-14T12:23:57Z</time>
      </trkpt>
      <trkpt lat="48.73206" lon="2.57536">
        <ele>90.98</ele>
        <time>2016-02-14T12:24:10Z</time>
      </trkpt>
      <trkpt lat="48.73212" lon="2.57536">
        <ele>90.5</ele>
        <time>2016-02-14T12:24:16Z</time>
      </trkpt>
      <trkpt lat="48.73227" lon="2.57538">
        <ele>90.5</ele>
        <time>2016-02-14T12:24:30Z</time>
      </trkpt>
      <trkpt lat="48.73243" lon="2.57536">
        <ele>91.46</ele>
        <time>2016-02-14T12:24:47Z</time>
      </trkpt>
      <trkpt lat="48.73262" lon="2.57533">
        <ele>90.98</ele>
        <time>2016-02-14T12:25:04Z</time>
      </trkpt>
      <trkpt lat="48.7328" lon="2.5753">
        <ele>91.46</ele>
        <time>2016-02-14T12:25:20Z</time>
      </trkpt>
      <trkpt lat="48.73297" lon="2.57529">
        <ele>91.46</ele>
        <time>2016-02-14T12:25:37Z</time>
      </trkpt>
      <trkpt lat="48.73303" lon="2.5753">
        <ele>91.94</ele>
        <time>2016-02-14T12:25:53Z</time>
      </trkpt>
      <trkpt lat="48.73308" lon="2.57526">
        <ele>91.46</ele>
        <time>2016-02-14T12:26:14Z</time>
      </trkpt>
      <trkpt lat="48.73318" lon="2.57522">
        <ele>91.46</ele>
        <time>2016-02-14T12:26:33Z</time>
      </trkpt>
      <trkpt lat="48.73335" lon="2.57517">
        <ele>91.46</ele>
        <time>2016-02-14T12:26:49Z</time>
      </trkpt>
      <trkpt lat="48.73353" lon="2.57513">
        <ele>91.46</ele>
        <time>2016-02-14T12:27:06Z</time>
      </trkpt>
      <trkpt lat="48.7336" lon="2.57509">
        <ele>91.94</ele>
        <time>2016-02-14T12:27:14Z</time>
      </trkpt>
      <trkpt lat="48.73378" lon="2.57501">
        <ele>91.94</ele>
        <time>2016-02-14T12:27:30Z</time>
      </trkpt>
      <trkpt lat="48.73395" lon="2.57494">
        <ele>91.94</ele>
        <time>2016-02-14T12:27:45Z</time>
      </trkpt>
      <trkpt lat="48.73417" lon="2.57487">
        <ele>92.42</ele>
        <time>2016-02-14T12:28:04Z</time>
      </trkpt>
      <trkpt lat="48.73418" lon="2.57486">
        <ele>91.94</ele>
        <time>2016-02-14T12:28:05Z</time>
      </trkpt>
      <trkpt lat="48.73432" lon="2.5748">
        <ele>92.42</ele>
        <time>2016-02-14T12:28:21Z</time>
      </trkpt>
      <trkpt lat="48.73435" lon="2.5748">
        <ele>92.42</ele>
        <time>2016-02-14T12:28:24Z</time>
      </trkpt>
      <trkpt lat="48.73457" lon="2.57476">
        <ele>92.42</ele>
        <time>2016-02-14T12:28:41Z</time>
      </trkpt>
      <trkpt lat="48.73472" lon="2.57474">
        <ele>92.9</ele>
        <time>2016-02-14T12:28:58Z</time>
      </trkpt>
      <trkpt lat="48.73478" lon="2.57472">
        <ele>92.9</ele>
        <time>2016-02-14T12:29:07Z</time>
      </trkpt>
      <trkpt lat="48.73501" lon="2.57465">
        <ele>93.39</ele>
        <time>2016-02-14T12:29:24Z</time>
      </trkpt>
      <trkpt lat="48.73522" lon="2.57463">
        <ele>93.39</ele>
        <time>2016-02-14T12:29:40Z</time>
      </trkpt>
      <trkpt lat="48.73531" lon="2.57463">
        <ele>93.39</ele>
        <time>2016-02-14T12:29:47Z</time>
      </trkpt>
      <trkpt lat="48.73544" lon="2.57466">
        <ele>93.39</ele>
        <time>2016-02-14T12:29:57Z</time>
      </trkpt>
      <trkpt lat="48.73567" lon="2.5746">
        <ele>93.39</ele>
        <time>2016-02-14T12:30:13Z</time>
      </trkpt>
      <trkpt lat="48.73581" lon="2.57461">
        <ele>93.39</ele>
        <time>2016-02-14T12:30:27Z</time>
      </trkpt>
      <trkpt lat="48.73595" lon="2.57459">
        <ele>93.87</ele>
        <time>2016-02-14T12:30:44Z</time>
      </trkpt>
      <trkpt lat="48.73611" lon="2.57449">
        <ele>93.39</ele>
        <time>2016-02-14T12:30:57Z</time>
      </trkpt>
      <trkpt lat="48.7363" lon="2.57439">
        <ele>93.87</ele>
        <time>2016-02-14T12:31:12Z</time>
      </trkpt>
      <trkpt lat="48.73641" lon="2.57434">
        <ele>93.39</ele>
        <time>2016-02-14T12:31:23Z</time>
      </trkpt>
      <trkpt lat="48.73654" lon="2.57425">
        <ele>93.87</ele>
        <time>2016-02-14T12:31:37Z</time>
      </trkpt>
      <trkpt lat="48.73667" lon="2.57416">
        <ele>93.87</ele>
        <time>2016-02-14T12:31:50Z</time>
      </trkpt>
      <trkpt lat="48.73684" lon="2.57405">
        <ele>93.87</ele>
        <time>2016-02-14T12:32:05Z</time>
      </trkpt>
      <trkpt lat="48.73697" lon="2.57398">
        <ele>93.87</ele>
        <time>2016-02-14T12:32:19Z</time>
      </trkpt>
      <trkpt lat="48.73725" lon="2.57384">
        <ele>94.35</ele>
        <time>2016-02-14T12:32:38Z</time>
      </trkpt>
      <trkpt lat="48.73733" lon="2.57371">
        <ele>94.35</ele>
        <time>2016-02-14T12:32:46Z</time>
      </trkpt>
      <trkpt lat="48.73738" lon="2.57359">
        <ele>94.35</ele>
        <time>2016-02-14T12:32:54Z</time>
      </trkpt>
      <trkpt lat="48.73753" lon="2.57338">
        <ele>94.35</ele>
        <time>2016-02-14T12:33:10Z</time>
      </trkpt>
      <trkpt lat="48.73758" lon="2.57329">
        <ele>94.35</ele>
        <time>2016-02-14T12:33:17Z</time>
      </trkpt>
      <trkpt lat="48.73762" lon="2.5732">
        <ele>94.35</ele>
        <time>2016-02-14T12:33:23Z</time>
      </trkpt>
      <trkpt lat="48.73775" lon="2.57295">
        <ele>94.35</ele>
        <time>2016-02-14T12:33:39Z</time>
      </trkpt>
      <trkpt lat="48.73785" lon="2.57276">
        <ele>94.35</ele>
        <time>2016-02-14T12:33:54Z</time>
      </trkpt>
      <trkpt lat="48.73801" lon="2.57248">
        <ele>94.83</ele>
        <time>2016-02-14T12:34:13Z</time>
      </trkpt>
      <trkpt lat="48.7381" lon="2.57229">
        <ele>94.35</ele>
        <time>2016-02-14T12:34:26Z</time>
      </trkpt>
      <trkpt lat="48.73821" lon="2.57212">
        <ele>94.83</ele>
        <time>2016-02-14T12:34:39Z</time>
      </trkpt>
      <trkpt lat="48.73831" lon="2.57195">
        <ele>94.83</ele>
        <time>2016-02-14T12:34:53Z</time>
      </trkpt>
      <trkpt lat="48.73841" lon="2.57178">
        <ele>94.35</ele>
        <time>2016-02-14T12:35:06Z</time>
      </trkpt>
      <trkpt lat="48.73851" lon="2.5716">
        <ele>94.83</ele>
        <time>2016-02-14T12:35:21Z</time>
      </trkpt>
      <trkpt lat="48.73866" lon="2.57131">
        <ele>94.83</ele>
        <time>2016-02-14T12:35:41Z</time>
      </trkpt>
      <trkpt lat="48.73879" lon="2.57111">
        <ele>94.83</ele>
        <time>2016-02-14T12:35:57Z</time>
      </trkpt>
      <trkpt lat="48.73887" lon="2.57096">
        <ele>94.83</ele>
        <time>2016-02-14T12:36:10Z</time>
      </trkpt>
      <trkpt lat="48.73899" lon="2.57074">
        <ele>94.83</ele>
        <time>2016-02-14T12:36:25Z</time>
      </trkpt>
      <trkpt lat="48.73901" lon="2.57068">
        <ele>94.83</ele>
        <time>2016-02-14T12:36:29Z</time>
      </trkpt>
      <trkpt lat="48.73912" lon="2.57052">
        <ele>94.83</ele>
        <time>2016-02-14T12:36:43Z</time>
      </trkpt>
      <trkpt lat="48.73916" lon="2.57046">
        <ele>94.83</ele>
        <time>2016-02-14T12:36:48Z</time>
      </trkpt>
      <trkpt lat="48.7393" lon="2.57026">
        <ele>94.83</ele>
        <time>2016-02-14T12:37:04Z</time>
      </trkpt>
      <trkpt lat="48.73941" lon="2.57007">
        <ele>94.83</ele>
        <time>2016-02-14T12:37:19Z</time>
      </trkpt>
      <trkpt lat="48.73951" lon="2.56986">
        <ele>94.83</ele>
        <time>2016-02-14T12:37:33Z</time>
      </trkpt>
      <trkpt lat="48.73962" lon="2.56967">
        <ele>94.83</ele>
        <time>2016-02-14T12:37:48Z</time>
      </trkpt>
      <trkpt lat="48.73969" lon="2.56951">
        <ele>94.83</ele>
        <time>2016-02-14T12:38:02Z</time>
      </trkpt>
      <trkpt lat="48.73978" lon="2.56946">
        <ele>94.83</ele>
        <time>2016-02-14T12:38:16Z</time>
      </trkpt>
      <trkpt lat="48.73982" lon="2.56955">
        <ele>94.83</ele>
        <time>2016-02-14T12:38:31Z</time>
      </trkpt>
      <trkpt lat="48.73993" lon="2.56973">
        <ele>94.83</ele>
        <time>2016-02-14T12:38:48Z</time>
      </trkpt>
      <trkpt lat="48.74007" lon="2.56991">
        <ele>94.83</ele>
        <time>2016-02-14T12:39:03Z</time>
      </trkpt>
      <trkpt lat="48.74014" lon="2.57">
        <ele>94.83</ele>
        <time>2016-02-14T12:39:12Z</time>
      </trkpt>
      <trkpt lat="48.74029" lon="2.5702">
        <ele>94.35</ele>
        <time>2016-02-14T12:39:28Z</time>
      </trkpt>
      <trkpt lat="48.74035" lon="2.57026">
        <ele>94.83</ele>
        <time>2016-02-14T12:39:34Z</time>
      </trkpt>
      <trkpt lat="48.74048" lon="2.5704">
        <ele>94.35</ele>
        <time>2016-02-14T12:39:48Z</time>
      </trkpt>
      <trkpt lat="48.74058" lon="2.57055">
        <ele>94.35</ele>
        <time>2016-02-14T12:40:07Z</time>
      </trkpt>
      <trkpt lat="48.74062" lon="2.5706">
        <ele>94.35</ele>
        <time>2016-02-14T12:40:20Z</time>
      </trkpt>
      <trkpt lat="48.74066" lon="2.57068">
        <ele>94.35</ele>
        <time>2016-02-14T12:40:31Z</time>
      </trkpt>
      <trkpt lat="48.74078" lon="2.57082">
        <ele>94.35</ele>
        <time>2016-02-14T12:40:46Z</time>
      </trkpt>
      <trkpt lat="48.74088" lon="2.57097">
        <ele>94.35</ele>
        <time>2016-02-14T12:41:00Z</time>
      </trkpt>
      <trkpt lat="48.74099" lon="2.5711">
        <ele>94.35</ele>
        <time>2016-02-14T12:41:14Z</time>
      </trkpt>
      <trkpt lat="48.74107" lon="2.5712">
        <ele>94.35</ele>
        <time>2016-02-14T12:41:27Z</time>
      </trkpt>
      <trkpt lat="48.74117" lon="2.57133">
        <ele>94.35</ele>
        <time>2016-02-14T12:41:42Z</time>
      </trkpt>
      <trkpt lat="48.74126" lon="2.57144">
        <ele>93.87</ele>
        <time>2016-02-14T12:41:56Z</time>
      </trkpt>
      <trkpt lat="48.74124" lon="2.57138">
        <ele>93.87</ele>
        <time>2016-02-14T12:42:26Z</time>
      </trkpt>
      <trkpt lat="48.74137" lon="2.57154">
        <ele>93.87</ele>
        <time>2016-02-14T12:42:48Z</time>
      </trkpt>
      <trkpt lat="48.74145" lon="2.57166">
        <ele>93.87</ele>
        <time>2016-02-14T12:43:01Z</time>
      </trkpt>
      <trkpt lat="48.74149" lon="2.57168">
        <ele>94.35</ele>
        <time>2016-02-14T12:43:18Z</time>
      </trkpt>
      <trkpt lat="48.74149" lon="2.57166">
        <ele>94.35</ele>
        <time>2016-02-14T12:43:41Z</time>
      </trkpt>
      <trkpt lat="48.74158" lon="2.57184">
        <ele>94.35</ele>
        <time>2016-02-14T12:44:05Z</time>
      </trkpt>
      <trkpt lat="48.74165" lon="2.57195">
        <ele>94.35</ele>
        <time>2016-02-14T12:44:22Z</time>
      </trkpt>
      <trkpt lat="48.74179" lon="2.57211">
        <ele>93.87</ele>
        <time>2016-02-14T12:44:37Z</time>
      </trkpt>
      <trkpt lat="48.74192" lon="2.57227">
        <ele>93.87</ele>
        <time>2016-02-14T12:44:52Z</time>
      </trkpt>
      <trkpt lat="48.74205" lon="2.57245">
        <ele>94.35</ele>
        <time>2016-02-14T12:45:10Z</time>
      </trkpt>
      <trkpt lat="48.74217" lon="2.57257">
        <ele>93.87</ele>
        <time>2016-02-14T12:45:26Z</time>
      </trkpt>
      <trkpt lat="48.74223" lon="2.5727">
        <ele>93.87</ele>
        <time>2016-02-14T12:45:42Z</time>
      </trkpt>
      <trkpt lat="48.74236" lon="2.57279">
        <ele>93.87</ele>
        <time>2016-02-14T12:45:57Z</time>
      </trkpt>
      <trkpt lat="48.74249" lon="2.57295">
        <ele>93.87</ele>
        <time>2016-02-14T12:46:14Z</time>
      </trkpt>
      <trkpt lat="48.74261" lon="2.57315">
        <ele>94.35</ele>
        <time>2016-02-14T12:46:33Z</time>
      </trkpt>
      <trkpt lat="48.74275" lon="2.57329">
        <ele>94.35</ele>
        <time>2016-02-14T12:46:49Z</time>
      </trkpt>
      <trkpt lat="48.7429" lon="2.57348">
        <ele>94.35</ele>
        <time>2016-02-14T12:47:06Z</time>
      </trkpt>
      <trkpt lat="48.74298" lon="2.57363">
        <ele>94.35</ele>
        <time>2016-02-14T12:47:21Z</time>
      </trkpt>
      <trkpt lat="48.74312" lon="2.57379">
        <ele>94.35</ele>
        <time>2016-02-14T12:47:36Z</time>
      </trkpt>
      <trkpt lat="48.7432" lon="2.57392">
        <ele>94.83</ele>
        <time>2016-02-14T12:47:49Z</time>
      </trkpt>
      <trkpt lat="48.74324" lon="2.57396">
        <ele>94.35</ele>
        <time>2016-02-14T12:48:04Z</time>
      </trkpt>
      <trkpt lat="48.74333" lon="2.57406">
        <ele>94.35</ele>
        <time>2016-02-14T12:48:18Z</time>
      </trkpt>
      <trkpt lat="48.74343" lon="2.57415">
        <ele>94.83</ele>
        <time>2016-02-14T12:48:33Z</time>
      </trkpt>
      <trkpt lat="48.74344" lon="2.57416">
        <ele>94.83</ele>
        <time>2016-02-14T12:48:34Z</time>
      </trkpt>
      <trkpt lat="48.74355" lon="2.57431">
        <ele>94.83</ele>
        <time>2016-02-14T12:48:52Z</time>
      </trkpt>
      <trkpt lat="48.7436" lon="2.5743">
        <ele>94.83</ele>
        <time>2016-02-14T12:49:07Z</time>
      </trkpt>
      <trkpt lat="48.74365" lon="2.57432">
        <ele>94.83</ele>
        <time>2016-02-14T12:49:17Z</time>
      </trkpt>
      <trkpt lat="48.74371" lon="2.57429">
        <ele>95.31</ele>
        <time>2016-02-14T12:49:22Z</time>
      </trkpt>
      <trkpt lat="48.74377" lon="2.57442">
        <ele>95.31</ele>
        <time>2016-02-14T12:49:37Z</time>
      </trkpt>
      <trkpt lat="48.74377" lon="2.57443">
        <ele>95.31</ele>
        <time>2016-02-14T12:49:38Z</time>
      </trkpt>
      <trkpt lat="48.74378" lon="2.57449">
        <ele>95.31</ele>
        <time>2016-02-14T12:49:42Z</time>
      </trkpt>
      <trkpt lat="48.74389" lon="2.57444">
        <ele>95.79</ele>
        <time>2016-02-14T12:49:55Z</time>
      </trkpt>
      <trkpt lat="48.7439" lon="2.57447">
        <ele>95.79</ele>
        <time>2016-02-14T12:50:01Z</time>
      </trkpt>
      <trkpt lat="48.74395" lon="2.57434">
        <ele>95.31</ele>
        <time>2016-02-14T12:50:09Z</time>
      </trkpt>
      <trkpt lat="48.74392" lon="2.57428">
        <ele>95.31</ele>
        <time>2016-02-14T12:50:13Z</time>
      </trkpt>
      <trkpt lat="48.74389" lon="2.57428">
        <ele>95.31</ele>
        <time>2016-02-14T12:50:30Z</time>
      </trkpt>
      <trkpt lat="48.74387" lon="2.5743">
        <ele>95.31</ele>
        <time>2016-02-14T12:51:05Z</time>
      </trkpt>
      <trkpt lat="48.74388" lon="2.57427">
        <ele>95.31</ele>
        <time>2016-02-14T12:51:24Z</time>
      </trkpt>
      <trkpt lat="48.7439" lon="2.57426">
        <ele>95.31</ele>
        <time>2016-02-14T12:51:38Z</time>
      </trkpt>
      <trkpt lat="48.74392" lon="2.57415">
        <ele>95.31</ele>
        <time>2016-02-14T12:51:53Z</time>
      </trkpt>
      <trkpt lat="48.74392" lon="2.57412">
        <ele>95.31</ele>
        <time>2016-02-14T12:51:56Z</time>
      </trkpt>
      <trkpt lat="48.74393" lon="2.57406">
        <ele>95.31</ele>
        <time>2016-02-14T12:52:00Z</time>
      </trkpt>
      <trkpt lat="48.74395" lon="2.57374">
        <ele>95.31</ele>
        <time>2016-02-14T12:52:17Z</time>
      </trkpt>
      <trkpt lat="48.74398" lon="2.57342">
        <ele>95.31</ele>
        <time>2016-02-14T12:52:34Z</time>
      </trkpt>
      <trkpt lat="48.744" lon="2.57332">
        <ele>95.31</ele>
        <time>2016-02-14T12:52:40Z</time>
      </trkpt>
      <trkpt lat="48.74401" lon="2.57324">
        <ele>94.83</ele>
        <time>2016-02-14T12:52:44Z</time>
      </trkpt>
      <trkpt lat="48.74402" lon="2.57296">
        <ele>95.31</ele>
        <time>2016-02-14T12:53:00Z</time>
      </trkpt>
      <trkpt lat="48.74402" lon="2.57288">
        <ele>95.79</ele>
        <time>2016-02-14T12:53:05Z</time>
      </trkpt>
      <trkpt lat="48.74404" lon="2.5727">
        <ele>95.31</ele>
        <time>2016-02-14T12:53:17Z</time>
      </trkpt>
      <trkpt lat="48.74404" lon="2.57252">
        <ele>95.31</ele>
        <time>2016-02-14T12:53:26Z</time>
      </trkpt>
      <trkpt lat="48.74404" lon="2.57249">
        <ele>95.31</ele>
        <time>2016-02-14T12:53:28Z</time>
      </trkpt>
      <trkpt lat="48.74405" lon="2.57238">
        <ele>95.31</ele>
        <time>2016-02-14T12:53:34Z</time>
      </trkpt>
      <trkpt lat="48.7441" lon="2.57211">
        <ele>95.31</ele>
        <time>2016-02-14T12:53:49Z</time>
      </trkpt>
      <trkpt lat="48.74412" lon="2.57182">
        <ele>94.83</ele>
        <time>2016-02-14T12:54:07Z</time>
      </trkpt>
      <trkpt lat="48.74413" lon="2.57167">
        <ele>95.31</ele>
        <time>2016-02-14T12:54:16Z</time>
      </trkpt>
      <trkpt lat="48.74413" lon="2.57159">
        <ele>95.31</ele>
        <time>2016-02-14T12:54:21Z</time>
      </trkpt>
      <trkpt lat="48.74415" lon="2.57156">
        <ele>95.31</ele>
        <time>2016-02-14T12:54:23Z</time>
      </trkpt>
      <trkpt lat="48.74415" lon="2.57133">
        <ele>95.31</ele>
        <time>2016-02-14T12:54:36Z</time>
      </trkpt>
      <trkpt lat="48.74414" lon="2.57121">
        <ele>95.31</ele>
        <time>2016-02-14T12:54:44Z</time>
      </trkpt>
      <trkpt lat="48.74422" lon="2.57114">
        <ele>95.31</ele>
        <time>2016-02-14T12:54:51Z</time>
      </trkpt>
      <trkpt lat="48.74425" lon="2.57113">
        <ele>95.31</ele>
        <time>2016-02-14T12:54:53Z</time>
      </trkpt>
      <trkpt lat="48.74436" lon="2.57113">
        <ele>94.83</ele>
        <time>2016-02-14T12:55:05Z</time>
      </trkpt>
      <trkpt lat="48.74438" lon="2.57125">
        <ele>95.31</ele>
        <time>2016-02-14T12:55:21Z</time>
      </trkpt>
      <trkpt lat="48.74443" lon="2.57134">
        <ele>95.31</ele>
        <time>2016-02-14T12:55:33Z</time>
      </trkpt>
      <trkpt lat="48.74445" lon="2.5714">
        <ele>95.31</ele>
        <time>2016-02-14T12:55:48Z</time>
      </trkpt>
      <trkpt lat="48.74457" lon="2.57161">
        <ele>95.31</ele>
        <time>2016-02-14T12:56:04Z</time>
      </trkpt>
      <trkpt lat="48.74462" lon="2.57175">
        <ele>95.31</ele>
        <time>2016-02-14T12:56:17Z</time>
      </trkpt>
      <trkpt lat="48.74468" lon="2.57188">
        <ele>95.79</ele>
        <time>2016-02-14T12:56:31Z</time>
      </trkpt>
      <trkpt lat="48.74477" lon="2.57217">
        <ele>95.31</ele>
        <time>2016-02-14T12:56:46Z</time>
      </trkpt>
      <trkpt lat="48.74485" lon="2.5723">
        <ele>95.31</ele>
        <time>2016-02-14T12:56:57Z</time>
      </trkpt>
      <trkpt lat="48.74493" lon="2.57256">
        <ele>94.83</ele>
        <time>2016-02-14T12:57:13Z</time>
      </trkpt>
      <trkpt lat="48.74499" lon="2.57274">
        <ele>95.31</ele>
        <time>2016-02-14T12:57:26Z</time>
      </trkpt>
      <trkpt lat="48.74506" lon="2.57294">
        <ele>95.31</ele>
        <time>2016-02-14T12:57:42Z</time>
      </trkpt>
      <trkpt lat="48.74518" lon="2.57289">
        <ele>94.83</ele>
        <time>2016-02-14T12:57:57Z</time>
      </trkpt>
      <trkpt lat="48.74519" lon="2.57283">
        <ele>94.83</ele>
        <time>2016-02-14T12:58:20Z</time>
      </trkpt>
      <trkpt lat="48.74528" lon="2.57263">
        <ele>94.83</ele>
        <time>2016-02-14T12:58:36Z</time>
      </trkpt>
      <trkpt lat="48.74538" lon="2.5724">
        <ele>94.83</ele>
        <time>2016-02-14T12:58:51Z</time>
      </trkpt>
      <trkpt lat="48.74544" lon="2.57216">
        <ele>94.83</ele>
        <time>2016-02-14T12:59:05Z</time>
      </trkpt>
      <trkpt lat="48.74542" lon="2.5719">
        <ele>94.35</ele>
        <time>2016-02-14T12:59:21Z</time>
      </trkpt>
      <trkpt lat="48.74548" lon="2.57175">
        <ele>94.83</ele>
        <time>2016-02-14T12:59:33Z</time>
      </trkpt>
      <trkpt lat="48.74549" lon="2.57153">
        <ele>94.83</ele>
        <time>2016-02-14T12:59:47Z</time>
      </trkpt>
      <trkpt lat="48.7455" lon="2.57128">
        <ele>94.83</ele>
        <time>2016-02-14T13:00:00Z</time>
      </trkpt>
      <trkpt lat="48.74561" lon="2.57117">
        <ele>94.83</ele>
        <time>2016-02-14T13:00:14Z</time>
      </trkpt>
      <trkpt lat="48.74567" lon="2.57107">
        <ele>94.83</ele>
        <time>2016-02-14T13:00:28Z</time>
      </trkpt>
      <trkpt lat="48.74577" lon="2.57087">
        <ele>94.83</ele>
        <time>2016-02-14T13:00:44Z</time>
      </trkpt>
      <trkpt lat="48.7458" lon="2.57067">
        <ele>94.83</ele>
        <time>2016-02-14T13:00:56Z</time>
      </trkpt>
      <trkpt lat="48.74588" lon="2.57048">
        <ele>94.83</ele>
        <time>2016-02-14T13:01:13Z</time>
      </trkpt>
      <trkpt lat="48.74589" lon="2.57021">
        <ele>94.83</ele>
        <time>2016-02-14T13:01:29Z</time>
      </trkpt>
      <trkpt lat="48.74593" lon="2.57005">
        <ele>94.83</ele>
        <time>2016-02-14T13:01:44Z</time>
      </trkpt>
      <trkpt lat="48.74597" lon="2.56983">
        <ele>94.83</ele>
        <time>2016-02-14T13:02:00Z</time>
      </trkpt>
      <trkpt lat="48.74601" lon="2.56966">
        <ele>94.83</ele>
        <time>2016-02-14T13:02:15Z</time>
      </trkpt>
      <trkpt lat="48.74614" lon="2.56946">
        <ele>94.83</ele>
        <time>2016-02-14T13:02:28Z</time>
      </trkpt>
      <trkpt lat="48.7461" lon="2.56941">
        <ele>94.83</ele>
        <time>2016-02-14T13:02:44Z</time>
      </trkpt>
      <trkpt lat="48.74609" lon="2.5694">
        <ele>95.31</ele>
        <time>2016-02-14T13:03:04Z</time>
      </trkpt>
      <trkpt lat="48.7461" lon="2.56931">
        <ele>95.31</ele>
        <time>2016-02-14T13:03:39Z</time>
      </trkpt>
      <trkpt lat="48.74611" lon="2.56932">
        <ele>95.31</ele>
        <time>2016-02-14T13:03:56Z</time>
      </trkpt>
      <trkpt lat="48.74609" lon="2.56943">
        <ele>95.31</ele>
        <time>2016-02-14T13:04:17Z</time>
      </trkpt>
      <trkpt lat="48.7461" lon="2.56952">
        <ele>95.31</ele>
        <time>2016-02-14T13:04:41Z</time>
      </trkpt>
      <trkpt lat="48.74618" lon="2.56942">
        <ele>95.31</ele>
        <time>2016-02-14T13:05:02Z</time>
      </trkpt>
      <trkpt lat="48.74616" lon="2.56942">
        <ele>95.79</ele>
        <time>2016-02-14T13:05:35Z</time>
      </trkpt>
      <trkpt lat="48.74621" lon="2.56946">
        <ele>95.31</ele>
        <time>2016-02-14T13:05:57Z</time>
      </trkpt>
      <trkpt lat="48.74638" lon="2.56951">
        <ele>95.79</ele>
        <time>2016-02-14T13:06:12Z</time>
      </trkpt>
      <trkpt lat="48.74654" lon="2.5695">
        <ele>95.79</ele>
        <time>2016-02-14T13:06:29Z</time>
      </trkpt>
      <trkpt lat="48.74668" lon="2.56954">
        <ele>96.27</ele>
        <time>2016-02-14T13:06:45Z</time>
      </trkpt>
      <trkpt lat="48.7468" lon="2.56956">
        <ele>95.79</ele>
        <time>2016-02-14T13:06:59Z</time>
      </trkpt>
      <trkpt lat="48.74694" lon="2.56955">
        <ele>96.27</ele>
        <time>2016-02-14T13:07:12Z</time>
      </trkpt>
      <trkpt lat="48.74712" lon="2.5696">
        <ele>96.27</ele>
        <time>2016-02-14T13:07:28Z</time>
      </trkpt>
      <trkpt lat="48.74726" lon="2.56961">
        <ele>96.27</ele>
        <time>2016-02-14T13:07:42Z</time>
      </trkpt>
      <trkpt lat="48.7474" lon="2.56964">
        <ele>96.27</ele>
        <time>2016-02-14T13:07:57Z</time>
      </trkpt>
      <trkpt lat="48.74747" lon="2.56968">
        <ele>96.27</ele>
        <time>2016-02-14T13:08:04Z</time>
      </trkpt>
      <trkpt lat="48.74755" lon="2.56972">
        <ele>96.75</ele>
        <time>2016-02-14T13:08:21Z</time>
      </trkpt>
      <trkpt lat="48.74773" lon="2.56966">
        <ele>96.75</ele>
        <time>2016-02-14T13:08:36Z</time>
      </trkpt>
      <trkpt lat="48.74786" lon="2.56971">
        <ele>96.75</ele>
        <time>2016-02-14T13:08:49Z</time>
      </trkpt>
      <trkpt lat="48.748" lon="2.56967">
        <ele>96.75</ele>
        <time>2016-02-14T13:09:04Z</time>
      </trkpt>
      <trkpt lat="48.74809" lon="2.56972">
        <ele>96.75</ele>
        <time>2016-02-14T13:09:16Z</time>
      </trkpt>
      <trkpt lat="48.74823" lon="2.56974">
        <ele>96.75</ele>
        <time>2016-02-14T13:09:30Z</time>
      </trkpt>
      <trkpt lat="48.74838" lon="2.56976">
        <ele>96.75</ele>
        <time>2016-02-14T13:09:45Z</time>
      </trkpt>
      <trkpt lat="48.74854" lon="2.56978">
        <ele>96.75</ele>
        <time>2016-02-14T13:10:01Z</time>
      </trkpt>
      <trkpt lat="48.74864" lon="2.56981">
        <ele>97.23</ele>
        <time>2016-02-14T13:10:17Z</time>
      </trkpt>
      <trkpt lat="48.74877" lon="2.56982">
        <ele>96.75</ele>
        <time>2016-02-14T13:10:31Z</time>
      </trkpt>
      <trkpt lat="48.74894" lon="2.56981">
        <ele>96.75</ele>
        <time>2016-02-14T13:10:48Z</time>
      </trkpt>
      <trkpt lat="48.74907" lon="2.56983">
        <ele>96.75</ele>
        <time>2016-02-14T13:11:04Z</time>
      </trkpt>
      <trkpt lat="48.7492" lon="2.56988">
        <ele>96.75</ele>
        <time>2016-02-14T13:11:17Z</time>
      </trkpt>
      <trkpt lat="48.74932" lon="2.56992">
        <ele>97.23</ele>
        <time>2016-02-14T13:11:31Z</time>
      </trkpt>
      <trkpt lat="48.74933" lon="2.56992">
        <ele>97.23</ele>
        <time>2016-02-14T13:11:32Z</time>
      </trkpt>
      <trkpt lat="48.74937" lon="2.56989">
        <ele>97.23</ele>
        <time>2016-02-14T13:11:39Z</time>
      </trkpt>
      <trkpt lat="48.74951" lon="2.56992">
        <ele>97.23</ele>
        <time>2016-02-14T13:11:54Z</time>
      </trkpt>
      <trkpt lat="48.74964" lon="2.56992">
        <ele>97.23</ele>
        <time>2016-02-14T13:12:07Z</time>
      </trkpt>
      <trkpt lat="48.74983" lon="2.56994">
        <ele>97.71</ele>
        <time>2016-02-14T13:12:22Z</time>
      </trkpt>
      <trkpt lat="48.74996" lon="2.56994">
        <ele>97.71</ele>
        <time>2016-02-14T13:12:37Z</time>
      </trkpt>
      <trkpt lat="48.75" lon="2.56992">
        <ele>97.71</ele>
        <time>2016-02-14T13:12:41Z</time>
      </trkpt>
      <trkpt lat="48.75003" lon="2.56973">
        <ele>97.71</ele>
        <time>2016-02-14T13:12:55Z</time>
      </trkpt>
      <trkpt lat="48.75005" lon="2.56966">
        <ele>97.71</ele>
        <time>2016-02-14T13:13:08Z</time>
      </trkpt>
      <trkpt lat="48.75008" lon="2.56947">
        <ele>97.71</ele>
        <time>2016-02-14T13:13:23Z</time>
      </trkpt>
      <trkpt lat="48.75011" lon="2.5695">
        <ele>97.71</ele>
        <time>2016-02-14T13:13:41Z</time>
      </trkpt>
      <trkpt lat="48.75007" lon="2.56947">
        <ele>97.71</ele>
        <time>2016-02-14T13:13:54Z</time>
      </trkpt>
      <trkpt lat="48.75009" lon="2.56942">
        <ele>97.71</ele>
        <time>2016-02-14T13:14:12Z</time>
      </trkpt>
      <trkpt lat="48.75005" lon="2.5694">
        <ele>97.23</ele>
        <time>2016-02-14T13:14:18Z</time>
      </trkpt>
      <trkpt lat="48.74992" lon="2.56937">
        <ele>97.23</ele>
        <time>2016-02-14T13:14:32Z</time>
      </trkpt>
      <trkpt lat="48.7498" lon="2.56923">
        <ele>97.23</ele>
        <time>2016-02-14T13:14:45Z</time>
      </trkpt>
      <trkpt lat="48.74981" lon="2.56913">
        <ele>97.23</ele>
        <time>2016-02-14T13:14:59Z</time>
      </trkpt>
      <trkpt lat="48.74969" lon="2.56902">
        <ele>97.71</ele>
        <time>2016-02-14T13:15:13Z</time>
      </trkpt>
      <trkpt lat="48.7496" lon="2.56898">
        <ele>97.71</ele>
        <time>2016-02-14T13:15:23Z</time>
      </trkpt>
      <trkpt lat="48.74947" lon="2.56899">
        <ele>97.71</ele>
        <time>2016-02-14T13:15:36Z</time>
      </trkpt>
      <trkpt lat="48.74932" lon="2.56894">
        <ele>97.23</ele>
        <time>2016-02-14T13:15:53Z</time>
      </trkpt>
      <trkpt lat="48.74924" lon="2.56887">
        <ele>97.23</ele>
        <time>2016-02-14T13:16:07Z</time>
      </trkpt>
      <trkpt lat="48.74911" lon="2.56881">
        <ele>97.23</ele>
        <time>2016-02-14T13:16:19Z</time>
      </trkpt>
      <trkpt lat="48.74911" lon="2.56886">
        <ele>97.23</ele>
        <time>2016-02-14T13:16:40Z</time>
      </trkpt>
      <trkpt lat="48.74923" lon="2.56881">
        <ele>97.23</ele>
        <time>2016-02-14T13:16:48Z</time>
      </trkpt>
      <trkpt lat="48.74926" lon="2.56892">
        <ele>97.23</ele>
        <time>2016-02-14T13:17:04Z</time>
      </trkpt>
      <trkpt lat="48.74925" lon="2.56893">
        <ele>97.23</ele>
        <time>2016-02-14T13:17:28Z</time>
      </trkpt>
      <trkpt lat="48.74936" lon="2.56902">
        <ele>97.23</ele>
        <time>2016-02-14T13:17:49Z</time>
      </trkpt>
      <trkpt lat="48.74946" lon="2.569">
        <ele>97.23</ele>
        <time>2016-02-14T13:18:04Z</time>
      </trkpt>
      <trkpt lat="48.74959" lon="2.56898">
        <ele>97.71</ele>
        <time>2016-02-14T13:18:18Z</time>
      </trkpt>
      <trkpt lat="48.74973" lon="2.56904">
        <ele>97.23</ele>
        <time>2016-02-14T13:18:34Z</time>
      </trkpt>
      <trkpt lat="48.74985" lon="2.56923">
        <ele>97.23</ele>
        <time>2016-02-14T13:18:51Z</time>
      </trkpt>
      <trkpt lat="48.74989" lon="2.56937">
        <ele>97.23</ele>
        <time>2016-02-14T13:19:03Z</time>
      </trkpt>
      <trkpt lat="48.75001" lon="2.56944">
        <ele>97.71</ele>
        <time>2016-02-14T13:19:19Z</time>
      </trkpt>
      <trkpt lat="48.75008" lon="2.56942">
        <ele>97.71</ele>
        <time>2016-02-14T13:19:27Z</time>
      </trkpt>
      <trkpt lat="48.75014" lon="2.5692">
        <ele>97.23</ele>
        <time>2016-02-14T13:19:42Z</time>
      </trkpt>
      <trkpt lat="48.75017" lon="2.56913">
        <ele>97.23</ele>
        <time>2016-02-14T13:19:50Z</time>
      </trkpt>
      <trkpt lat="48.75019" lon="2.56893">
        <ele>97.23</ele>
        <time>2016-02-14T13:20:05Z</time>
      </trkpt>
      <trkpt lat="48.75021" lon="2.56876">
        <ele>97.23</ele>
        <time>2016-02-14T13:20:18Z</time>
      </trkpt>
      <trkpt lat="48.75022" lon="2.56873">
        <ele>96.75</ele>
        <time>2016-02-14T13:20:20Z</time>
      </trkpt>
      <trkpt lat="48.75028" lon="2.5686">
        <ele>97.23</ele>
        <time>2016-02-14T13:20:36Z</time>
      </trkpt>
      <trkpt lat="48.75021" lon="2.56842">
        <ele>96.75</ele>
        <time>2016-02-14T13:20:53Z</time>
      </trkpt>
      <trkpt lat="48.75029" lon="2.56827">
        <ele>96.75</ele>
        <time>2016-02-14T13:21:07Z</time>
      </trkpt>
      <trkpt lat="48.75033" lon="2.56811">
        <ele>96.75</ele>
        <time>2016-02-14T13:21:20Z</time>
      </trkpt>
      <trkpt lat="48.75034" lon="2.56795">
        <ele>96.75</ele>
        <time>2016-02-14T13:21:37Z</time>
      </trkpt>
      <trkpt lat="48.7504" lon="2.56776">
        <ele>96.75</ele>
        <time>2016-02-14T13:21:54Z</time>
      </trkpt>
      <trkpt lat="48.75048" lon="2.56769">
        <ele>96.75</ele>
        <time>2016-02-14T13:22:16Z</time>
      </trkpt>
      <trkpt lat="48.75041" lon="2.56763">
        <ele>96.27</ele>
        <time>2016-02-14T13:22:36Z</time>
      </trkpt>
      <trkpt lat="48.75035" lon="2.56756">
        <ele>96.75</ele>
        <time>2016-02-14T13:22:59Z</time>
      </trkpt>
      <trkpt lat="48.75042" lon="2.56749">
        <ele>96.27</ele>
        <time>2016-02-14T13:23:29Z</time>
      </trkpt>
      <trkpt lat="48.75051" lon="2.56745">
        <ele>96.27</ele>
        <time>2016-02-14T13:23:47Z</time>
      </trkpt>
      <trkpt lat="48.75052" lon="2.56743">
        <ele>95.31</ele>
        <time>2016-02-14T13:24:09Z</time>
      </trkpt>
      <trkpt lat="48.75046" lon="2.56745">
        <ele>96.27</ele>
        <time>2016-02-14T13:24:35Z</time>
      </trkpt>
      <trkpt lat="48.75052" lon="2.56749">
        <ele>96.27</ele>
        <time>2016-02-14T13:25:00Z</time>
      </trkpt>
      <trkpt lat="48.75052" lon="2.56736">
        <ele>95.79</ele>
        <time>2016-02-14T13:25:21Z</time>
      </trkpt>
      <trkpt lat="48.75052" lon="2.56729">
        <ele>95.79</ele>
        <time>2016-02-14T13:25:45Z</time>
      </trkpt>
      <trkpt lat="48.75052" lon="2.56725">
        <ele>95.79</ele>
        <time>2016-02-14T13:26:05Z</time>
      </trkpt>
      <trkpt lat="48.75048" lon="2.56725">
        <ele>95.79</ele>
        <time>2016-02-14T13:26:21Z</time>
      </trkpt>
      <trkpt lat="48.75053" lon="2.56735">
        <ele>95.79</ele>
        <time>2016-02-14T13:26:49Z</time>
      </trkpt>
      <trkpt lat="48.75057" lon="2.56711">
        <ele>95.79</ele>
        <time>2016-02-14T13:27:09Z</time>
      </trkpt>
      <trkpt lat="48.75056" lon="2.56686">
        <ele>95.79</ele>
        <time>2016-02-14T13:27:25Z</time>
      </trkpt>
      <trkpt lat="48.75058" lon="2.5666">
        <ele>96.27</ele>
        <time>2016-02-14T13:27:43Z</time>
      </trkpt>
      <trkpt lat="48.75063" lon="2.56636">
        <ele>95.79</ele>
        <time>2016-02-14T13:27:59Z</time>
      </trkpt>
      <trkpt lat="48.75068" lon="2.56615">
        <ele>95.79</ele>
        <time>2016-02-14T13:28:14Z</time>
      </trkpt>
      <trkpt lat="48.75071" lon="2.56596">
        <ele>95.79</ele>
        <time>2016-02-14T13:28:31Z</time>
      </trkpt>
      <trkpt lat="48.75075" lon="2.56576">
        <ele>95.31</ele>
        <time>2016-02-14T13:28:45Z</time>
      </trkpt>
      <trkpt lat="48.75081" lon="2.56551">
        <ele>95.79</ele>
        <time>2016-02-14T13:29:02Z</time>
      </trkpt>
      <trkpt lat="48.75084" lon="2.56525">
        <ele>95.31</ele>
        <time>2016-02-14T13:29:18Z</time>
      </trkpt>
      <trkpt lat="48.75085" lon="2.56523">
        <ele>95.31</ele>
        <time>2016-02-14T13:29:20Z</time>
      </trkpt>
      <trkpt lat="48.7509" lon="2.56497">
        <ele>94.83</ele>
        <time>2016-02-14T13:29:35Z</time>
      </trkpt>
      <trkpt lat="48.75093" lon="2.56482">
        <ele>95.79</ele>
        <time>2016-02-14T13:29:45Z</time>
      </trkpt>
      <trkpt lat="48.75097" lon="2.56452">
        <ele>95.31</ele>
        <time>2016-02-14T13:30:01Z</time>
      </trkpt>
      <trkpt lat="48.75102" lon="2.5643">
        <ele>95.31</ele>
        <time>2016-02-14T13:30:15Z</time>
      </trkpt>
      <trkpt lat="48.75109" lon="2.56407">
        <ele>95.31</ele>
        <time>2016-02-14T13:30:31Z</time>
      </trkpt>
      <trkpt lat="48.75112" lon="2.56385">
        <ele>94.83</ele>
        <time>2016-02-14T13:30:45Z</time>
      </trkpt>
      <trkpt lat="48.75116" lon="2.56362">
        <ele>94.83</ele>
        <time>2016-02-14T13:31:00Z</time>
      </trkpt>
      <trkpt lat="48.75119" lon="2.56364">
        <ele>94.83</ele>
        <time>2016-02-14T13:31:14Z</time>
      </trkpt>
      <trkpt lat="48.75124" lon="2.56343">
        <ele>94.35</ele>
        <time>2016-02-14T13:31:35Z</time>
      </trkpt>
      <trkpt lat="48.75126" lon="2.56321">
        <ele>94.35</ele>
        <time>2016-02-14T13:31:49Z</time>
      </trkpt>
      <trkpt lat="48.75129" lon="2.56296">
        <ele>94.35</ele>
        <time>2016-02-14T13:32:04Z</time>
      </trkpt>
      <trkpt lat="48.75133" lon="2.56273">
        <ele>94.35</ele>
        <time>2016-02-14T13:32:17Z</time>
      </trkpt>
      <trkpt lat="48.75138" lon="2.56248">
        <ele>93.87</ele>
        <time>2016-02-14T13:32:33Z</time>
      </trkpt>
      <trkpt lat="48.7514" lon="2.56227">
        <ele>93.87</ele>
        <time>2016-02-14T13:32:47Z</time>
      </trkpt>
      <trkpt lat="48.75146" lon="2.56202">
        <ele>93.87</ele>
        <time>2016-02-14T13:33:02Z</time>
      </trkpt>
      <trkpt lat="48.75149" lon="2.56182">
        <ele>93.87</ele>
        <time>2016-02-14T13:33:14Z</time>
      </trkpt>
      <trkpt lat="48.7515" lon="2.56169">
        <ele>93.87</ele>
        <time>2016-02-14T13:33:28Z</time>
      </trkpt>
      <trkpt lat="48.75156" lon="2.56148">
        <ele>93.39</ele>
        <time>2016-02-14T13:33:41Z</time>
      </trkpt>
      <trkpt lat="48.75157" lon="2.56146">
        <ele>93.87</ele>
        <time>2016-02-14T13:33:42Z</time>
      </trkpt>
      <trkpt lat="48.7516" lon="2.56134">
        <ele>93.87</ele>
        <time>2016-02-14T13:33:49Z</time>
      </trkpt>
      <trkpt lat="48.75162" lon="2.56117">
        <ele>93.87</ele>
        <time>2016-02-14T13:33:58Z</time>
      </trkpt>
      <trkpt lat="48.75167" lon="2.56091">
        <ele>93.87</ele>
        <time>2016-02-14T13:34:14Z</time>
      </trkpt>
      <trkpt lat="48.75173" lon="2.56058">
        <ele>93.39</ele>
        <time>2016-02-14T13:34:31Z</time>
      </trkpt>
      <trkpt lat="48.75181" lon="2.56029">
        <ele>92.9</ele>
        <time>2016-02-14T13:34:49Z</time>
      </trkpt>
      <trkpt lat="48.75182" lon="2.56005">
        <ele>92.9</ele>
        <time>2016-02-14T13:35:04Z</time>
      </trkpt>
      <trkpt lat="48.75189" lon="2.55981">
        <ele>92.9</ele>
        <time>2016-02-14T13:35:19Z</time>
      </trkpt>
      <trkpt lat="48.75193" lon="2.55956">
        <ele>92.9</ele>
        <time>2016-02-14T13:35:33Z</time>
      </trkpt>
      <trkpt lat="48.75195" lon="2.55931">
        <ele>91.94</ele>
        <time>2016-02-14T13:35:48Z</time>
      </trkpt>
      <trkpt lat="48.75201" lon="2.5591">
        <ele>91.94</ele>
        <time>2016-02-14T13:36:00Z</time>
      </trkpt>
      <trkpt lat="48.75205" lon="2.55884">
        <ele>91.46</ele>
        <time>2016-02-14T13:36:17Z</time>
      </trkpt>
      <trkpt lat="48.75206" lon="2.55863">
        <ele>91.46</ele>
        <time>2016-02-14T13:36:31Z</time>
      </trkpt>
      <trkpt lat="48.75214" lon="2.55843">
        <ele>91.46</ele>
        <time>2016-02-14T13:36:45Z</time>
      </trkpt>
      <trkpt lat="48.75217" lon="2.5582">
        <ele>91.46</ele>
        <time>2016-02-14T13:36:58Z</time>
      </trkpt>
      <trkpt lat="48.75222" lon="2.55806">
        <ele>90.98</ele>
        <time>2016-02-14T13:37:07Z</time>
      </trkpt>
      <trkpt lat="48.75226" lon="2.5578">
        <ele>90.98</ele>
        <time>2016-02-14T13:37:23Z</time>
      </trkpt>
      <trkpt lat="48.75232" lon="2.55753">
        <ele>90.5</ele>
        <time>2016-02-14T13:37:40Z</time>
      </trkpt>
      <trkpt lat="48.75232" lon="2.55724">
        <ele>91.46</ele>
        <time>2016-02-14T13:37:57Z</time>
      </trkpt>
      <trkpt lat="48.75231" lon="2.55722">
        <ele>90.98</ele>
        <time>2016-02-14T13:38:09Z</time>
      </trkpt>
      <trkpt lat="48.75236" lon="2.5573">
        <ele>91.46</ele>
        <time>2016-02-14T13:38:28Z</time>
      </trkpt>
      <trkpt lat="48.75239" lon="2.55722">
        <ele>90.98</ele>
        <time>2016-02-14T13:38:47Z</time>
      </trkpt>
      <trkpt lat="48.75237" lon="2.55715">
        <ele>91.46</ele>
        <time>2016-02-14T13:39:02Z</time>
      </trkpt>
      <trkpt lat="48.75238" lon="2.5572">
        <ele>91.46</ele>
        <time>2016-02-14T13:39:20Z</time>
      </trkpt>
      <trkpt lat="48.75245" lon="2.55722">
        <ele>90.98</ele>
        <time>2016-02-14T13:39:47Z</time>
      </trkpt>
      <trkpt lat="48.75239" lon="2.55725">
        <ele>90.98</ele>
        <time>2016-02-14T13:40:16Z</time>
      </trkpt>
      <trkpt lat="48.75242" lon="2.55724">
        <ele>91.46</ele>
        <time>2016-02-14T13:40:30Z</time>
      </trkpt>
      <trkpt lat="48.75236" lon="2.5572">
        <ele>90.98</ele>
        <time>2016-02-14T13:40:43Z</time>
      </trkpt>
      <trkpt lat="48.75235" lon="2.55707">
        <ele>90.98</ele>
        <time>2016-02-14T13:40:57Z</time>
      </trkpt>
      <trkpt lat="48.75234" lon="2.55705">
        <ele>91.46</ele>
        <time>2016-02-14T13:40:58Z</time>
      </trkpt>
      <trkpt lat="48.75229" lon="2.55678">
        <ele>90.98</ele>
        <time>2016-02-14T13:41:14Z</time>
      </trkpt>
      <trkpt lat="48.75223" lon="2.55652">
        <ele>91.46</ele>
        <time>2016-02-14T13:41:30Z</time>
      </trkpt>
      <trkpt lat="48.75217" lon="2.55626">
        <ele>91.46</ele>
        <time>2016-02-14T13:41:47Z</time>
      </trkpt>
      <trkpt lat="48.75209" lon="2.55595">
        <ele>90.98</ele>
        <time>2016-02-14T13:42:05Z</time>
      </trkpt>
      <trkpt lat="48.75203" lon="2.55572">
        <ele>90.98</ele>
        <time>2016-02-14T13:42:20Z</time>
      </trkpt>
      <trkpt lat="48.75197" lon="2.55545">
        <ele>91.46</ele>
        <time>2016-02-14T13:42:37Z</time>
      </trkpt>
      <trkpt lat="48.75193" lon="2.55525">
        <ele>91.46</ele>
        <time>2016-02-14T13:42:52Z</time>
      </trkpt>
      <trkpt lat="48.75191" lon="2.55514">
        <ele>91.46</ele>
        <time>2016-02-14T13:43:15Z</time>
      </trkpt>
      <trkpt lat="48.75183" lon="2.55493">
        <ele>90.98</ele>
        <time>2016-02-14T13:43:29Z</time>
      </trkpt>
      <trkpt lat="48.75178" lon="2.55467">
        <ele>90.98</ele>
        <time>2016-02-14T13:43:45Z</time>
      </trkpt>
      <trkpt lat="48.75172" lon="2.55437">
        <ele>91.46</ele>
        <time>2016-02-14T13:44:03Z</time>
      </trkpt>
      <trkpt lat="48.75165" lon="2.55406">
        <ele>91.46</ele>
        <time>2016-02-14T13:44:21Z</time>
      </trkpt>
      <trkpt lat="48.75157" lon="2.55374">
        <ele>91.46</ele>
        <time>2016-02-14T13:44:40Z</time>
      </trkpt>
      <trkpt lat="48.75152" lon="2.55348">
        <ele>91.46</ele>
        <time>2016-02-14T13:44:55Z</time>
      </trkpt>
      <trkpt lat="48.75146" lon="2.55319">
        <ele>91.46</ele>
        <time>2016-02-14T13:45:13Z</time>
      </trkpt>
      <trkpt lat="48.75141" lon="2.55293">
        <ele>91.46</ele>
        <time>2016-02-14T13:45:30Z</time>
      </trkpt>
      <trkpt lat="48.75135" lon="2.5527">
        <ele>91.46</ele>
        <time>2016-02-14T13:45:45Z</time>
      </trkpt>
      <trkpt lat="48.7513" lon="2.55252">
        <ele>91.46</ele>
        <time>2016-02-14T13:46:00Z</time>
      </trkpt>
      <trkpt lat="48.75129" lon="2.55233">
        <ele>91.46</ele>
        <time>2016-02-14T13:46:15Z</time>
      </trkpt>
      <trkpt lat="48.75128" lon="2.55213">
        <ele>91.46</ele>
        <time>2016-02-14T13:46:30Z</time>
      </trkpt>
      <trkpt lat="48.75127" lon="2.55188">
        <ele>91.46</ele>
        <time>2016-02-14T13:46:47Z</time>
      </trkpt>
      <trkpt lat="48.75127" lon="2.55161">
        <ele>90.98</ele>
        <time>2016-02-14T13:47:03Z</time>
      </trkpt>
      <trkpt lat="48.75124" lon="2.55136">
        <ele>90.98</ele>
        <time>2016-02-14T13:47:18Z</time>
      </trkpt>
      <trkpt lat="48.75125" lon="2.55125">
        <ele>90.98</ele>
        <time>2016-02-14T13:47:24Z</time>
      </trkpt>
      <trkpt lat="48.75123" lon="2.55095">
        <ele>90.98</ele>
        <time>2016-02-14T13:47:41Z</time>
      </trkpt>
      <trkpt lat="48.75123" lon="2.55072">
        <ele>90.98</ele>
        <time>2016-02-14T13:47:54Z</time>
      </trkpt>
      <trkpt lat="48.75123" lon="2.55066">
        <ele>90.98</ele>
        <time>2016-02-14T13:47:57Z</time>
      </trkpt>
      <trkpt lat="48.75121" lon="2.55039">
        <ele>90.98</ele>
        <time>2016-02-14T13:48:11Z</time>
      </trkpt>
      <trkpt lat="48.75122" lon="2.55017">
        <ele>90.5</ele>
        <time>2016-02-14T13:48:24Z</time>
      </trkpt>
      <trkpt lat="48.75119" lon="2.54991">
        <ele>90.5</ele>
        <time>2016-02-14T13:48:37Z</time>
      </trkpt>
      <trkpt lat="48.75117" lon="2.54969">
        <ele>90.02</ele>
        <time>2016-02-14T13:48:51Z</time>
      </trkpt>
      <trkpt lat="48.75116" lon="2.54951">
        <ele>90.02</ele>
        <time>2016-02-14T13:49:05Z</time>
      </trkpt>
      <trkpt lat="48.75116" lon="2.54931">
        <ele>90.02</ele>
        <time>2016-02-14T13:49:19Z</time>
      </trkpt>
      <trkpt lat="48.75115" lon="2.54905">
        <ele>89.54</ele>
        <time>2016-02-14T13:49:36Z</time>
      </trkpt>
      <trkpt lat="48.75115" lon="2.5488">
        <ele>89.54</ele>
        <time>2016-02-14T13:49:51Z</time>
      </trkpt>
      <trkpt lat="48.75116" lon="2.54851">
        <ele>89.06</ele>
        <time>2016-02-14T13:50:07Z</time>
      </trkpt>
      <trkpt lat="48.75116" lon="2.54849">
        <ele>89.06</ele>
        <time>2016-02-14T13:50:08Z</time>
      </trkpt>
      <trkpt lat="48.75114" lon="2.54825">
        <ele>89.06</ele>
        <time>2016-02-14T13:50:23Z</time>
      </trkpt>
      <trkpt lat="48.75112" lon="2.54798">
        <ele>89.06</ele>
        <time>2016-02-14T13:50:37Z</time>
      </trkpt>
      <trkpt lat="48.7511" lon="2.54772">
        <ele>88.58</ele>
        <time>2016-02-14T13:50:52Z</time>
      </trkpt>
      <trkpt lat="48.7511" lon="2.54748">
        <ele>88.58</ele>
        <time>2016-02-14T13:51:06Z</time>
      </trkpt>
      <trkpt lat="48.75107" lon="2.54719">
        <ele>89.06</ele>
        <time>2016-02-14T13:51:23Z</time>
      </trkpt>
      <trkpt lat="48.75107" lon="2.54694">
        <ele>88.58</ele>
        <time>2016-02-14T13:51:37Z</time>
      </trkpt>
      <trkpt lat="48.75105" lon="2.54666">
        <ele>89.06</ele>
        <time>2016-02-14T13:51:51Z</time>
      </trkpt>
      <trkpt lat="48.75106" lon="2.54637">
        <ele>89.06</ele>
        <time>2016-02-14T13:52:08Z</time>
      </trkpt>
      <trkpt lat="48.75103" lon="2.54612">
        <ele>89.06</ele>
        <time>2016-02-14T13:52:20Z</time>
      </trkpt>
      <trkpt lat="48.75099" lon="2.54596">
        <ele>89.54</ele>
        <time>2016-02-14T13:52:34Z</time>
      </trkpt>
      <trkpt lat="48.75097" lon="2.54593">
        <ele>89.54</ele>
        <time>2016-02-14T13:52:52Z</time>
      </trkpt>
      <trkpt lat="48.75079" lon="2.54579">
        <ele>89.06</ele>
        <time>2016-02-14T13:53:13Z</time>
      </trkpt>
      <trkpt lat="48.75062" lon="2.54569">
        <ele>89.54</ele>
        <time>2016-02-14T13:53:27Z</time>
      </trkpt>
      <trkpt lat="48.75047" lon="2.54555">
        <ele>89.54</ele>
        <time>2016-02-14T13:53:43Z</time>
      </trkpt>
      <trkpt lat="48.75042" lon="2.54552">
        <ele>89.06</ele>
        <time>2016-02-14T13:53:48Z</time>
      </trkpt>
      <trkpt lat="48.75026" lon="2.54539">
        <ele>89.54</ele>
        <time>2016-02-14T13:54:04Z</time>
      </trkpt>
      <trkpt lat="48.75013" lon="2.54529">
        <ele>89.54</ele>
        <time>2016-02-14T13:54:18Z</time>
      </trkpt>
      <trkpt lat="48.74999" lon="2.54517">
        <ele>89.54</ele>
        <time>2016-02-14T13:54:32Z</time>
      </trkpt>
      <trkpt lat="48.74981" lon="2.54505">
        <ele>89.54</ele>
        <time>2016-02-14T13:54:50Z</time>
      </trkpt>
      <trkpt lat="48.74965" lon="2.54492">
        <ele>89.06</ele>
        <time>2016-02-14T13:55:05Z</time>
      </trkpt>
      <trkpt lat="48.7495" lon="2.54482">
        <ele>89.06</ele>
        <time>2016-02-14T13:55:21Z</time>
      </trkpt>
      <trkpt lat="48.74935" lon="2.54471">
        <ele>89.54</ele>
        <time>2016-02-14T13:55:34Z</time>
      </trkpt>
      <trkpt lat="48.74921" lon="2.54458">
        <ele>89.06</ele>
        <time>2016-02-14T13:55:50Z</time>
      </trkpt>
      <trkpt lat="48.74904" lon="2.54446">
        <ele>89.06</ele>
        <time>2016-02-14T13:56:07Z</time>
      </trkpt>
      <trkpt lat="48.74891" lon="2.54431">
        <ele>89.54</ele>
        <time>2016-02-14T13:56:22Z</time>
      </trkpt>
      <trkpt lat="48.74894" lon="2.54413">
        <ele>89.06</ele>
        <time>2016-02-14T13:56:34Z</time>
      </trkpt>
      <trkpt lat="48.74897" lon="2.54406">
        <ele>89.06</ele>
        <time>2016-02-14T13:56:39Z</time>
      </trkpt>
      <trkpt lat="48.74903" lon="2.54382">
        <ele>89.54</ele>
        <time>2016-02-14T13:56:54Z</time>
      </trkpt>
      <trkpt lat="48.74907" lon="2.54358">
        <ele>89.54</ele>
        <time>2016-02-14T13:57:10Z</time>
      </trkpt>
      <trkpt lat="48.74914" lon="2.54329">
        <ele>89.54</ele>
        <time>2016-02-14T13:57:26Z</time>
      </trkpt>
      <trkpt lat="48.74918" lon="2.5432">
        <ele>89.06</ele>
        <time>2016-02-14T13:57:32Z</time>
      </trkpt>
      <trkpt lat="48.74921" lon="2.54295">
        <ele>89.54</ele>
        <time>2016-02-14T13:57:47Z</time>
      </trkpt>
      <trkpt lat="48.74924" lon="2.54275">
        <ele>89.54</ele>
        <time>2016-02-14T13:58:01Z</time>
      </trkpt>
      <trkpt lat="48.74929" lon="2.54256">
        <ele>89.54</ele>
        <time>2016-02-14T13:58:15Z</time>
      </trkpt>
      <trkpt lat="48.74933" lon="2.54236">
        <ele>89.54</ele>
        <time>2016-02-14T13:58:27Z</time>
      </trkpt>
      <trkpt lat="48.74934" lon="2.54234">
        <ele>89.54</ele>
        <time>2016-02-14T13:58:28Z</time>
      </trkpt>
      <trkpt lat="48.74935" lon="2.54229">
        <ele>89.54</ele>
        <time>2016-02-14T13:58:31Z</time>
      </trkpt>
      <trkpt lat="48.74938" lon="2.54206">
        <ele>89.54</ele>
        <time>2016-02-14T13:58:46Z</time>
      </trkpt>
      <trkpt lat="48.74939" lon="2.54201">
        <ele>89.54</ele>
        <time>2016-02-14T13:58:49Z</time>
      </trkpt>
      <trkpt lat="48.74946" lon="2.54175">
        <ele>89.06</ele>
        <time>2016-02-14T13:59:05Z</time>
      </trkpt>
      <trkpt lat="48.7495" lon="2.54149">
        <ele>90.02</ele>
        <time>2016-02-14T13:59:21Z</time>
      </trkpt>
      <trkpt lat="48.74955" lon="2.54126">
        <ele>90.02</ele>
        <time>2016-02-14T13:59:36Z</time>
      </trkpt>
      <trkpt lat="48.74958" lon="2.54107">
        <ele>90.02</ele>
        <time>2016-02-14T13:59:47Z</time>
      </trkpt>
      <trkpt lat="48.74961" lon="2.54095">
        <ele>90.02</ele>
        <time>2016-02-14T13:59:54Z</time>
      </trkpt>
      <trkpt lat="48.74967" lon="2.5407">
        <ele>90.02</ele>
        <time>2016-02-14T14:00:09Z</time>
      </trkpt>
      <trkpt lat="48.74973" lon="2.54046">
        <ele>90.02</ele>
        <time>2016-02-14T14:00:25Z</time>
      </trkpt>
      <trkpt lat="48.74976" lon="2.54032">
        <ele>90.02</ele>
        <time>2016-02-14T14:00:34Z</time>
      </trkpt>
      <trkpt lat="48.74973" lon="2.54024">
        <ele>90.02</ele>
        <time>2016-02-14T14:00:38Z</time>
      </trkpt>
      <trkpt lat="48.74956" lon="2.54012">
        <ele>90.5</ele>
        <time>2016-02-14T14:00:53Z</time>
      </trkpt>
      <trkpt lat="48.74939" lon="2.53998">
        <ele>90.5</ele>
        <time>2016-02-14T14:01:09Z</time>
      </trkpt>
      <trkpt lat="48.74924" lon="2.53979">
        <ele>90.5</ele>
        <time>2016-02-14T14:01:26Z</time>
      </trkpt>
      <trkpt lat="48.74914" lon="2.53955">
        <ele>90.02</ele>
        <time>2016-02-14T14:01:44Z</time>
      </trkpt>
      <trkpt lat="48.74906" lon="2.53928">
        <ele>90.02</ele>
        <time>2016-02-14T14:02:01Z</time>
      </trkpt>
      <trkpt lat="48.74904" lon="2.53924">
        <ele>89.54</ele>
        <time>2016-02-14T14:02:04Z</time>
      </trkpt>
      <trkpt lat="48.74891" lon="2.53898">
        <ele>89.54</ele>
        <time>2016-02-14T14:02:21Z</time>
      </trkpt>
      <trkpt lat="48.7488" lon="2.53875">
        <ele>89.54</ele>
        <time>2016-02-14T14:02:36Z</time>
      </trkpt>
      <trkpt lat="48.74878" lon="2.53871">
        <ele>89.54</ele>
        <time>2016-02-14T14:02:39Z</time>
      </trkpt>
      <trkpt lat="48.74877" lon="2.53854">
        <ele>89.54</ele>
        <time>2016-02-14T14:02:53Z</time>
      </trkpt>
      <trkpt lat="48.74883" lon="2.53831">
        <ele>89.54</ele>
        <time>2016-02-14T14:03:09Z</time>
      </trkpt>
      <trkpt lat="48.74889" lon="2.53805">
        <ele>89.54</ele>
        <time>2016-02-14T14:03:25Z</time>
      </trkpt>
      <trkpt lat="48.74895" lon="2.53775">
        <ele>89.06</ele>
        <time>2016-02-14T14:03:42Z</time>
      </trkpt>
      <trkpt lat="48.74905" lon="2.53749">
        <ele>89.06</ele>
        <time>2016-02-14T14:04:00Z</time>
      </trkpt>
      <trkpt lat="48.74914" lon="2.53727">
        <ele>89.06</ele>
        <time>2016-02-14T14:04:14Z</time>
      </trkpt>
      <trkpt lat="48.74926" lon="2.53703">
        <ele>89.06</ele>
        <time>2016-02-14T14:04:32Z</time>
      </trkpt>
      <trkpt lat="48.74937" lon="2.53679">
        <ele>88.58</ele>
        <time>2016-02-14T14:04:48Z</time>
      </trkpt>
      <trkpt lat="48.74947" lon="2.53654">
        <ele>89.06</ele>
        <time>2016-02-14T14:05:03Z</time>
      </trkpt>
      <trkpt lat="48.74948" lon="2.53643">
        <ele>88.58</ele>
        <time>2016-02-14T14:05:21Z</time>
      </trkpt>
      <trkpt lat="48.74942" lon="2.53636">
        <ele>88.1</ele>
        <time>2016-02-14T14:05:36Z</time>
      </trkpt>
      <trkpt lat="48.74935" lon="2.53621">
        <ele>88.1</ele>
        <time>2016-02-14T14:05:59Z</time>
      </trkpt>
      <trkpt lat="48.74931" lon="2.53599">
        <ele>88.1</ele>
        <time>2016-02-14T14:06:14Z</time>
      </trkpt>
      <trkpt lat="48.74932" lon="2.53577">
        <ele>90.5</ele>
        <time>2016-02-14T14:06:30Z</time>
      </trkpt>
      <trkpt lat="48.74937" lon="2.53581">
        <ele>87.62</ele>
        <time>2016-02-14T14:06:57Z</time>
      </trkpt>
      <trkpt lat="48.7494" lon="2.53583">
        <ele>87.62</ele>
        <time>2016-02-14T14:07:14Z</time>
      </trkpt>
      <trkpt lat="48.74928" lon="2.53578">
        <ele>87.62</ele>
        <time>2016-02-14T14:07:46Z</time>
      </trkpt>
      <trkpt lat="48.74929" lon="2.53574">
        <ele>87.62</ele>
        <time>2016-02-14T14:08:08Z</time>
      </trkpt>
      <trkpt lat="48.74929" lon="2.53577">
        <ele>87.62</ele>
        <time>2016-02-14T14:08:29Z</time>
      </trkpt>
      <trkpt lat="48.74934" lon="2.53566">
        <ele>88.1</ele>
        <time>2016-02-14T14:08:55Z</time>
      </trkpt>
      <trkpt lat="48.74939" lon="2.53555">
        <ele>87.62</ele>
        <time>2016-02-14T14:09:10Z</time>
      </trkpt>
      <trkpt lat="48.74937" lon="2.53551">
        <ele>87.14</ele>
        <time>2016-02-14T14:09:30Z</time>
      </trkpt>
      <trkpt lat="48.74937" lon="2.53561">
        <ele>87.62</ele>
        <time>2016-02-14T14:09:48Z</time>
      </trkpt>
      <trkpt lat="48.74937" lon="2.53566">
        <ele>87.62</ele>
        <time>2016-02-14T14:10:07Z</time>
      </trkpt>
      <trkpt lat="48.74942" lon="2.53564">
        <ele>87.62</ele>
        <time>2016-02-14T14:10:39Z</time>
      </trkpt>
      <trkpt lat="48.74939" lon="2.53552">
        <ele>87.62</ele>
        <time>2016-02-14T14:11:04Z</time>
      </trkpt>
      <trkpt lat="48.74936" lon="2.53547">
        <ele>87.14</ele>
        <time>2016-02-14T14:11:36Z</time>
      </trkpt>
      <trkpt lat="48.74934" lon="2.53537">
        <ele>87.14</ele>
        <time>2016-02-14T14:12:02Z</time>
      </trkpt>
      <trkpt lat="48.74929" lon="2.53535">
        <ele>86.66</ele>
        <time>2016-02-14T14:12:28Z</time>
      </trkpt>
      <trkpt lat="48.7492" lon="2.53528">
        <ele>86.66</ele>
        <time>2016-02-14T14:12:53Z</time>
      </trkpt>
      <trkpt lat="48.74905" lon="2.53511">
        <ele>86.66</ele>
        <time>2016-02-14T14:13:10Z</time>
      </trkpt>
      <trkpt lat="48.74891" lon="2.53492">
        <ele>86.66</ele>
        <time>2016-02-14T14:13:29Z</time>
      </trkpt>
      <trkpt lat="48.74875" lon="2.53472">
        <ele>86.66</ele>
        <time>2016-02-14T14:13:48Z</time>
      </trkpt>
      <trkpt lat="48.74864" lon="2.5346">
        <ele>86.66</ele>
        <time>2016-02-14T14:14:01Z</time>
      </trkpt>
      <trkpt lat="48.74851" lon="2.53442">
        <ele>86.18</ele>
        <time>2016-02-14T14:14:15Z</time>
      </trkpt>
      <trkpt lat="48.74835" lon="2.53426">
        <ele>86.18</ele>
        <time>2016-02-14T14:14:34Z</time>
      </trkpt>
      <trkpt lat="48.74817" lon="2.53405">
        <ele>85.69</ele>
        <time>2016-02-14T14:14:51Z</time>
      </trkpt>
      <trkpt lat="48.74803" lon="2.53387">
        <ele>85.69</ele>
        <time>2016-02-14T14:15:07Z</time>
      </trkpt>
      <trkpt lat="48.74786" lon="2.53369">
        <ele>85.69</ele>
        <time>2016-02-14T14:15:26Z</time>
      </trkpt>
      <trkpt lat="48.74769" lon="2.53347">
        <ele>85.69</ele>
        <time>2016-02-14T14:15:45Z</time>
      </trkpt>
      <trkpt lat="48.74751" lon="2.53326">
        <ele>85.21</ele>
        <time>2016-02-14T14:16:05Z</time>
      </trkpt>
      <trkpt lat="48.74749" lon="2.53323">
        <ele>85.21</ele>
        <time>2016-02-14T14:16:07Z</time>
      </trkpt>
      <trkpt lat="48.74731" lon="2.53299">
        <ele>84.73</ele>
        <time>2016-02-14T14:16:25Z</time>
      </trkpt>
      <trkpt lat="48.74718" lon="2.53286">
        <ele>84.73</ele>
        <time>2016-02-14T14:16:42Z</time>
      </trkpt>
      <trkpt lat="48.74702" lon="2.53266">
        <ele>84.25</ele>
        <time>2016-02-14T14:16:59Z</time>
      </trkpt>
      <trkpt lat="48.74684" lon="2.53241">
        <ele>83.77</ele>
        <time>2016-02-14T14:17:17Z</time>
      </trkpt>
      <trkpt lat="48.74664" lon="2.53219">
        <ele>83.77</ele>
        <time>2016-02-14T14:17:36Z</time>
      </trkpt>
      <trkpt lat="48.74649" lon="2.53199">
        <ele>83.77</ele>
        <time>2016-02-14T14:17:54Z</time>
      </trkpt>
      <trkpt lat="48.7463" lon="2.53173">
        <ele>83.77</ele>
        <time>2016-02-14T14:18:14Z</time>
      </trkpt>
      <trkpt lat="48.74615" lon="2.53154">
        <ele>83.77</ele>
        <time>2016-02-14T14:18:30Z</time>
      </trkpt>
      <trkpt lat="48.74597" lon="2.53132">
        <ele>83.77</ele>
        <time>2016-02-14T14:18:49Z</time>
      </trkpt>
      <trkpt lat="48.74581" lon="2.53113">
        <ele>83.29</ele>
        <time>2016-02-14T14:19:06Z</time>
      </trkpt>
      <trkpt lat="48.74563" lon="2.53094">
        <ele>83.29</ele>
        <time>2016-02-14T14:19:23Z</time>
      </trkpt>
      <trkpt lat="48.74547" lon="2.53074">
        <ele>83.29</ele>
        <time>2016-02-14T14:19:41Z</time>
      </trkpt>
      <trkpt lat="48.74529" lon="2.53049">
        <ele>83.77</ele>
        <time>2016-02-14T14:20:00Z</time>
      </trkpt>
      <trkpt lat="48.7452" lon="2.53026">
        <ele>83.29</ele>
        <time>2016-02-14T14:20:15Z</time>
      </trkpt>
      <trkpt lat="48.74516" lon="2.53007">
        <ele>83.29</ele>
        <time>2016-02-14T14:20:26Z</time>
      </trkpt>
      <trkpt lat="48.74507" lon="2.5298">
        <ele>83.29</ele>
        <time>2016-02-14T14:20:42Z</time>
      </trkpt>
      <trkpt lat="48.74501" lon="2.52948">
        <ele>83.29</ele>
        <time>2016-02-14T14:20:59Z</time>
      </trkpt>
      <trkpt lat="48.74493" lon="2.52921">
        <ele>83.77</ele>
        <time>2016-02-14T14:21:15Z</time>
      </trkpt>
      <trkpt lat="48.7449" lon="2.52902">
        <ele>84.25</ele>
        <time>2016-02-14T14:21:29Z</time>
      </trkpt>
      <trkpt lat="48.74481" lon="2.52871">
        <ele>83.29</ele>
        <time>2016-02-14T14:21:44Z</time>
      </trkpt>
      <trkpt lat="48.74475" lon="2.52845">
        <ele>83.29</ele>
        <time>2016-02-14T14:22:00Z</time>
      </trkpt>
      <trkpt lat="48.74472" lon="2.52822">
        <ele>84.25</ele>
        <time>2016-02-14T14:22:17Z</time>
      </trkpt>
      <trkpt lat="48.74466" lon="2.5279">
        <ele>83.77</ele>
        <time>2016-02-14T14:22:33Z</time>
      </trkpt>
      <trkpt lat="48.74462" lon="2.52763">
        <ele>83.77</ele>
        <time>2016-02-14T14:22:48Z</time>
      </trkpt>
      <trkpt lat="48.74455" lon="2.52736">
        <ele>84.25</ele>
        <time>2016-02-14T14:23:02Z</time>
      </trkpt>
      <trkpt lat="48.74447" lon="2.52712">
        <ele>83.77</ele>
        <time>2016-02-14T14:23:16Z</time>
      </trkpt>
      <trkpt lat="48.74434" lon="2.52675">
        <ele>84.25</ele>
        <time>2016-02-14T14:23:36Z</time>
      </trkpt>
      <trkpt lat="48.74428" lon="2.52649">
        <ele>84.25</ele>
        <time>2016-02-14T14:23:52Z</time>
      </trkpt>
      <trkpt lat="48.74422" lon="2.52625">
        <ele>84.25</ele>
        <time>2016-02-14T14:24:06Z</time>
      </trkpt>
      <trkpt lat="48.74417" lon="2.52602">
        <ele>83.77</ele>
        <time>2016-02-14T14:24:22Z</time>
      </trkpt>
      <trkpt lat="48.74412" lon="2.52572">
        <ele>83.77</ele>
        <time>2016-02-14T14:24:39Z</time>
      </trkpt>
      <trkpt lat="48.74413" lon="2.52544">
        <ele>83.77</ele>
        <time>2016-02-14T14:24:56Z</time>
      </trkpt>
      <trkpt lat="48.74425" lon="2.52522">
        <ele>83.29</ele>
        <time>2016-02-14T14:25:14Z</time>
      </trkpt>
      <trkpt lat="48.74437" lon="2.52503">
        <ele>83.29</ele>
        <time>2016-02-14T14:25:30Z</time>
      </trkpt>
      <trkpt lat="48.74451" lon="2.52485">
        <ele>83.29</ele>
        <time>2016-02-14T14:25:46Z</time>
      </trkpt>
      <trkpt lat="48.74462" lon="2.5246">
        <ele>83.29</ele>
        <time>2016-02-14T14:26:02Z</time>
      </trkpt>
      <trkpt lat="48.74475" lon="2.52435">
        <ele>82.81</ele>
        <time>2016-02-14T14:26:18Z</time>
      </trkpt>
      <trkpt lat="48.74485" lon="2.52421">
        <ele>82.81</ele>
        <time>2016-02-14T14:26:31Z</time>
      </trkpt>
      <trkpt lat="48.74497" lon="2.52399">
        <ele>82.33</ele>
        <time>2016-02-14T14:26:46Z</time>
      </trkpt>
      <trkpt lat="48.74509" lon="2.52379">
        <ele>82.33</ele>
        <time>2016-02-14T14:27:01Z</time>
      </trkpt>
      <trkpt lat="48.74519" lon="2.52361">
        <ele>82.33</ele>
        <time>2016-02-14T14:27:15Z</time>
      </trkpt>
      <trkpt lat="48.7453" lon="2.52343">
        <ele>81.85</ele>
        <time>2016-02-14T14:27:28Z</time>
      </trkpt>
      <trkpt lat="48.7454" lon="2.52326">
        <ele>82.33</ele>
        <time>2016-02-14T14:27:43Z</time>
      </trkpt>
      <trkpt lat="48.74556" lon="2.523">
        <ele>82.81</ele>
        <time>2016-02-14T14:28:00Z</time>
      </trkpt>
      <trkpt lat="48.74566" lon="2.52279">
        <ele>82.81</ele>
        <time>2016-02-14T14:28:15Z</time>
      </trkpt>
      <trkpt lat="48.74578" lon="2.52257">
        <ele>82.81</ele>
        <time>2016-02-14T14:28:31Z</time>
      </trkpt>
      <trkpt lat="48.74592" lon="2.52231">
        <ele>82.81</ele>
        <time>2016-02-14T14:28:48Z</time>
      </trkpt>
      <trkpt lat="48.74604" lon="2.52207">
        <ele>83.29</ele>
        <time>2016-02-14T14:29:05Z</time>
      </trkpt>
      <trkpt lat="48.74605" lon="2.52206">
        <ele>83.29</ele>
        <time>2016-02-14T14:29:06Z</time>
      </trkpt>
      <trkpt lat="48.74612" lon="2.52194">
        <ele>82.81</ele>
        <time>2016-02-14T14:29:16Z</time>
      </trkpt>
      <trkpt lat="48.74625" lon="2.52172">
        <ele>82.81</ele>
        <time>2016-02-14T14:29:32Z</time>
      </trkpt>
      <trkpt lat="48.74634" lon="2.52153">
        <ele>82.81</ele>
        <time>2016-02-14T14:29:46Z</time>
      </trkpt>
      <trkpt lat="48.74645" lon="2.52134">
        <ele>82.81</ele>
        <time>2016-02-14T14:30:00Z</time>
      </trkpt>
      <trkpt lat="48.74658" lon="2.52113">
        <ele>83.29</ele>
        <time>2016-02-14T14:30:15Z</time>
      </trkpt>
      <trkpt lat="48.74668" lon="2.52094">
        <ele>82.81</ele>
        <time>2016-02-14T14:30:29Z</time>
      </trkpt>
      <trkpt lat="48.74678" lon="2.52077">
        <ele>83.29</ele>
        <time>2016-02-14T14:30:45Z</time>
      </trkpt>
      <trkpt lat="48.7469" lon="2.52055">
        <ele>83.29</ele>
        <time>2016-02-14T14:30:59Z</time>
      </trkpt>
      <trkpt lat="48.74694" lon="2.52047">
        <ele>83.77</ele>
        <time>2016-02-14T14:31:06Z</time>
      </trkpt>
      <trkpt lat="48.74705" lon="2.52029">
        <ele>83.77</ele>
        <time>2016-02-14T14:31:21Z</time>
      </trkpt>
      <trkpt lat="48.74717" lon="2.52007">
        <ele>84.25</ele>
        <time>2016-02-14T14:31:36Z</time>
      </trkpt>
      <trkpt lat="48.7473" lon="2.51984">
        <ele>84.25</ele>
        <time>2016-02-14T14:31:51Z</time>
      </trkpt>
      <trkpt lat="48.74736" lon="2.51967">
        <ele>84.25</ele>
        <time>2016-02-14T14:32:05Z</time>
      </trkpt>
      <trkpt lat="48.7475" lon="2.51946">
        <ele>84.25</ele>
        <time>2016-02-14T14:32:23Z</time>
      </trkpt>
      <trkpt lat="48.74764" lon="2.51929">
        <ele>84.25</ele>
        <time>2016-02-14T14:32:39Z</time>
      </trkpt>
      <trkpt lat="48.74765" lon="2.51929">
        <ele>84.25</ele>
        <time>2016-02-14T14:33:00Z</time>
      </trkpt>
      <trkpt lat="48.74765" lon="2.51928">
        <ele>84.25</ele>
        <time>2016-02-14T14:33:04Z</time>
      </trkpt>
      <trkpt lat="48.74761" lon="2.51903">
        <ele>84.25</ele>
        <time>2016-02-14T14:33:18Z</time>
      </trkpt>
      <trkpt lat="48.74759" lon="2.51892">
        <ele>84.25</ele>
        <time>2016-02-14T14:33:24Z</time>
      </trkpt>
      <trkpt lat="48.74757" lon="2.5188">
        <ele>84.25</ele>
        <time>2016-02-14T14:33:31Z</time>
      </trkpt>
      <trkpt lat="48.74754" lon="2.51847">
        <ele>84.25</ele>
        <time>2016-02-14T14:33:51Z</time>
      </trkpt>
      <trkpt lat="48.74751" lon="2.51829">
        <ele>84.25</ele>
        <time>2016-02-14T14:34:07Z</time>
      </trkpt>
      <trkpt lat="48.74748" lon="2.51803">
        <ele>83.77</ele>
        <time>2016-02-14T14:34:22Z</time>
      </trkpt>
      <trkpt lat="48.74742" lon="2.51767">
        <ele>83.77</ele>
        <time>2016-02-14T14:34:41Z</time>
      </trkpt>
      <trkpt lat="48.74742" lon="2.51747">
        <ele>83.77</ele>
        <time>2016-02-14T14:34:52Z</time>
      </trkpt>
      <trkpt lat="48.74739" lon="2.5172">
        <ele>83.29</ele>
        <time>2016-02-14T14:35:09Z</time>
      </trkpt>
      <trkpt lat="48.74734" lon="2.51691">
        <ele>82.81</ele>
        <time>2016-02-14T14:35:26Z</time>
      </trkpt>
      <trkpt lat="48.74732" lon="2.51662">
        <ele>82.81</ele>
        <time>2016-02-14T14:35:42Z</time>
      </trkpt>
      <trkpt lat="48.74726" lon="2.51631">
        <ele>82.33</ele>
        <time>2016-02-14T14:35:59Z</time>
      </trkpt>
      <trkpt lat="48.74723" lon="2.51602">
        <ele>82.33</ele>
        <time>2016-02-14T14:36:15Z</time>
      </trkpt>
      <trkpt lat="48.74723" lon="2.51578">
        <ele>82.33</ele>
        <time>2016-02-14T14:36:29Z</time>
      </trkpt>
      <trkpt lat="48.74721" lon="2.51548">
        <ele>82.33</ele>
        <time>2016-02-14T14:36:44Z</time>
      </trkpt>
      <trkpt lat="48.74726" lon="2.51527">
        <ele>82.33</ele>
        <time>2016-02-14T14:36:59Z</time>
      </trkpt>
      <trkpt lat="48.74735" lon="2.51523">
        <ele>82.81</ele>
        <time>2016-02-14T14:37:14Z</time>
      </trkpt>
      <trkpt lat="48.74732" lon="2.51507">
        <ele>82.81</ele>
        <time>2016-02-14T14:37:25Z</time>
      </trkpt>
      <trkpt lat="48.74739" lon="2.51498">
        <ele>82.81</ele>
        <time>2016-02-14T14:37:32Z</time>
      </trkpt>
      <trkpt lat="48.74752" lon="2.51484">
        <ele>82.81</ele>
        <time>2016-02-14T14:37:48Z</time>
      </trkpt>
      <trkpt lat="48.74764" lon="2.51465">
        <ele>82.33</ele>
        <time>2016-02-14T14:38:05Z</time>
      </trkpt>
      <trkpt lat="48.74772" lon="2.51452">
        <ele>82.33</ele>
        <time>2016-02-14T14:38:18Z</time>
      </trkpt>
      <trkpt lat="48.74785" lon="2.51432">
        <ele>82.33</ele>
        <time>2016-02-14T14:38:33Z</time>
      </trkpt>
      <trkpt lat="48.74795" lon="2.51413">
        <ele>82.81</ele>
        <time>2016-02-14T14:38:46Z</time>
      </trkpt>
      <trkpt lat="48.74808" lon="2.51394">
        <ele>82.81</ele>
        <time>2016-02-14T14:39:00Z</time>
      </trkpt>
      <trkpt lat="48.74822" lon="2.51375">
        <ele>82.81</ele>
        <time>2016-02-14T14:39:16Z</time>
      </trkpt>
      <trkpt lat="48.74825" lon="2.51372">
        <ele>82.81</ele>
        <time>2016-02-14T14:39:19Z</time>
      </trkpt>
      <trkpt lat="48.74832" lon="2.51357">
        <ele>82.81</ele>
        <time>2016-02-14T14:39:30Z</time>
      </trkpt>
      <trkpt lat="48.74835" lon="2.5135">
        <ele>83.29</ele>
        <time>2016-02-14T14:39:34Z</time>
      </trkpt>
      <trkpt lat="48.74843" lon="2.51337">
        <ele>83.29</ele>
        <time>2016-02-14T14:39:43Z</time>
      </trkpt>
      <trkpt lat="48.74851" lon="2.5132">
        <ele>82.81</ele>
        <time>2016-02-14T14:39:55Z</time>
      </trkpt>
      <trkpt lat="48.74853" lon="2.51317">
        <ele>82.81</ele>
        <time>2016-02-14T14:39:57Z</time>
      </trkpt>
      <trkpt lat="48.74861" lon="2.51305">
        <ele>82.81</ele>
        <time>2016-02-14T14:40:14Z</time>
      </trkpt>
      <trkpt lat="48.74869" lon="2.513">
        <ele>82.81</ele>
        <time>2016-02-14T14:40:30Z</time>
      </trkpt>
      <trkpt lat="48.74877" lon="2.51296">
        <ele>82.81</ele>
        <time>2016-02-14T14:40:37Z</time>
      </trkpt>
      <trkpt lat="48.74887" lon="2.51293">
        <ele>83.29</ele>
        <time>2016-02-14T14:40:51Z</time>
      </trkpt>
      <trkpt lat="48.74891" lon="2.51278">
        <ele>83.77</ele>
        <time>2016-02-14T14:41:04Z</time>
      </trkpt>
      <trkpt lat="48.74901" lon="2.51268">
        <ele>83.77</ele>
        <time>2016-02-14T14:41:20Z</time>
      </trkpt>
      <trkpt lat="48.74912" lon="2.51253">
        <ele>83.77</ele>
        <time>2016-02-14T14:41:35Z</time>
      </trkpt>
      <trkpt lat="48.7492" lon="2.51239">
        <ele>83.77</ele>
        <time>2016-02-14T14:41:45Z</time>
      </trkpt>
      <trkpt lat="48.74925" lon="2.51233">
        <ele>83.77</ele>
        <time>2016-02-14T14:41:58Z</time>
      </trkpt>
      <trkpt lat="48.74928" lon="2.51231">
        <ele>83.29</ele>
        <time>2016-02-14T14:42:07Z</time>
      </trkpt>
      <trkpt lat="48.74933" lon="2.51228">
        <ele>83.29</ele>
        <time>2016-02-14T14:42:12Z</time>
      </trkpt>
      <trkpt lat="48.74938" lon="2.51223">
        <ele>83.29</ele>
        <time>2016-02-14T14:42:16Z</time>
      </trkpt>
      <trkpt lat="48.74945" lon="2.51219">
        <ele>83.29</ele>
        <time>2016-02-14T14:42:24Z</time>
      </trkpt>
      <trkpt lat="48.74956" lon="2.51209">
        <ele>82.81</ele>
        <time>2016-02-14T14:42:37Z</time>
      </trkpt>
      <trkpt lat="48.7496" lon="2.51201">
        <ele>82.81</ele>
        <time>2016-02-14T14:42:41Z</time>
      </trkpt>
      <trkpt lat="48.74976" lon="2.51188">
        <ele>82.33</ele>
        <time>2016-02-14T14:42:56Z</time>
      </trkpt>
      <trkpt lat="48.74982" lon="2.51181">
        <ele>82.33</ele>
        <time>2016-02-14T14:43:03Z</time>
      </trkpt>
      <trkpt lat="48.74987" lon="2.51176">
        <ele>81.85</ele>
        <time>2016-02-14T14:43:09Z</time>
      </trkpt>
      <trkpt lat="48.75006" lon="2.51158">
        <ele>81.37</ele>
        <time>2016-02-14T14:43:27Z</time>
      </trkpt>
      <trkpt lat="48.75018" lon="2.51148">
        <ele>80.89</ele>
        <time>2016-02-14T14:43:40Z</time>
      </trkpt>
      <trkpt lat="48.75028" lon="2.51138">
        <ele>80.41</ele>
        <time>2016-02-14T14:43:53Z</time>
      </trkpt>
      <trkpt lat="48.75037" lon="2.51131">
        <ele>79.93</ele>
        <time>2016-02-14T14:44:02Z</time>
      </trkpt>
      <trkpt lat="48.7505" lon="2.5111">
        <ele>78.97</ele>
        <time>2016-02-14T14:44:16Z</time>
      </trkpt>
      <trkpt lat="48.75063" lon="2.51092">
        <ele>78.48</ele>
        <time>2016-02-14T14:44:34Z</time>
      </trkpt>
      <trkpt lat="48.75075" lon="2.51077">
        <ele>77.52</ele>
        <time>2016-02-14T14:44:48Z</time>
      </trkpt>
      <trkpt lat="48.7509" lon="2.51056">
        <ele>76.56</ele>
        <time>2016-02-14T14:45:04Z</time>
      </trkpt>
      <trkpt lat="48.75091" lon="2.51055">
        <ele>76.56</ele>
        <time>2016-02-14T14:45:05Z</time>
      </trkpt>
      <trkpt lat="48.75101" lon="2.51045">
        <ele>76.08</ele>
        <time>2016-02-14T14:45:18Z</time>
      </trkpt>
      <trkpt lat="48.75106" lon="2.51038">
        <ele>75.12</ele>
        <time>2016-02-14T14:45:23Z</time>
      </trkpt>
      <trkpt lat="48.75116" lon="2.51027">
        <ele>74.64</ele>
        <time>2016-02-14T14:45:34Z</time>
      </trkpt>
      <trkpt lat="48.75121" lon="2.51035">
        <ele>75.12</ele>
        <time>2016-02-14T14:45:49Z</time>
      </trkpt>
      <trkpt lat="48.75119" lon="2.51021">
        <ele>74.16</ele>
        <time>2016-02-14T14:46:02Z</time>
      </trkpt>
      <trkpt lat="48.75127" lon="2.51009">
        <ele>73.2</ele>
        <time>2016-02-14T14:46:13Z</time>
      </trkpt>
      <trkpt lat="48.75141" lon="2.50994">
        <ele>71.76</ele>
        <time>2016-02-14T14:46:30Z</time>
      </trkpt>
      <trkpt lat="48.75153" lon="2.50983">
        <ele>70.79</ele>
        <time>2016-02-14T14:46:44Z</time>
      </trkpt>
      <trkpt lat="48.75157" lon="2.50979">
        <ele>70.31</ele>
        <time>2016-02-14T14:46:48Z</time>
      </trkpt>
      <trkpt lat="48.7516" lon="2.50974">
        <ele>69.83</ele>
        <time>2016-02-14T14:46:51Z</time>
      </trkpt>
      <trkpt lat="48.75164" lon="2.50965">
        <ele>69.35</ele>
        <time>2016-02-14T14:46:55Z</time>
      </trkpt>
      <trkpt lat="48.75173" lon="2.50954">
        <ele>68.87</ele>
        <time>2016-02-14T14:47:04Z</time>
      </trkpt>
      <trkpt lat="48.75181" lon="2.50941">
        <ele>67.43</ele>
        <time>2016-02-14T14:47:13Z</time>
      </trkpt>
      <trkpt lat="48.75197" lon="2.50924">
        <ele>65.99</ele>
        <time>2016-02-14T14:47:31Z</time>
      </trkpt>
      <trkpt lat="48.75196" lon="2.50927">
        <ele>65.51</ele>
        <time>2016-02-14T14:47:35Z</time>
      </trkpt>
      <trkpt lat="48.75201" lon="2.50923">
        <ele>65.51</ele>
        <time>2016-02-14T14:47:39Z</time>
      </trkpt>
      <trkpt lat="48.75205" lon="2.50916">
        <ele>64.55</ele>
        <time>2016-02-14T14:47:44Z</time>
      </trkpt>
      <trkpt lat="48.75223" lon="2.50892">
        <ele>62.62</ele>
        <time>2016-02-14T14:48:03Z</time>
      </trkpt>
      <trkpt lat="48.75239" lon="2.50875">
        <ele>60.22</ele>
        <time>2016-02-14T14:48:21Z</time>
      </trkpt>
      <trkpt lat="48.75252" lon="2.50859">
        <ele>58.78</ele>
        <time>2016-02-14T14:48:36Z</time>
      </trkpt>
      <trkpt lat="48.75254" lon="2.50856">
        <ele>58.3</ele>
        <time>2016-02-14T14:48:39Z</time>
      </trkpt>
      <trkpt lat="48.75272" lon="2.50832">
        <ele>56.37</ele>
        <time>2016-02-14T14:48:58Z</time>
      </trkpt>
      <trkpt lat="48.75287" lon="2.50813">
        <ele>53.97</ele>
        <time>2016-02-14T14:49:16Z</time>
      </trkpt>
      <trkpt lat="48.75301" lon="2.50792">
        <ele>52.53</ele>
        <time>2016-02-14T14:49:34Z</time>
      </trkpt>
      <trkpt lat="48.75317" lon="2.50769">
        <ele>50.61</ele>
        <time>2016-02-14T14:49:53Z</time>
      </trkpt>
      <trkpt lat="48.75331" lon="2.50753">
        <ele>49.16</ele>
        <time>2016-02-14T14:50:08Z</time>
      </trkpt>
      <trkpt lat="48.75338" lon="2.50744">
        <ele>48.68</ele>
        <time>2016-02-14T14:50:16Z</time>
      </trkpt>
      <trkpt lat="48.75359" lon="2.50717">
        <ele>47.24</ele>
        <time>2016-02-14T14:50:37Z</time>
      </trkpt>
      <trkpt lat="48.75373" lon="2.50699">
        <ele>46.28</ele>
        <time>2016-02-14T14:50:53Z</time>
      </trkpt>
      <trkpt lat="48.75379" lon="2.50683">
        <ele>45.32</ele>
        <time>2016-02-14T14:51:01Z</time>
      </trkpt>
      <trkpt lat="48.75372" lon="2.50677">
        <ele>45.8</ele>
        <time>2016-02-14T14:51:09Z</time>
      </trkpt>
      <trkpt lat="48.75356" lon="2.50675">
        <ele>45.32</ele>
        <time>2016-02-14T14:51:25Z</time>
      </trkpt>
      <trkpt lat="48.75354" lon="2.50671">
        <ele>44.84</ele>
        <time>2016-02-14T14:51:33Z</time>
      </trkpt>
      <trkpt lat="48.75345" lon="2.50655">
        <ele>45.32</ele>
        <time>2016-02-14T14:51:45Z</time>
      </trkpt>
      <trkpt lat="48.75337" lon="2.50637">
        <ele>44.84</ele>
        <time>2016-02-14T14:51:59Z</time>
      </trkpt>
      <trkpt lat="48.75337" lon="2.50634">
        <ele>44.84</ele>
        <time>2016-02-14T14:52:01Z</time>
      </trkpt>
      <trkpt lat="48.75327" lon="2.50625">
        <ele>45.8</ele>
        <time>2016-02-14T14:52:15Z</time>
      </trkpt>
      <trkpt lat="48.75318" lon="2.50612">
        <ele>45.8</ele>
        <time>2016-02-14T14:52:28Z</time>
      </trkpt>
      <trkpt lat="48.75316" lon="2.50607">
        <ele>45.8</ele>
        <time>2016-02-14T14:52:32Z</time>
      </trkpt>
      <trkpt lat="48.75316" lon="2.50603">
        <ele>46.28</ele>
        <time>2016-02-14T14:52:34Z</time>
      </trkpt>
      <trkpt lat="48.75306" lon="2.50597">
        <ele>46.28</ele>
        <time>2016-02-14T14:52:45Z</time>
      </trkpt>
      <trkpt lat="48.75298" lon="2.50577">
        <ele>45.8</ele>
        <time>2016-02-14T14:53:01Z</time>
      </trkpt>
      <trkpt lat="48.75298" lon="2.50558">
        <ele>46.28</ele>
        <time>2016-02-14T14:53:15Z</time>
      </trkpt>
      <trkpt lat="48.75295" lon="2.50497">
        <ele>46.28</ele>
        <time>2016-02-14T14:54:10Z</time>
      </trkpt>
      <trkpt lat="48.75287" lon="2.50486">
        <ele>46.76</ele>
        <time>2016-02-14T14:54:25Z</time>
      </trkpt>
      <trkpt lat="48.75286" lon="2.50489">
        <ele>46.28</ele>
        <time>2016-02-14T14:54:40Z</time>
      </trkpt>
      <trkpt lat="48.75285" lon="2.50485">
        <ele>46.28</ele>
        <time>2016-02-14T14:54:57Z</time>
      </trkpt>
    </trkseg>
  </trk>
</gpx>